Provisional Data: Apalachin Creek near Apalachin, NY


Please select a monitoring station.
Please select start date.
Please select start date.

Toggle Unit: C/F Toggle Unit: C/F
Sample Time Temperature (C) Temperature (F) Specific Conductivity (mS/cm) pH   Turbidity (NTU+) DO (mg/L)
5/17/2022 12:00:00 AM 15.62 60.116 0.115 7.26 29.65 8.62
5/17/2022 12:15:00 AM 15.54 59.972 0.115 7.26 28.27 8.63
5/17/2022 12:30:00 AM 15.45 59.81 0.115 7.25 24.75 8.64
5/17/2022 12:45:00 AM 15.36 59.648 0.116 7.25 24.95 8.66
5/17/2022 1:00:00 AM 15.28 59.504 0.116 7.25 22.22 8.66
5/17/2022 1:15:00 AM 15.19 59.342 0.117 7.25 21.36 8.67
5/17/2022 1:30:00 AM 15.11 59.198 0.117 7.25 21.7 8.67
5/17/2022 1:45:00 AM 15.03 59.054 0.118 7.25 20.22 8.69
5/17/2022 2:00:00 AM 14.94 58.892 0.118 7.25 19.29 8.7
5/17/2022 2:15:00 AM 14.86 58.748 0.118 7.25 18.23 8.7
5/17/2022 2:30:00 AM 14.78 58.604 0.119 7.25 16.97 8.73
5/17/2022 2:45:00 AM 14.71 58.478 0.119 7.25 17.34 8.73
5/17/2022 3:00:00 AM 14.64 58.352 0.119 7.25 14.55 8.74
5/17/2022 3:15:00 AM 14.56 58.208 0.12 7.25 14.86 8.76
5/17/2022 3:30:00 AM 14.49 58.082 0.12 7.26 13.93 8.77
5/17/2022 3:45:00 AM 14.42 57.956 0.121 7.26 13.73 8.77
5/17/2022 4:00:00 AM 14.36 57.848 0.121 7.25 13.04 8.79
5/17/2022 4:15:00 AM 14.29 57.722 0.121 7.26 13.1 8.8
5/17/2022 4:30:00 AM 14.23 57.614 0.122 7.26 11.58 8.82
5/17/2022 4:45:00 AM 14.18 57.524 0.122 7.26 11.47 8.82
5/17/2022 5:00:00 AM 14.15 57.47 0.122 7.26 9.92 8.83
5/17/2022 5:15:00 AM 14.12 57.416 0.123 7.26 10.73 8.84
5/17/2022 5:30:00 AM 14.08 57.344 0.123 7.26 10.26 8.83
5/17/2022 5:45:00 AM 14.05 57.29 0.123 7.26 9.16 8.84
5/17/2022 6:00:00 AM 14.02 57.236 0.124 7.26 9.59 8.84
5/17/2022 6:15:00 AM 14 57.2 0.124 7.26 8.41 8.87
5/17/2022 6:30:00 AM 13.98 57.164 0.124 7.28 8.83 8.94
5/17/2022 6:45:00 AM 13.97 57.146 0.124 7.29 8.28 9.04
5/17/2022 7:00:00 AM 13.96 57.128 0.125 7.31 7.98 9.13
5/17/2022 7:15:00 AM 13.97 57.146 0.125 7.34 7.51 9.27
5/17/2022 7:30:00 AM 14.01 57.218 0.125 7.37 7.52 9.43
5/17/2022 7:45:00 AM 14.08 57.344 0.125 7.41 6.69 9.59
5/17/2022 8:00:00 AM 14.2 57.56 0.125 7.46 7.3 9.81
5/17/2022 8:15:00 AM 14.27 57.686 0.126 7.49 6.89 9.91
5/17/2022 8:30:00 AM 14.31 57.758 0.126 7.53 6.58 10.02
5/17/2022 8:45:00 AM 14.37 57.866 0.126 7.56 6.08 10.08
5/17/2022 9:00:00 AM 14.5 58.1 0.126 7.6 5.89 10.17
5/17/2022 9:15:00 AM 14.64 58.352 0.126 7.64 6 10.27
5/17/2022 9:30:00 AM 14.73 58.514 0.126 7.66 5.61 10.3
5/17/2022 9:45:00 AM 14.77 58.586 0.126 7.67 5.5 10.28
5/17/2022 10:00:00 AM 14.83 58.694 0.127 7.71 5.61 10.35
5/17/2022 10:15:00 AM 14.97 58.946 0.127 7.76 5.25 10.41
5/17/2022 10:30:00 AM 15.12 59.216 0.127 7.81 4.81 10.43
5/17/2022 10:45:00 AM 15.38 59.684 0.127 7.82 4.8 10.48
5/17/2022 11:00:00 AM 15.52 59.936 0.127 7.85 4.66 10.46
5/17/2022 11:15:00 AM 15.57 60.026 0.127 7.83 4.85 10.37
5/17/2022 11:30:00 AM 15.78 60.404 0.127 7.94 4.49 10.48
5/17/2022 11:45:00 AM 16 60.8 0.128 8.02 4.45 10.52
5/17/2022 12:00:00 PM 16.21 61.178 0.128 8.04 4.44 10.49
5/17/2022 12:15:00 PM 16.53 61.754 0.128 8.12 4.24 10.54
5/17/2022 12:30:00 PM 16.87 62.366 0.128 8.21 4.06 10.55
5/17/2022 12:45:00 PM 17.13 62.834 0.128 8.21 4.24 10.55
5/17/2022 1:00:00 PM 17.27 63.086 0.128 8.27 4.21 10.47
5/17/2022 1:15:00 PM 17.52 63.536 0.128 8.35 3.88 10.51
5/17/2022 1:30:00 PM 17.64 63.752 0.129 8.37 3.95 10.44
5/17/2022 1:45:00 PM 17.87 64.166 0.129 8.41 3.87 10.44
5/17/2022 2:00:00 PM 17.97 64.346 0.129 8.38 3.66 10.39
5/17/2022 2:15:00 PM 18.18 64.724 0.129 8.48 3.56 10.42
5/17/2022 2:30:00 PM 18.23 64.814 0.129 8.45 3.57 10.32
5/17/2022 2:45:00 PM 18.3 64.94 0.129 8.5 3.67 10.35
5/17/2022 3:00:00 PM 18.29 64.922 0.129 8.53 3.53 10.31
5/17/2022 3:15:00 PM 18.28 64.904 0.129 8.57 3.38 10.34
5/17/2022 3:30:00 PM 18.25 64.85 0.13 8.59 3.39 10.34
5/17/2022 3:45:00 PM 18.27 64.886 0.13 8.61 5.75 10.35
5/17/2022 4:00:00 PM 18.24 64.832 0.13 8.6 3.37 10.29
5/17/2022 4:15:00 PM 18.22 64.796 0.13 8.61 3.25 10.27
5/17/2022 4:30:00 PM 18.08 64.544 0.13 8.56 3.17 10.14
5/17/2022 4:45:00 PM 17.97 64.346 0.131 8.53 3.21 10.08
5/17/2022 5:00:00 PM 17.83 64.094 0.131 8.49 3.22 10.04
5/17/2022 5:15:00 PM 17.73 63.914 0.131 8.47 3.15 10.04
5/17/2022 5:30:00 PM 17.65 63.77 0.131 8.45 3.21 10.04
5/17/2022 5:45:00 PM 17.56 63.608 0.131 8.39 3.01 9.99
5/17/2022 6:00:00 PM 17.41 63.338 0.132 8.31 3.12 9.93
5/17/2022 6:15:00 PM 17.24 63.032 0.132 8.16 3.01 9.76
5/17/2022 6:30:00 PM 17.08 62.744 0.132 8.07 3.17 9.72
5/17/2022 6:45:00 PM 16.94 62.492 0.133 7.95 3.22 9.58
5/17/2022 7:00:00 PM 16.8 62.24 0.133 7.81 3.27 9.4
5/17/2022 7:15:00 PM 16.69 62.042 0.133 7.71 2.99 9.26
5/17/2022 7:30:00 PM 16.56 61.808 0.134 7.62 3.11 9.13
5/17/2022 7:45:00 PM 16.43 61.574 0.134 7.55 2.99 9
5/17/2022 8:00:00 PM 16.32 61.376 0.135 7.49 2.93 8.86
5/17/2022 8:15:00 PM 16.23 61.214 0.135 7.44 2.82 8.73
5/17/2022 8:30:00 PM 16.12 61.016 0.136 7.39 2.9 8.6
5/17/2022 8:45:00 PM 16.02 60.836 0.136 7.36 2.87 8.5
5/17/2022 9:00:00 PM 15.92 60.656 0.136 7.33 2.75 8.42
5/17/2022 9:15:00 PM 15.81 60.458 0.137 7.31 2.78 8.36
5/17/2022 9:30:00 PM 15.72 60.296 0.137 7.29 2.72 8.32
5/17/2022 9:45:00 PM 15.65 60.17 0.137 7.28 2.83 8.3
5/17/2022 10:00:00 PM 15.58 60.044 0.138 7.27 2.82 8.29
5/17/2022 10:15:00 PM 15.5 59.9 0.138 7.26 2.66 8.27
5/17/2022 10:30:00 PM 15.44 59.792 0.138 7.26 2.76 8.27
5/17/2022 10:45:00 PM 15.37 59.666 0.139 7.26 2.85 8.26
5/17/2022 11:00:00 PM 15.31 59.558 0.139 7.25 2.62 8.27
5/17/2022 11:15:00 PM 15.25 59.45 0.139 7.25 2.54 8.27
5/17/2022 11:30:00 PM 15.18 59.324 0.139 7.25 2.65 8.27
5/17/2022 11:45:00 PM 15.09 59.162 0.139 7.25 2.58 8.28
5/18/2022 12:00:00 AM 15.01 59.018 0.14 7.25 2.73 8.29
5/18/2022 12:15:00 AM 14.93 58.874 0.14 7.24 2.54 8.3
5/18/2022 12:30:00 AM 14.84 58.712 0.14 7.24 2.7 8.3
5/18/2022 12:45:00 AM 14.75 58.55 0.14 7.24 2.51 8.32
5/18/2022 1:00:00 AM 14.66 58.388 0.14 7.24 2.42 8.32
5/18/2022 1:15:00 AM 14.59 58.262 0.141 7.24 2.46 8.33
5/18/2022 1:30:00 AM 14.5 58.1 0.141 7.24 2.49 8.35
5/18/2022 1:45:00 AM 14.43 57.974 0.141 7.24 2.49 8.36
5/18/2022 2:00:00 AM 14.36 57.848 0.141 7.24 2.44 8.38
5/18/2022 2:15:00 AM 14.29 57.722 0.141 7.23 2.46 8.39
5/18/2022 2:30:00 AM 14.24 57.632 0.141 7.23 2.48 8.39
5/18/2022 2:45:00 AM 14.2 57.56 0.142 7.23 2.38 8.4
5/18/2022 3:00:00 AM 14.16 57.488 0.142 7.23 2.52 8.42
5/18/2022 3:15:00 AM 14.14 57.452 0.142 7.23 2.37 8.41
5/18/2022 3:30:00 AM 14.1 57.38 0.142 7.23 2.39 8.42
5/18/2022 3:45:00 AM 14.06 57.308 0.142 7.24 2.43 8.42
5/18/2022 4:00:00 AM 14.02 57.236 0.142 7.24 2.34 8.45
5/18/2022 4:15:00 AM 13.96 57.128 0.142 7.24 2.36 8.44
5/18/2022 4:30:00 AM 13.9 57.02 0.142 7.24 2.33 8.47
5/18/2022 4:45:00 AM 13.84 56.912 0.143 7.24 2.35 8.47
5/18/2022 5:00:00 AM 13.78 56.804 0.143 7.24 2.32 8.5
5/18/2022 5:15:00 AM 13.74 56.732 0.143 7.24 2.36 8.5
5/18/2022 5:30:00 AM 13.68 56.624 0.143 7.24 2.33 8.51
5/18/2022 5:45:00 AM 13.61 56.498 0.143 7.24 2.34 8.53
5/18/2022 6:00:00 AM 13.55 56.39 0.143 7.24 2.39 8.59
5/18/2022 6:15:00 AM 13.49 56.282 0.143 7.25 2.25 8.66
5/18/2022 6:30:00 AM 13.43 56.174 0.143 7.27 2.23 8.75
5/18/2022 6:45:00 AM 13.39 56.102 0.143 7.29 2.14 8.93
5/18/2022 7:00:00 AM 13.37 56.066 0.144 7.31 2.27 9.11
5/18/2022 7:15:00 AM 13.38 56.084 0.144 7.35 2.26 9.33
5/18/2022 7:30:00 AM 13.4 56.12 0.144 7.39 2.18 9.57
5/18/2022 7:45:00 AM 13.44 56.192 0.143 7.42 2.15 9.76
5/18/2022 8:00:00 AM 13.51 56.318 0.143 7.47 2.05 9.96
5/18/2022 8:15:00 AM 13.6 56.48 0.143 7.51 2.13 10.14
5/18/2022 8:30:00 AM 13.68 56.624 0.143 7.55 2.04 10.31
5/18/2022 8:45:00 AM 13.83 56.894 0.143 7.6 2.07 10.49
5/18/2022 9:00:00 AM 13.97 57.146 0.143 7.65 2.07 10.62
5/18/2022 9:15:00 AM 14.17 57.506 0.143 7.71 2.17 10.75
5/18/2022 9:30:00 AM 14.4 57.92 0.143 7.79 2.1 10.87
5/18/2022 9:45:00 AM 14.64 58.352 0.143 7.86 2.08 11
5/18/2022 10:00:00 AM 14.86 58.748 0.143 7.91 1.99 11.01
5/18/2022 10:15:00 AM 15.11 59.198 0.143 7.99 2.02 11.11
5/18/2022 10:30:00 AM 15.38 59.684 0.143 8.1 1.86 11.15
5/18/2022 10:45:00 AM 15.57 60.026 0.143 8.13 1.93 11.14
5/18/2022 11:00:00 AM 15.71 60.278 0.143 8.21 2.02 11.21
5/18/2022 11:15:00 AM 15.84 60.512 0.143 8.24 1.91 11.18
5/18/2022 11:30:00 AM 16.02 60.836 0.143 8.31 1.92 11.18
5/18/2022 11:45:00 AM 16.15 61.07 0.143 8.4 1.81 11.2
5/18/2022 12:00:00 PM 16.43 61.574 0.143 8.47 1.9 11.21
5/18/2022 12:15:00 PM 16.65 61.97 0.143 8.55 1.87 11.2
5/18/2022 12:30:00 PM 16.88 62.384 0.143 8.63 1.95 11.26
5/18/2022 12:45:00 PM 17.15 62.87 0.142 8.65 1.79 11.21
5/18/2022 1:00:00 PM 17.44 63.392 0.142 8.72 1.89 11.2
5/18/2022 1:15:00 PM 17.71 63.878 0.142 8.77 1.89 11.2
5/18/2022 1:30:00 PM 17.94 64.292 0.142 8.79 1.9 11.13
5/18/2022 1:45:00 PM 18.19 64.742 0.142 8.83 1.99 11.09
5/18/2022 2:00:00 PM 18.42 65.156 0.142 8.87 1.8 11.07
5/18/2022 2:15:00 PM 18.58 65.444 0.142 8.9 1.93 11.01
5/18/2022 2:30:00 PM 18.65 65.57 0.142 8.93 1.84 10.93
5/18/2022 2:45:00 PM 18.72 65.696 0.141 8.96 1.93 10.91
5/18/2022 3:00:00 PM 18.78 65.804 0.141 8.99 1.92 10.81
5/18/2022 3:15:00 PM 18.73 65.714 0.141 9.02 1.93 10.81
5/18/2022 3:30:00 PM 18.74 65.732 0.141 9.04 2 10.8
5/18/2022 3:45:00 PM 18.69 65.642 0.141 9.04 1.97 10.66
5/18/2022 4:00:00 PM 18.57 65.426 0.141 9.01 1.89 10.44
5/18/2022 4:15:00 PM 18.46 65.228 0.141 8.99 1.84 10.32
5/18/2022 4:30:00 PM 18.35 65.03 0.141 8.98 1.91 10.26
5/18/2022 4:45:00 PM 18.19 64.742 0.141 8.91 2 10.07
5/18/2022 5:00:00 PM 18.03 64.454 0.141 8.81 1.91 9.85
5/18/2022 5:15:00 PM 17.86 64.148 0.142 8.67 1.93 9.61
5/18/2022 5:30:00 PM 17.7 63.86 0.142 8.49 2.03 9.41
5/18/2022 5:45:00 PM 17.53 63.554 0.142 8.26 2.06 9.23
5/18/2022 6:00:00 PM 17.38 63.284 0.142 8.05 1.97 9.12
5/18/2022 6:15:00 PM 17.24 63.032 0.142 7.87 1.9 9
5/18/2022 6:30:00 PM 17.11 62.798 0.143 7.75 1.82 8.95
5/18/2022 6:45:00 PM 17 62.6 0.143 7.67 1.95 8.91
5/18/2022 7:00:00 PM 16.88 62.384 0.143 7.61 1.84 8.9
5/18/2022 7:15:00 PM 16.78 62.204 0.144 7.56 1.93 8.89
5/18/2022 7:30:00 PM 16.67 62.006 0.144 7.5 1.84 8.78
5/18/2022 7:45:00 PM 16.57 61.826 0.144 7.45 1.85 8.66
5/18/2022 8:00:00 PM 16.47 61.646 0.145 7.41 1.86 8.57
5/18/2022 8:15:00 PM 16.36 61.448 0.145 7.38 1.91 8.45
5/18/2022 8:30:00 PM 16.24 61.232 0.145 7.34 2.02 8.32
5/18/2022 8:45:00 PM 16.14 61.052 0.146 7.31 1.91 8.23
5/18/2022 9:00:00 PM 16.05 60.89 0.146 7.28 2.26 8.14
5/18/2022 9:15:00 PM 15.96 60.728 0.147 7.27 2.96 8.08
5/18/2022 9:30:00 PM 15.87 60.566 0.147 7.26 4.95 8.05
5/18/2022 9:45:00 PM 15.8 60.44 0.147 7.25 5.3 8.01
5/18/2022 10:00:00 PM 15.71 60.278 0.147 7.24 4.3 7.99
5/18/2022 10:15:00 PM 15.65 60.17 0.148 7.23 4.5 7.98
5/18/2022 10:30:00 PM 15.59 60.062 0.148 7.23 3.64 7.97
5/18/2022 10:45:00 PM 15.52 59.936 0.148 7.23 2.96 7.98
5/18/2022 11:00:00 PM 15.46 59.828 0.148 7.22 2.96 7.99
5/18/2022 11:15:00 PM 15.4 59.72 0.147 7.22 2.69 7.99
5/18/2022 11:30:00 PM 15.33 59.594 0.147 7.22 2.38 8.03
5/18/2022 11:45:00 PM 15.28 59.504 0.147 7.22 2.37 8.03
5/19/2022 12:00:00 AM 15.22 59.396 0.147 7.22 2.34 8.04
5/19/2022 12:15:00 AM 15.18 59.324 0.147 7.22 2.35 8.03
5/19/2022 12:30:00 AM 15.15 59.27 0.147 7.22 2.34 8.03
5/19/2022 12:45:00 AM 15.11 59.198 0.147 7.22 2.53 8.04
5/19/2022 1:00:00 AM 15.07 59.126 0.147 7.22 2.13 8.03
5/19/2022 1:15:00 AM 15.04 59.072 0.147 7.22 2.21 8.05
5/19/2022 1:30:00 AM 15 59 0.147 7.22 2.16 8.05
5/19/2022 1:45:00 AM 14.97 58.946 0.147 7.22 2.1 8.06
5/19/2022 2:00:00 AM 14.93 58.874 0.147 7.22 2.05 8.06
5/19/2022 2:15:00 AM 14.9 58.82 0.147 7.22 2.07 8.07
5/19/2022 2:30:00 AM 14.86 58.748 0.147 7.22 2.08 8.08
5/19/2022 2:45:00 AM 14.83 58.694 0.147 7.22 2.16 8.1
5/19/2022 3:00:00 AM 14.79 58.622 0.147 7.22 2.04 8.09
5/19/2022 3:15:00 AM 14.76 58.568 0.147 7.22 2.07 8.09
5/19/2022 3:30:00 AM 14.72 58.496 0.147 7.22 2.05 8.11
5/19/2022 3:45:00 AM 14.69 58.442 0.147 7.22 2.08 8.12
5/19/2022 4:00:00 AM 14.66 58.388 0.147 7.23 2.03 8.13
5/19/2022 4:15:00 AM 14.63 58.334 0.147 7.23 2.02 8.13
5/19/2022 4:30:00 AM 14.6 58.28 0.147 7.23 2.14 8.16
5/19/2022 4:45:00 AM 14.56 58.208 0.147 7.23 2.15 8.17
5/19/2022 5:00:00 AM 14.54 58.172 0.147 7.23 2.14 8.18
5/19/2022 5:15:00 AM 14.51 58.118 0.147 7.24 2.18 8.21
5/19/2022 5:30:00 AM 14.48 58.064 0.147 7.24 2.13 8.23
5/19/2022 5:45:00 AM 14.45 58.01 0.147 7.24 2.3 8.23
5/19/2022 6:00:00 AM 14.42 57.956 0.147 7.25 2.21 8.28
5/19/2022 6:15:00 AM 14.4 57.92 0.147 7.25 2.05 8.3
5/19/2022 6:30:00 AM 14.38 57.884 0.146 7.26 2.24 8.36
5/19/2022 6:45:00 AM 14.36 57.848 0.146 7.27 2.4 8.42
5/19/2022 7:00:00 AM 14.34 57.812 0.146 7.28 2.28 8.49
5/19/2022 7:15:00 AM 14.32 57.776 0.146 7.29 4.25 8.52
5/19/2022 7:30:00 AM 14.3 57.74 0.145 7.3 2.28 8.63
5/19/2022 7:45:00 AM 14.29 57.722 0.145 7.31 2.19 8.69
5/19/2022 8:00:00 AM 14.28 57.704 0.145 7.32 2.27 8.75
5/19/2022 8:15:00 AM 14.27 57.686 0.144 7.34 2.35 8.82
5/19/2022 8:30:00 AM 14.28 57.704 0.144 7.37 2.24 8.99
5/19/2022 8:45:00 AM 14.33 57.794 0.144 7.44 2.34 9.41
5/19/2022 9:00:00 AM 14.35 57.83 0.144 7.45 2.29 9.48
5/19/2022 9:15:00 AM 14.34 57.812 0.143 7.44 2.4 9.41
5/19/2022 9:30:00 AM 14.35 57.83 0.143 7.47 2.33 9.54
5/19/2022 9:45:00 AM 14.38 57.884 0.143 7.52 2.43 9.73
5/19/2022 10:00:00 AM 14.45 58.01 0.142 7.58 2.39 9.96
5/19/2022 10:15:00 AM 14.49 58.082 0.142 7.61 2.43 10.07
5/19/2022 10:30:00 AM 14.55 58.19 0.142 7.67 2.46 10.27
5/19/2022 10:45:00 AM 14.6 58.28 0.141 7.71 2.34 10.32
5/19/2022 11:00:00 AM 14.63 58.334 0.141 7.72 2.4 10.34
5/19/2022 11:15:00 AM 14.67 58.406 0.141 7.75 2.48 10.36
5/19/2022 11:30:00 AM 14.77 58.586 0.141 7.84 2.28 10.57
5/19/2022 11:45:00 AM 14.86 58.748 0.141 7.91 2.32 10.64
5/19/2022 12:00:00 PM 14.99 58.982 0.14 8.01 2.36 10.8
5/19/2022 12:15:00 PM 15.14 59.252 0.14 8.14 2.36 10.88
5/19/2022 12:30:00 PM 15.29 59.522 0.14 8.26 2.34 10.97
5/19/2022 12:45:00 PM 15.46 59.828 0.14 8.33 2.32 11
5/19/2022 1:00:00 PM 15.59 60.062 0.139 8.41 2.46 10.99
5/19/2022 1:15:00 PM 15.92 60.656 0.139 8.6 2.29 11.13
5/19/2022 1:30:00 PM 16.25 61.25 0.139 8.68 2.41 11.13
5/19/2022 1:45:00 PM 16.7 62.06 0.138 8.78 2.39 11.21
5/19/2022 2:00:00 PM 17.11 62.798 0.138 8.84 2.25 11.14
5/19/2022 2:15:00 PM 17.44 63.392 0.138 8.86 2.39 11.05
5/19/2022 2:30:00 PM 17.53 63.554 0.137 8.86 2.31 10.79
5/19/2022 2:45:00 PM 17.6 63.68 0.137 8.88 2.47 10.64
5/19/2022 3:00:00 PM 17.81 64.058 0.137 8.94 2.25 10.71
5/19/2022 3:15:00 PM 17.76 63.968 0.136 8.89 2.54 10.4
5/19/2022 3:30:00 PM 17.91 64.238 0.136 8.95 2.27 10.5
5/19/2022 3:45:00 PM 17.99 64.382 0.136 8.92 2.32 10.3
5/19/2022 4:00:00 PM 18.04 64.472 0.136 8.93 2.15 10.32
5/19/2022 4:15:00 PM 18.19 64.742 0.136 8.96 2.2 10.34
5/19/2022 4:30:00 PM 18.26 64.868 0.136 8.95 2.27 10.32
5/19/2022 4:45:00 PM 18.36 65.048 0.135 8.98 2.3 10.38
5/19/2022 5:00:00 PM 18.39 65.102 0.135 8.98 2.25 10.34
5/19/2022 5:15:00 PM 18.4 65.12 0.135 8.98 2.15 10.32
5/19/2022 5:30:00 PM 18.37 65.066 0.135 8.97 2.14 10.25
5/19/2022 5:45:00 PM 18.34 65.012 0.135 8.95 2.19 10.19
5/19/2022 6:00:00 PM 18.28 64.904 0.135 8.92 2.27 10.11
5/19/2022 6:15:00 PM 18.15 64.67 0.135 8.85 2.18 9.97
5/19/2022 6:30:00 PM 18.01 64.418 0.135 8.76 2.36 9.84
5/19/2022 6:45:00 PM 17.85 64.13 0.136 8.65 2.19 9.71
5/19/2022 7:00:00 PM 17.7 63.86 0.136 8.49 2.2 9.56
5/19/2022 7:15:00 PM 17.56 63.608 0.136 8.31 2.16 9.41
5/19/2022 7:30:00 PM 17.4 63.32 0.136 8.07 2.09 9.23
5/19/2022 7:45:00 PM 17.25 63.05 0.137 7.87 2.29 9.04
5/19/2022 8:00:00 PM 17.1 62.78 0.137 7.7 2.56 8.84
5/19/2022 8:15:00 PM 16.96 62.528 0.137 7.59 2.57 8.65
5/19/2022 8:30:00 PM 16.81 62.258 0.138 7.5 2.45 8.51
5/19/2022 8:45:00 PM 16.67 62.006 0.138 7.43 2.52 8.39
5/19/2022 9:00:00 PM 16.54 61.772 0.138 7.38 2.49 8.27
5/19/2022 9:15:00 PM 16.41 61.538 0.139 7.35 2.28 8.22
5/19/2022 9:30:00 PM 16.29 61.322 0.139 7.32 2.23 8.16
5/19/2022 9:45:00 PM 16.18 61.124 0.139 7.3 2.3 8.13
5/19/2022 10:00:00 PM 16.07 60.926 0.139 7.29 2.2 8.12
5/19/2022 10:15:00 PM 15.96 60.728 0.14 7.28 2.24 8.12
5/19/2022 10:30:00 PM 15.86 60.548 0.14 7.27 2.29 8.13
5/19/2022 10:45:00 PM 15.76 60.368 0.14 7.27 2.15 8.11
5/19/2022 11:00:00 PM 15.65 60.17 0.14 7.26 2.1 8.13
5/19/2022 11:15:00 PM 15.57 60.026 0.141 7.26 2.19 8.15
5/19/2022 11:30:00 PM 15.46 59.828 0.141 7.26 2.2 8.15
5/19/2022 11:45:00 PM 15.37 59.666 0.141 7.25 2.17 8.18
5/20/2022 12:00:00 AM 15.29 59.522 0.141 7.25 2.03 8.18
5/20/2022 12:15:00 AM 15.2 59.36 0.141 7.25 2.09 8.2
5/20/2022 12:30:00 AM 15.12 59.216 0.142 7.25 2.25 8.2
5/20/2022 12:45:00 AM 15.04 59.072 0.142 7.25 2.29 8.23
5/20/2022 1:00:00 AM 14.97 58.946 0.142 7.25 2.17 8.24
5/20/2022 1:15:00 AM 14.89 58.802 0.142 7.25 2.18 8.26
5/20/2022 1:30:00 AM 14.83 58.694 0.142 7.24 2.23 8.26
5/20/2022 1:45:00 AM 14.77 58.586 0.142 7.24 2.27 8.26
5/20/2022 2:00:00 AM 14.69 58.442 0.142 7.24 2.32 8.29
5/20/2022 2:15:00 AM 14.64 58.352 0.142 7.24 2.24 8.29
5/20/2022 2:30:00 AM 14.6 58.28 0.142 7.24 2.17 8.3
5/20/2022 2:45:00 AM 14.55 58.19 0.142 7.24 2.13 8.31
5/20/2022 3:00:00 AM 14.5 58.1 0.143 7.24 2.15 8.32
5/20/2022 3:15:00 AM 14.44 57.992 0.143 7.24 2.13 8.33
5/20/2022 3:30:00 AM 14.39 57.902 0.143 7.24 2.17 8.33
5/20/2022 3:45:00 AM 14.36 57.848 0.143 7.24 2.13 8.33
5/20/2022 4:00:00 AM 14.32 57.776 0.143 7.24 2.22 8.34
5/20/2022 4:15:00 AM 14.27 57.686 0.143 7.24 2.25 8.35
5/20/2022 4:30:00 AM 14.22 57.596 0.143 7.24 2.1 8.36
5/20/2022 4:45:00 AM 14.17 57.506 0.143 7.23 2.18 8.38
5/20/2022 5:00:00 AM 14.11 57.398 0.143 7.23 2.13 8.38
5/20/2022 5:15:00 AM 14.06 57.308 0.143 7.23 2.12 8.39
5/20/2022 5:30:00 AM 14.01 57.218 0.143 7.23 2.11 8.39
5/20/2022 5:45:00 AM 13.95 57.11 0.144 7.23 2.1 8.44
5/20/2022 6:00:00 AM 13.91 57.038 0.144 7.24 2.19 8.47
5/20/2022 6:15:00 AM 13.87 56.966 0.144 7.25 2.06 8.6
5/20/2022 6:30:00 AM 13.84 56.912 0.144 7.28 2.11 8.79
5/20/2022 6:45:00 AM 13.83 56.894 0.144 7.31 2.13 8.99
5/20/2022 7:00:00 AM 13.83 56.894 0.143 7.35 2.12 9.29
5/20/2022 7:15:00 AM 13.87 56.966 0.143 7.41 2.08 9.63
5/20/2022 7:30:00 AM 13.93 57.074 0.143 7.46 2.05 9.88
5/20/2022 7:45:00 AM 13.99 57.182 0.143 7.51 1.98 10.09
5/20/2022 8:00:00 AM 14.05 57.29 0.143 7.55 2.07 10.24
5/20/2022 8:15:00 AM 14.14 57.452 0.143 7.61 1.97 10.41
5/20/2022 8:30:00 AM 14.25 57.65 0.142 7.67 2.01 10.6
5/20/2022 8:45:00 AM 14.4 57.92 0.142 7.73 2.05 10.76
5/20/2022 9:00:00 AM 14.51 58.118 0.142 7.78 2.12 10.82
5/20/2022 9:15:00 AM 14.72 58.496 0.142 7.86 2.02 10.95
5/20/2022 9:30:00 AM 14.97 58.946 0.142 7.97 2.04 11.07
5/20/2022 9:45:00 AM 15.14 59.252 0.142 8.03 1.92 11.07
5/20/2022 10:00:00 AM 15.26 59.468 0.142 8.06 1.9 11
5/20/2022 10:15:00 AM 15.31 59.558 0.142 8.01 2.15 10.81
5/20/2022 10:30:00 AM 15.27 59.486 0.142 7.9 2.05 10.52
5/20/2022 10:45:00 AM 15.23 59.414 0.142 7.84 2.19 10.36
5/20/2022 11:00:00 AM 15.22 59.396 0.142 7.86 1.95 10.39
5/20/2022 11:15:00 AM 15.31 59.558 0.142 7.98 1.99 10.69
5/20/2022 11:30:00 AM 15.43 59.774 0.142 8.06 1.93 10.84
5/20/2022 11:45:00 AM 15.52 59.936 0.142 8.11 1.84 10.89
5/20/2022 12:00:00 PM 15.65 60.17 0.142 8.23 1.82 11.01
5/20/2022 12:15:00 PM 15.76 60.368 0.141 8.32 1.94 11.03
5/20/2022 12:30:00 PM 15.81 60.458 0.141 8.36 1.92 10.96
5/20/2022 12:45:00 PM 15.94 60.692 0.141 8.54 1.98 11.08
5/20/2022 1:00:00 PM 16.18 61.124 0.141 8.66 1.92 11.21
5/20/2022 1:15:00 PM 16.45 61.61 0.141 8.75 1.88 11.29
5/20/2022 1:30:00 PM 16.81 62.258 0.141 8.85 1.87 11.37
5/20/2022 1:45:00 PM 17.23 63.014 0.141 8.92 1.82 11.4
5/20/2022 2:00:00 PM 17.67 63.806 0.14 8.98 1.87 11.4
5/20/2022 2:15:00 PM 17.92 64.256 0.14 9 1.9 11.31
5/20/2022 2:30:00 PM 18 64.4 0.14 8.97 1.98 10.94
5/20/2022 2:45:00 PM 17.99 64.382 0.14 8.88 1.92 10.52
5/20/2022 3:00:00 PM 18.11 64.598 0.14 8.95 1.93 10.66
5/20/2022 3:15:00 PM 18.33 64.994 0.14 9 1.83 10.78
5/20/2022 3:30:00 PM 18.54 65.372 0.14 9.01 1.88 10.8
5/20/2022 3:45:00 PM 18.57 65.426 0.14 8.98 1.9 10.58
5/20/2022 4:00:00 PM 18.54 65.372 0.14 8.92 1.96 10.28
5/20/2022 4:15:00 PM 18.53 65.354 0.14 8.9 1.92 10.14
5/20/2022 4:30:00 PM 18.48 65.264 0.14 8.89 3.3 10.04
5/20/2022 4:45:00 PM 18.42 65.156 0.14 8.85 1.95 10.05
5/20/2022 5:00:00 PM 18.31 64.958 0.14 8.75 1.95 9.84
5/20/2022 5:15:00 PM 18.26 64.868 0.14 8.7 1.89 9.77
5/20/2022 5:30:00 PM 18.21 64.778 0.14 8.69 1.8 9.8
5/20/2022 5:45:00 PM 18.13 64.634 0.14 8.61 1.87 9.68
5/20/2022 6:00:00 PM 18.05 64.49 0.14 8.47 1.88 9.52
5/20/2022 6:15:00 PM 17.96 64.328 0.141 8.3 1.91 9.39
5/20/2022 6:30:00 PM 17.9 64.22 0.141 8.22 1.84 9.4
5/20/2022 6:45:00 PM 17.82 64.076 0.141 8.04 1.86 9.22
5/20/2022 7:00:00 PM 17.74 63.932 0.141 7.84 1.77 8.99
5/20/2022 7:15:00 PM 17.67 63.806 0.141 7.71 1.89 8.83
5/20/2022 7:30:00 PM 17.6 63.68 0.142 7.66 1.8 8.87
5/20/2022 7:45:00 PM 17.52 63.536 0.142 7.59 2.08 8.78
5/20/2022 8:00:00 PM 17.43 63.374 0.142 7.52 2.79 8.67
5/20/2022 8:15:00 PM 17.35 63.23 0.143 7.47 3.19 8.55
5/20/2022 8:30:00 PM 17.29 63.122 0.143 7.42 2.78 8.39
5/20/2022 8:45:00 PM 17.22 62.996 0.143 7.37 2.44 8.25
5/20/2022 9:00:00 PM 17.15 62.87 0.143 7.33 2.17 8.12
5/20/2022 9:15:00 PM 17.08 62.744 0.144 7.31 2.11 8.02
5/20/2022 9:30:00 PM 17.01 62.618 0.144 7.28 2.01 7.95
5/20/2022 9:45:00 PM 16.93 62.474 0.144 7.27 2.1 7.9
5/20/2022 10:00:00 PM 16.86 62.348 0.144 7.26 2.07 7.87
5/20/2022 10:15:00 PM 16.78 62.204 0.145 7.25 2 7.85
5/20/2022 10:30:00 PM 16.71 62.078 0.145 7.24 1.95 7.82
5/20/2022 10:45:00 PM 16.64 61.952 0.145 7.23 2.02 7.82
5/20/2022 11:00:00 PM 16.57 61.826 0.145 7.23 1.88 7.82
5/20/2022 11:15:00 PM 16.52 61.736 0.145 7.23 2 7.81
5/20/2022 11:30:00 PM 16.46 61.628 0.145 7.22 1.89 7.82
5/20/2022 11:45:00 PM 16.41 61.538 0.146 7.22 1.86 7.8
5/21/2022 12:00:00 AM 16.35 61.43 0.146 7.21 1.93 7.81
5/21/2022 12:15:00 AM 16.29 61.322 0.146 7.21 1.83 7.84
5/21/2022 12:30:00 AM 16.25 61.25 0.146 7.21 1.9 7.83
5/21/2022 12:45:00 AM 16.19 61.142 0.147 7.21 1.94 7.83
5/21/2022 1:00:00 AM 16.14 61.052 0.147 7.2 1.92 7.83
5/21/2022 1:15:00 AM 16.1 60.98 0.147 7.2 1.9 7.84
5/21/2022 1:30:00 AM 16.06 60.908 0.147 7.2 1.85 7.83
5/21/2022 1:45:00 AM 16.01 60.818 0.147 7.19 1.84 7.84
5/21/2022 2:00:00 AM 15.96 60.728 0.147 7.19 1.88 7.84
5/21/2022 2:15:00 AM 15.92 60.656 0.148 7.19 1.88 7.83
5/21/2022 2:30:00 AM 15.88 60.584 0.148 7.19 1.89 7.84
5/21/2022 2:45:00 AM 15.83 60.494 0.148 7.19 2.02 7.84
5/21/2022 3:00:00 AM 15.79 60.422 0.148 7.18 1.82 7.86
5/21/2022 3:15:00 AM 15.74 60.332 0.148 7.18 1.93 7.84
5/21/2022 3:30:00 AM 15.68 60.224 0.148 7.18 1.85 7.87
5/21/2022 3:45:00 AM 15.64 60.152 0.148 7.18 1.93 7.87
5/21/2022 4:00:00 AM 15.59 60.062 0.149 7.18 1.91 7.87
5/21/2022 4:15:00 AM 15.54 59.972 0.149 7.18 1.84 7.88
5/21/2022 4:30:00 AM 15.49 59.882 0.149 7.18 1.97 7.9
5/21/2022 4:45:00 AM 15.46 59.828 0.149 7.18 1.9 7.88
5/21/2022 5:00:00 AM 15.41 59.738 0.149 7.18 1.88 7.91
5/21/2022 5:15:00 AM 15.37 59.666 0.149 7.18 1.89 7.91
5/21/2022 5:30:00 AM 15.33 59.594 0.149 7.17 1.91 7.9
5/21/2022 5:45:00 AM 15.29 59.522 0.149 7.18 2 7.94
5/21/2022 6:00:00 AM 15.26 59.468 0.149 7.18 2.06 7.96
5/21/2022 6:15:00 AM 15.24 59.432 0.15 7.19 1.95 8.02
5/21/2022 6:30:00 AM 15.21 59.378 0.15 7.2 6.35 8.09
5/21/2022 6:45:00 AM 15.19 59.342 0.15 7.21 2.29 8.25
5/21/2022 7:00:00 AM 15.18 59.324 0.15 7.25 1.99 8.54
5/21/2022 7:15:00 AM 15.2 59.36 0.15 7.29 2.04 8.8
5/21/2022 7:30:00 AM 15.24 59.432 0.149 7.33 1.79 9.09
5/21/2022 7:45:00 AM 15.31 59.558 0.149 7.39 2 9.39
5/21/2022 8:00:00 AM 15.41 59.738 0.149 7.45 1.72 9.68
5/21/2022 8:15:00 AM 15.53 59.954 0.149 7.5 2.37 9.92
5/21/2022 8:30:00 AM 15.66 60.188 0.149 7.56 1.7 10.11
5/21/2022 8:45:00 AM 15.83 60.494 0.149 7.62 1.75 10.29
5/21/2022 9:00:00 AM 16.01 60.818 0.148 7.68 1.76 10.42
5/21/2022 9:15:00 AM 16.28 61.304 0.148 7.76 1.67 10.56
5/21/2022 9:30:00 AM 16.53 61.754 0.148 7.85 1.87 10.68
5/21/2022 9:45:00 AM 16.81 62.258 0.148 7.95 1.65 10.79
5/21/2022 10:00:00 AM 17.09 62.762 0.148 8.05 1.7 10.84
5/21/2022 10:15:00 AM 17.39 63.302 0.148 8.18 1.63 10.93
5/21/2022 10:30:00 AM 17.68 63.824 0.148 8.31 1.67 10.98
5/21/2022 10:45:00 AM 17.98 64.364 0.148 8.4 1.69 11.01
5/21/2022 11:00:00 AM 18.25 64.85 0.148 8.5 1.76 11.04
5/21/2022 11:15:00 AM 18.56 65.408 0.148 8.61 1.67 11.07
5/21/2022 11:30:00 AM 18.87 65.966 0.148 8.69 1.7 11.1
5/21/2022 11:45:00 AM 19.17 66.506 0.148 8.77 1.73 11.08
5/21/2022 12:00:00 PM 19.42 66.956 0.147 8.85 1.62 11.13
5/21/2022 12:15:00 PM 19.71 67.478 0.147 8.91 1.66 11.1
5/21/2022 12:30:00 PM 20.01 68.018 0.147 8.95 1.66 11.12
5/21/2022 12:45:00 PM 20.21 68.378 0.147 8.96 1.82 10.99
5/21/2022 1:00:00 PM 20.36 68.648 0.147 8.99 1.62 10.9
5/21/2022 1:15:00 PM 20.73 69.314 0.147 9.03 1.69 10.96
5/21/2022 1:30:00 PM 21 69.8 0.147 9.05 1.66 10.96
5/21/2022 1:45:00 PM 21.3 70.34 0.147 9.09 1.69 10.95
5/21/2022 2:00:00 PM 21.58 70.844 0.147 9.12 1.8 10.92
5/21/2022 2:15:00 PM 21.86 71.348 0.146 9.14 2 10.81
5/21/2022 2:30:00 PM 22.04 71.672 0.146 9.16 1.82 10.76
5/21/2022 2:45:00 PM 22.22 71.996 0.146 9.17 1.72 10.67
5/21/2022 3:00:00 PM 22.34 72.212 0.146 9.17 1.87 10.6
5/21/2022 3:15:00 PM 22.32 72.176 0.146 9.15 1.68 10.29
5/21/2022 3:30:00 PM 22.38 72.284 0.146 9.17 1.8 10.28
5/21/2022 3:45:00 PM 22.44 72.392 0.146 9.18 1.98 10.26
5/21/2022 4:00:00 PM 22.43 72.374 0.146 9.18 1.83 10.22
5/21/2022 4:15:00 PM 22.39 72.302 0.146 9.17 1.76 10.14
5/21/2022 4:30:00 PM 22.35 72.23 0.146 9.16 1.88 10.08
5/21/2022 4:45:00 PM 22.35 72.23 0.146 9.16 1.84 10.02
5/21/2022 5:00:00 PM 22.34 72.212 0.146 9.16 1.77 9.98
5/21/2022 5:15:00 PM 22.3 72.14 0.146 9.14 1.68 9.91
5/21/2022 5:30:00 PM 22.21 71.978 0.146 9.1 1.83 9.8
5/21/2022 5:45:00 PM 22.08 71.744 0.146 9.04 1.83 9.58
5/21/2022 6:00:00 PM 21.97 71.546 0.146 8.99 1.94 9.51
5/21/2022 6:15:00 PM 21.83 71.294 0.147 8.91 1.74 9.35
5/21/2022 6:30:00 PM 21.68 71.024 0.147 8.81 1.89 9.17
5/21/2022 6:45:00 PM 21.53 70.754 0.147 8.71 1.76 9.02
5/21/2022 7:00:00 PM 21.38 70.484 0.147 8.56 2.06 8.83
5/21/2022 7:15:00 PM 21.18 70.124 0.147 8.31 2.15 8.62
5/21/2022 7:30:00 PM 21.01 69.818 0.147 8.06 1.94 8.43
5/21/2022 7:45:00 PM 20.84 69.512 0.148 7.85 2.21 8.23
5/21/2022 8:00:00 PM 20.66 69.188 0.148 7.67 2.15 8
5/21/2022 8:15:00 PM 20.48 68.864 0.149 7.53 1.8 7.76
5/21/2022 8:30:00 PM 20.31 68.558 0.149 7.44 1.91 7.56
5/21/2022 8:45:00 PM 20.19 68.342 0.149 7.37 1.76 7.38
5/21/2022 9:00:00 PM 20.05 68.09 0.15 7.32 1.72 7.23
5/21/2022 9:15:00 PM 19.9 67.82 0.15 7.28 1.85 7.14
5/21/2022 9:30:00 PM 19.79 67.622 0.151 7.25 1.79 7.06
5/21/2022 9:45:00 PM 19.65 67.37 0.151 7.22 1.94 6.99
5/21/2022 10:00:00 PM 19.53 67.154 0.151 7.21 1.85 6.96
5/21/2022 10:15:00 PM 19.42 66.956 0.151 7.19 1.83 6.94
5/21/2022 10:30:00 PM 19.32 66.776 0.152 7.19 1.72 6.93
5/21/2022 10:45:00 PM 19.2 66.56 0.152 7.18 1.8 6.94
5/21/2022 11:00:00 PM 19.12 66.416 0.152 7.17 1.87 6.93
5/21/2022 11:15:00 PM 19.04 66.272 0.152 7.17 1.72 6.95
5/21/2022 11:30:00 PM 18.98 66.164 0.153 7.17 1.82 6.92
5/21/2022 11:45:00 PM 18.92 66.056 0.153 7.17 1.83 6.89
5/22/2022 12:00:00 AM 18.86 65.948 0.153 7.17 1.76 6.94
5/22/2022 12:15:00 AM 18.8 65.84 0.153 7.17 1.75 6.9
5/22/2022 12:30:00 AM 18.72 65.696 0.153 7.17 1.9 6.94
5/22/2022 12:45:00 AM 18.64 65.552 0.154 7.17 1.83 6.95
5/22/2022 1:00:00 AM 18.58 65.444 0.154 7.17 1.9 6.92
5/22/2022 1:15:00 AM 18.5 65.3 0.154 7.17 1.78 6.97
5/22/2022 1:30:00 AM 18.44 65.192 0.154 7.17 1.9 6.96
5/22/2022 1:45:00 AM 18.37 65.066 0.155 7.17 1.88 6.94
5/22/2022 2:00:00 AM 18.29 64.922 0.155 7.17 1.98 6.97
5/22/2022 2:15:00 AM 18.22 64.796 0.155 7.17 2.01 6.97
5/22/2022 2:30:00 AM 18.16 64.688 0.155 7.17 2.08 7.01
5/22/2022 2:45:00 AM 18.09 64.562 0.155 7.17 1.96 7
5/22/2022 3:00:00 AM 18.04 64.472 0.155 7.16 2.05 7.03
5/22/2022 3:15:00 AM 17.97 64.346 0.155 7.17 1.77 7.02
5/22/2022 3:30:00 AM 17.92 64.256 0.156 7.16 1.99 7.01
5/22/2022 3:45:00 AM 17.84 64.112 0.156 7.16 1.8 7.05
5/22/2022 4:00:00 AM 17.79 64.022 0.156 7.16 2.03 7.02
5/22/2022 4:15:00 AM 17.73 63.914 0.156 7.16 2.08 7.04
5/22/2022 4:30:00 AM 17.66 63.788 0.156 7.17 2.23 7.06
5/22/2022 4:45:00 AM 17.6 63.68 0.156 7.16 1.85 7.06
5/22/2022 5:00:00 AM 17.52 63.536 0.156 7.17 1.87 7.09
5/22/2022 5:15:00 AM 17.47 63.446 0.156 7.16 2.29 7.09
5/22/2022 5:30:00 AM 17.41 63.338 0.156 7.16 1.93 7.09
5/22/2022 5:45:00 AM 17.35 63.23 0.156 7.17 1.79 7.12
5/22/2022 6:00:00 AM 17.3 63.14 0.156 7.17 2.01 7.18
5/22/2022 6:15:00 AM 17.25 63.05 0.157 7.19 2.11 7.34
5/22/2022 6:30:00 AM 17.21 62.978 0.157 7.2 1.95 7.44
5/22/2022 6:45:00 AM 17.18 62.924 0.157 7.22 1.97 7.59
5/22/2022 7:00:00 AM 17.16 62.888 0.157 7.24 1.93 7.76
5/22/2022 7:15:00 AM 17.14 62.852 0.157 7.28 1.91 8.02
5/22/2022 7:30:00 AM 17.15 62.87 0.157 7.31 2.11 8.28
5/22/2022 7:45:00 AM 17.21 62.978 0.157 7.36 1.69 8.57
5/22/2022 8:00:00 AM 17.27 63.086 0.157 7.4 1.98 8.81
5/22/2022 8:15:00 AM 17.33 63.194 0.157 7.44 1.88 8.99
5/22/2022 8:30:00 AM 17.44 63.392 0.156 7.48 2.05 9.22
5/22/2022 8:45:00 AM 17.57 63.626 0.156 7.53 1.76 9.4
5/22/2022 9:00:00 AM 17.71 63.878 0.156 7.58 2.05 9.6
5/22/2022 9:15:00 AM 17.81 64.058 0.156 7.62 2.46 9.71
5/22/2022 9:30:00 AM 17.97 64.346 0.156 7.68 1.85 9.92
5/22/2022 9:45:00 AM 18.18 64.724 0.156 7.76 1.98 10.08
5/22/2022 10:00:00 AM 18.41 65.138 0.156 7.83 1.97 10.21
5/22/2022 10:15:00 AM 18.64 65.552 0.156 7.9 1.78 10.25
5/22/2022 10:30:00 AM 18.86 65.948 0.156 7.97 1.75 10.31
5/22/2022 10:45:00 AM 19.02 66.236 0.156 8.04 1.79 10.31
5/22/2022 11:00:00 AM 19.16 66.488 0.155 8.14 1.75 10.4
5/22/2022 11:15:00 AM 19.35 66.83 0.155 8.26 1.72 10.46
5/22/2022 11:30:00 AM 19.55 67.19 0.155 8.36 2.04 10.52
5/22/2022 11:45:00 AM 19.79 67.622 0.155 8.43 1.73 10.52
5/22/2022 12:00:00 PM 20.04 68.07201 0.155 8.53 1.73 10.58
5/22/2022 12:15:00 PM 20.34 68.612 0.155 8.59 1.79 10.55
5/22/2022 12:30:00 PM 20.66 69.188 0.155 8.68 1.71 10.59
5/22/2022 12:45:00 PM 20.99 69.782 0.155 8.69 1.73 10.56
5/22/2022 1:00:00 PM 21.16 70.088 0.155 8.72 1.66 10.53
5/22/2022 1:15:00 PM 21.34 70.412 0.156 8.76 1.99 10.51
5/22/2022 1:30:00 PM 21.51 70.718 0.156 8.77 1.66 10.48
5/22/2022 1:45:00 PM 21.54 70.772 0.155 8.77 1.68 10.39
5/22/2022 2:00:00 PM 21.66 70.988 0.155 8.79 1.71 10.41
5/22/2022 2:15:00 PM 21.81 71.258 0.155 8.8 1.98 10.31
5/22/2022 2:30:00 PM 21.94 71.492 0.155 8.81 1.69 10.3
5/22/2022 2:45:00 PM 21.86 71.348 0.155 8.7 1.74 9.81
5/22/2022 3:00:00 PM 21.86 71.348 0.155 8.66 1.81 9.74
5/22/2022 3:15:00 PM 21.73 71.114 0.153 8.53 3.36 9.37
5/22/2022 3:30:00 PM 21.63 70.934 0.151 8.4 3.37 9.2
5/22/2022 3:45:00 PM 21.4 70.52 0.15 8.22 4.35 8.93
5/22/2022 4:00:00 PM 21.37 70.466 0.15 8.25 2.96 9.1
5/22/2022 4:15:00 PM 21.46 70.628 0.149 8.3 2.6 9.29
5/22/2022 4:30:00 PM 21.5 70.7 0.148 8.26 2.36 9.38
5/22/2022 4:45:00 PM 21.45 70.61 0.148 8.16 2.41 9.25
5/22/2022 5:00:00 PM 21.54 70.772 0.148 8.21 2.82 9.37
5/22/2022 5:15:00 PM 21.53 70.754 0.149 8.1 3.2 9.11
5/22/2022 5:30:00 PM 21.33 70.394 0.148 7.78 6.13 8.46
5/22/2022 5:45:00 PM 20.98 69.764 0.151 7.6 5.76 8.19
5/22/2022 6:00:00 PM 20.76 69.368 0.159 7.53 4.57 8.24
5/22/2022 6:15:00 PM 20.82 69.476 0.16 7.54 6.43 8.34
5/22/2022 6:30:00 PM 21.01 69.818 0.152 7.55 7 8.25
5/22/2022 6:45:00 PM 21.32 70.376 0.143 7.61 10.65 8.25
5/22/2022 7:00:00 PM 21.32 70.376 0.141 7.57 13.64 8.11
5/22/2022 7:15:00 PM 21.23 70.214 0.139 7.52 23.02 7.97
5/22/2022 7:30:00 PM 21.02 69.836 0.137 7.47 76.94 7.82
5/22/2022 7:45:00 PM 20.46 68.828 0.134 7.4 122.31 7.89
5/22/2022 8:00:00 PM 19.9 67.82 0.13 7.36 161.25 7.97
5/22/2022 8:15:00 PM 19.57 67.226 0.126 7.36 167.71 8.04
5/22/2022 8:30:00 PM 19.22 66.596 0.123 7.35 149.85 8.13
5/22/2022 8:45:00 PM 18.92 66.056 0.12 7.34 138.57 8.18
5/22/2022 9:00:00 PM 18.66 65.588 0.117 7.33 129.22 8.22
5/22/2022 9:15:00 PM 18.48 65.264 0.116 7.31 119.5 8.25
5/22/2022 9:30:00 PM 18.33 64.994 0.116 7.31 98.94 8.26
5/22/2022 9:45:00 PM 18.21 64.778 0.117 7.31 87.76 8.27
5/22/2022 10:00:00 PM 18.1 64.58 0.118 7.31 75.35 8.28
5/22/2022 10:15:00 PM 17.99 64.382 0.12 7.31 69.25 8.29
5/22/2022 10:30:00 PM 17.85 64.13 0.121 7.32 64.24 8.31
5/22/2022 10:45:00 PM 17.69 63.842 0.122 7.32 55.12 8.33
5/22/2022 11:00:00 PM 17.54 63.572 0.123 7.31 48.96 8.35
5/22/2022 11:15:00 PM 17.41 63.338 0.123 7.32 46.12 8.37
5/22/2022 11:30:00 PM 17.27 63.086 0.124 7.32 40.38 8.38
5/22/2022 11:45:00 PM 17.15 62.87 0.125 7.32 47.09 8.39
5/23/2022 12:00:00 AM 17.06 62.708 0.126 7.32 42.26 8.4
5/23/2022 12:15:00 AM 16.97 62.546 0.126 7.32 41.35 8.4
5/23/2022 12:30:00 AM 16.88 62.384 0.126 7.32 38.34 8.41
5/23/2022 12:45:00 AM 16.8 62.24 0.127 7.32 41.51 8.42
5/23/2022 1:00:00 AM 16.74 62.132 0.127 7.32 31.86 8.42
5/23/2022 1:15:00 AM 16.67 62.006 0.126 7.33 30.87 8.43
5/23/2022 1:30:00 AM 16.61 61.898 0.126 7.32 31.17 8.44
5/23/2022 1:45:00 AM 16.53 61.754 0.126 7.32 30.38 8.45
5/23/2022 2:00:00 AM 16.44 61.592 0.126 7.32 27.67 8.45
5/23/2022 2:15:00 AM 16.36 61.448 0.126 7.32 26.24 8.46
5/23/2022 2:30:00 AM 16.3 61.34 0.125 7.32 30.03 8.47
5/23/2022 2:45:00 AM 16.24 61.232 0.126 7.32 31.68 8.47
5/23/2022 3:00:00 AM 16.16 61.088 0.126 7.32 30.49 8.48
5/23/2022 3:15:00 AM 16.08 60.944 0.126 7.32 36.23 8.49
5/23/2022 3:30:00 AM 16.01 60.818 0.126 7.32 28.39 8.49
5/23/2022 3:45:00 AM 15.96 60.728 0.127 7.32 24.06 8.5
5/23/2022 4:00:00 AM 15.92 60.656 0.127 7.32 21.22 8.51
5/23/2022 4:15:00 AM 15.87 60.566 0.127 7.32 18.74 8.51
5/23/2022 4:30:00 AM 15.82 60.476 0.128 7.32 20.15 8.51
5/23/2022 4:45:00 AM 15.75 60.35 0.128 7.32 16.18 8.52
5/23/2022 5:00:00 AM 15.68 60.224 0.128 7.32 15.3 8.52
5/23/2022 5:15:00 AM 15.63 60.134 0.128 7.32 15.04 8.53
5/23/2022 5:30:00 AM 15.57 60.026 0.129 7.32 13.44 8.53
5/23/2022 5:45:00 AM 15.52 59.936 0.129 7.32 13.43 8.54
5/23/2022 6:00:00 AM 15.47 59.846 0.129 7.33 12.33 8.57
5/23/2022 6:15:00 AM 15.43 59.774 0.13 7.33 12.07 8.61
5/23/2022 6:30:00 AM 15.4 59.72 0.13 7.34 10.9 8.69
5/23/2022 6:45:00 AM 15.37 59.666 0.13 7.36 9.61 8.77
5/23/2022 7:00:00 AM 15.33 59.594 0.13 7.38 9.22 8.86
5/23/2022 7:15:00 AM 15.31 59.558 0.131 7.39 9.6 8.97
5/23/2022 7:30:00 AM 15.3 59.54 0.131 7.42 8.69 9.08
5/23/2022 7:45:00 AM 15.31 59.558 0.131 7.44 8.21 9.22
5/23/2022 8:00:00 AM 15.33 59.594 0.131 7.47 8.14 9.34
5/23/2022 8:15:00 AM 15.38 59.684 0.132 7.5 7.25 9.47
5/23/2022 8:30:00 AM 15.42 59.756 0.132 7.52 7.44 9.54
5/23/2022 8:45:00 AM 15.48 59.864 0.132 7.54 7.2 9.63
5/23/2022 9:00:00 AM 15.56 60.008 0.132 7.57 6.7 9.7
5/23/2022 9:15:00 AM 15.71 60.278 0.133 7.61 6.12 9.84
5/23/2022 9:30:00 AM 15.96 60.728 0.133 7.65 6.17 9.95
5/23/2022 9:45:00 AM 16.14 61.052 0.133 7.69 6.32 10
5/23/2022 10:00:00 AM 16.2 61.16 0.133 7.69 5.73 10.02
5/23/2022 10:15:00 AM 16.27 61.286 0.134 7.72 5.56 10.05
5/23/2022 10:30:00 AM 16.43 61.574 0.134 7.76 5.21 10.11
5/23/2022 10:45:00 AM 16.54 61.772 0.134 7.75 5.12 10.07
5/23/2022 11:00:00 AM 16.62 61.916 0.134 7.77 4.95 10
5/23/2022 11:15:00 AM 16.95 62.51 0.135 7.81 4.91 10.14
5/23/2022 11:30:00 AM 17.18 62.924 0.135 7.84 4.8 10.16
5/23/2022 11:45:00 AM 17.37 63.266 0.135 7.87 4.82 10.15
5/23/2022 12:00:00 PM 17.59 63.662 0.135 7.89 4.55 10.12
5/23/2022 12:15:00 PM 17.66 63.788 0.135 7.9 4.51 10.09
5/23/2022 12:30:00 PM 17.73 63.914 0.135 7.98 4.06 10.08
5/23/2022 12:45:00 PM 17.79 64.022 0.136 7.93 4.43 10.03
5/23/2022 1:00:00 PM 17.93 64.274 0.136 8 4.2 10.08
5/23/2022 1:15:00 PM 18.19 64.742 0.136 8.1 4.3 10.11
5/23/2022 1:30:00 PM 18.4 65.12 0.136 8.06 4.05 10.06
5/23/2022 1:45:00 PM 18.48 65.264 0.136 8.05 3.89 9.98
5/23/2022 2:00:00 PM 18.74 65.732 0.136 8.16 3.58 10.05
5/23/2022 2:15:00 PM 18.87 65.966 0.136 8.17 3.76 10.01
5/23/2022 2:30:00 PM 18.93 66.074 0.136 8.18 3.55 9.95
5/23/2022 2:45:00 PM 19.06 66.308 0.137 8.23 3.63 9.99
5/23/2022 3:00:00 PM 19.14 66.452 0.137 8.22 3.36 9.91
5/23/2022 3:15:00 PM 19.2 66.56 0.137 8.26 3.47 9.9
5/23/2022 3:30:00 PM 19.31 66.758 0.137 8.29 3.27 9.92
5/23/2022 3:45:00 PM 19.26 66.668 0.137 8.28 3.47 9.81
5/23/2022 4:00:00 PM 19.26 66.668 0.137 8.29 3.47 9.82
5/23/2022 4:15:00 PM 19.29 66.722 0.138 8.32 3.37 9.83
5/23/2022 4:30:00 PM 19.19 66.542 0.138 8.3 3.39 9.77
5/23/2022 4:45:00 PM 19.1 66.38 0.138 8.25 3.1 9.67
5/23/2022 5:00:00 PM 18.98 66.164 0.138 8.21 3.23 9.62
5/23/2022 5:15:00 PM 18.86 65.948 0.138 8.17 3.23 9.57
5/23/2022 5:30:00 PM 18.75 65.75 0.139 8.11 2.97 9.53
5/23/2022 5:45:00 PM 18.65 65.57 0.139 8.07 3.16 9.49
5/23/2022 6:00:00 PM 18.53 65.354 0.139 7.99 3.14 9.41
5/23/2022 6:15:00 PM 18.41 65.138 0.139 7.92 3.07 9.33
5/23/2022 6:30:00 PM 18.28 64.904 0.14 7.83 3.01 9.22
5/23/2022 6:45:00 PM 18.16 64.688 0.14 7.76 2.92 9.09
5/23/2022 7:00:00 PM 18.05 64.49 0.14 7.69 3.11 8.99
5/23/2022 7:15:00 PM 17.94 64.292 0.141 7.62 3.01 8.89
5/23/2022 7:30:00 PM 17.82 64.076 0.141 7.57 2.75 8.78
5/23/2022 7:45:00 PM 17.71 63.878 0.141 7.52 3.07 8.65
5/23/2022 8:00:00 PM 17.58 63.644 0.142 7.47 3.09 8.52
5/23/2022 8:15:00 PM 17.47 63.446 0.142 7.42 2.83 8.38
5/23/2022 8:30:00 PM 17.36 63.248 0.143 7.39 2.78 8.25
5/23/2022 8:45:00 PM 17.25 63.05 0.143 7.36 2.95 8.15
5/23/2022 9:00:00 PM 17.14 62.852 0.143 7.33 2.62 8.06
5/23/2022 9:15:00 PM 17.04 62.672 0.143 7.31 3.07 8.01
5/23/2022 9:30:00 PM 16.94 62.492 0.144 7.3 2.82 7.97
5/23/2022 9:45:00 PM 16.85 62.33 0.144 7.29 2.6 7.94
5/23/2022 10:00:00 PM 16.75 62.15 0.144 7.29 2.63 7.95
5/23/2022 10:15:00 PM 16.68 62.024 0.144 7.28 2.64 7.93
5/23/2022 10:30:00 PM 16.59 61.862 0.145 7.28 2.62 7.93
5/23/2022 10:45:00 PM 16.51 61.718 0.145 7.27 2.52 7.94
5/23/2022 11:00:00 PM 16.43 61.574 0.145 7.27 2.59 7.94
5/23/2022 11:15:00 PM 16.34 61.412 0.145 7.27 2.56 7.95
5/23/2022 11:30:00 PM 16.27 61.286 0.146 7.26 2.55 7.96
5/23/2022 11:45:00 PM 16.19 61.142 0.146 7.26 2.68 7.97
5/24/2022 12:00:00 AM 16.12 61.016 0.146 7.26 2.51 7.98
5/24/2022 12:15:00 AM 16.05 60.89 0.146 7.26 2.34 7.97
5/24/2022 12:30:00 AM 15.97 60.746 0.146 7.26 2.5 7.98
5/24/2022 12:45:00 AM 15.9 60.62 0.146 7.26 2.63 8.01
5/24/2022 1:00:00 AM 15.82 60.476 0.147 7.26 2.52 8.01
5/24/2022 1:15:00 AM 15.75 60.35 0.147 7.26 2.34 8.03
5/24/2022 1:30:00 AM 15.67 60.206 0.147 7.26 2.5 8.04
5/24/2022 1:45:00 AM 15.61 60.098 0.147 7.26 2.47 8.04
5/24/2022 2:00:00 AM 15.54 59.972 0.147 7.25 2.44 8.05
5/24/2022 2:15:00 AM 15.48 59.864 0.147 7.25 2.45 8.07
5/24/2022 2:30:00 AM 15.42 59.756 0.148 7.26 2.37 8.08
5/24/2022 2:45:00 AM 15.35 59.63 0.148 7.25 2.33 8.09
5/24/2022 3:00:00 AM 15.28 59.504 0.148 7.25 2.34 8.09
5/24/2022 3:15:00 AM 15.22 59.396 0.148 7.25 2.37 8.11
5/24/2022 3:30:00 AM 15.17 59.306 0.148 7.26 2.34 8.14
5/24/2022 3:45:00 AM 15.11 59.198 0.148 7.25 2.24 8.14
5/24/2022 4:00:00 AM 15.06 59.108 0.148 7.25 2.42 8.15
5/24/2022 4:15:00 AM 15.02 59.036 0.148 7.25 2.31 8.14
5/24/2022 4:30:00 AM 14.97 58.946 0.149 7.26 2.27 8.16
5/24/2022 4:45:00 AM 14.92 58.856 0.149 7.25 2.29 8.18
5/24/2022 5:00:00 AM 14.87 58.766 0.149 7.25 2.33 8.18
5/24/2022 5:15:00 AM 14.81 58.658 0.149 7.25 2.35 8.18
5/24/2022 5:30:00 AM 14.75 58.55 0.149 7.25 2.26 8.19
5/24/2022 5:45:00 AM 14.7 58.46 0.149 7.26 2.27 8.23
5/24/2022 6:00:00 AM 14.64 58.352 0.149 7.26 2.24 8.27
5/24/2022 6:15:00 AM 14.58 58.244 0.15 7.27 2.27 8.33
5/24/2022 6:30:00 AM 14.54 58.172 0.15 7.28 2.17 8.47
5/24/2022 6:45:00 AM 14.5 58.1 0.15 7.3 2.34 8.61
5/24/2022 7:00:00 AM 14.48 58.064 0.15 7.32 2.32 8.76
5/24/2022 7:15:00 AM 14.47 58.046 0.15 7.35 2.2 8.93
5/24/2022 7:30:00 AM 14.49 58.082 0.15 7.38 2.11 9.14
5/24/2022 7:45:00 AM 14.55 58.19 0.15 7.41 2.12 9.33
5/24/2022 8:00:00 AM 14.62 58.316 0.15 7.44 2.08 9.48
5/24/2022 8:15:00 AM 14.71 58.478 0.15 7.48 2.11 9.64
5/24/2022 8:30:00 AM 14.83 58.694 0.15 7.5 2.07 9.76
5/24/2022 8:45:00 AM 15 59 0.149 7.55 1.94 9.95
5/24/2022 9:00:00 AM 15.21 59.378 0.149 7.6 2.09 10.12
5/24/2022 9:15:00 AM 15.33 59.594 0.149 7.62 2.25 10.18
5/24/2022 9:30:00 AM 15.49 59.882 0.149 7.66 2.15 10.28
5/24/2022 9:45:00 AM 15.65 60.17 0.149 7.7 1.98 10.33
5/24/2022 10:00:00 AM 15.79 60.422 0.149 7.74 1.86 10.41
5/24/2022 10:15:00 AM 15.94 60.692 0.149 7.77 1.9 10.44
5/24/2022 10:30:00 AM 16 60.8 0.149 7.78 2.12 10.42
5/24/2022 10:45:00 AM 16.05 60.89 0.149 7.79 1.88 10.38
5/24/2022 11:00:00 AM 16.11 60.998 0.149 7.82 1.99 10.41
5/24/2022 11:15:00 AM 16.19 61.142 0.149 7.86 1.99 10.47
5/24/2022 11:30:00 AM 16.24 61.232 0.149 7.85 1.96 10.41
5/24/2022 11:45:00 AM 16.26 61.268 0.149 7.85 1.98 10.34
5/24/2022 12:00:00 PM 16.28 61.304 0.149 7.84 1.97 10.29
5/24/2022 12:15:00 PM 16.31 61.358 0.149 7.86 1.82 10.31
5/24/2022 12:30:00 PM 16.34 61.412 0.149 7.88 1.95 10.31
5/24/2022 12:45:00 PM 16.36 61.448 0.149 7.88 2.02 10.28
5/24/2022 1:00:00 PM 16.38 61.484 0.149 7.88 1.81 10.25
5/24/2022 1:15:00 PM 16.44 61.592 0.149 7.92 1.82 10.29
5/24/2022 1:30:00 PM 16.58 61.844 0.149 8.01 1.89 10.46
5/24/2022 1:45:00 PM 16.86 62.348 0.149 8.09 1.94 10.54
5/24/2022 2:00:00 PM 17.06 62.708 0.149 8.1 1.82 10.53
5/24/2022 2:15:00 PM 17.18 62.924 0.149 8.13 1.93 10.52
5/24/2022 2:30:00 PM 17.37 63.266 0.149 8.21 1.79 10.53
5/24/2022 2:45:00 PM 17.58 63.644 0.149 8.28 1.9 10.6
5/24/2022 3:00:00 PM 17.79 64.022 0.149 8.34 2.01 10.6
5/24/2022 3:15:00 PM 17.95 64.31 0.149 8.36 1.79 10.52
5/24/2022 3:30:00 PM 18.07 64.526 0.149 8.38 1.88 10.46
5/24/2022 3:45:00 PM 18.16 64.688 0.149 8.41 1.96 10.39
5/24/2022 4:00:00 PM 18.16 64.688 0.149 8.37 1.9 10.25
5/24/2022 4:15:00 PM 18.04 64.472 0.149 8.27 1.95 10
5/24/2022 4:30:00 PM 17.94 64.292 0.149 8.2 1.86 9.88
5/24/2022 4:45:00 PM 17.85 64.13 0.149 8.16 2.22 9.84
5/24/2022 5:00:00 PM 17.76 63.968 0.15 8.07 1.76 9.71
5/24/2022 5:15:00 PM 17.67 63.806 0.15 7.99 1.76 9.62
5/24/2022 5:30:00 PM 17.59 63.662 0.15 7.93 2.06 9.59
5/24/2022 5:45:00 PM 17.51 63.518 0.15 7.91 1.75 9.62
5/24/2022 6:00:00 PM 17.46 63.428 0.15 7.89 1.91 9.68
5/24/2022 6:15:00 PM 17.44 63.392 0.15 7.88 1.88 9.72
5/24/2022 6:30:00 PM 17.43 63.374 0.15 7.86 1.96 9.72
5/24/2022 6:45:00 PM 17.4 63.32 0.15 7.81 1.92 9.61
5/24/2022 7:00:00 PM 17.31 63.158 0.151 7.74 1.77 9.45
5/24/2022 7:15:00 PM 17.23 63.014 0.151 7.66 1.9 9.25
5/24/2022 7:30:00 PM 17.16 62.888 0.151 7.59 1.91 9.03
5/24/2022 7:45:00 PM 17.09 62.762 0.151 7.52 1.94 8.83
5/24/2022 8:00:00 PM 17.03 62.654 0.151 7.47 2.01 8.66
5/24/2022 8:15:00 PM 16.96 62.528 0.152 7.42 1.75 8.48
5/24/2022 8:30:00 PM 16.88 62.384 0.152 7.38 1.8 8.31
5/24/2022 8:45:00 PM 16.8 62.24 0.152 7.34 1.87 8.2
5/24/2022 9:00:00 PM 16.73 62.114 0.153 7.32 1.84 8.1
5/24/2022 9:15:00 PM 16.65 61.97 0.153 7.3 1.81 8.01
5/24/2022 9:30:00 PM 16.55 61.79 0.153 7.28 1.92 7.96
5/24/2022 9:45:00 PM 16.46 61.628 0.153 7.27 1.97 7.92
5/24/2022 10:00:00 PM 16.38 61.484 0.153 7.26 1.91 7.89
5/24/2022 10:15:00 PM 16.28 61.304 0.153 7.26 1.78 7.89
5/24/2022 10:30:00 PM 16.2 61.16 0.154 7.25 1.92 7.87
5/24/2022 10:45:00 PM 16.11 60.998 0.154 7.25 1.8 7.9
5/24/2022 11:00:00 PM 16.03 60.854 0.154 7.24 1.88 7.89
5/24/2022 11:15:00 PM 15.96 60.728 0.154 7.24 1.82 7.89
5/24/2022 11:30:00 PM 15.88 60.584 0.154 7.24 1.81 7.87
5/24/2022 11:45:00 PM 15.82 60.476 0.154 7.24 1.85 7.9
5/25/2022 12:00:00 AM 15.76 60.368 0.154 7.24 1.78 7.91
5/25/2022 12:15:00 AM 15.71 60.278 0.155 7.24 1.84 7.9
5/25/2022 12:30:00 AM 15.68 60.224 0.155 7.24 1.85 7.9
5/25/2022 12:45:00 AM 15.64 60.152 0.155 7.24 1.81 7.95
5/25/2022 1:00:00 AM 15.61 60.098 0.155 7.24 1.88 7.93
5/25/2022 1:15:00 AM 15.58 60.044 0.155 7.23 1.95 7.93
5/25/2022 1:30:00 AM 15.55 59.99 0.155 7.23 1.85 7.92
5/25/2022 1:45:00 AM 15.53 59.954 0.155 7.23 2.01 7.93
5/25/2022 2:00:00 AM 15.5 59.9 0.155 7.23 1.83 7.93
5/25/2022 2:15:00 AM 15.47 59.846 0.155 7.23 1.86 7.94
5/25/2022 2:30:00 AM 15.44 59.792 0.155 7.24 1.81 7.95
5/25/2022 2:45:00 AM 15.42 59.756 0.155 7.23 1.96 7.96
5/25/2022 3:00:00 AM 15.39 59.702 0.156 7.23 1.79 7.95
5/25/2022 3:15:00 AM 15.37 59.666 0.156 7.23 1.81 7.95
5/25/2022 3:30:00 AM 15.34 59.612 0.156 7.23 1.81 7.95
5/25/2022 3:45:00 AM 15.32 59.576 0.156 7.23 1.97 7.95
5/25/2022 4:00:00 AM 15.29 59.522 0.156 7.23 1.84 7.96
5/25/2022 4:15:00 AM 15.27 59.486 0.156 7.23 1.82 7.97
5/25/2022 4:30:00 AM 15.24 59.432 0.156 7.23 1.9 7.95
5/25/2022 4:45:00 AM 15.22 59.396 0.156 7.23 1.78 7.96
5/25/2022 5:00:00 AM 15.2 59.36 0.156 7.23 1.84 7.96
5/25/2022 5:15:00 AM 15.18 59.324 0.156 7.23 1.89 7.95
5/25/2022 5:30:00 AM 15.16 59.288 0.156 7.23 2.04 7.97
5/25/2022 5:45:00 AM 15.14 59.252 0.156 7.23 2.07 7.96
5/25/2022 6:00:00 AM 15.12 59.216 0.157 7.23 2.03 8
5/25/2022 6:15:00 AM 15.1 59.18 0.157 7.23 2.09 8.02
5/25/2022 6:30:00 AM 15.09 59.162 0.157 7.24 1.96 8.07
5/25/2022 6:45:00 AM 15.08 59.144 0.157 7.25 1.9 8.17
5/25/2022 7:00:00 AM 15.08 59.144 0.157 7.26 1.98 8.24
5/25/2022 7:15:00 AM 15.08 59.144 0.157 7.28 1.86 8.38
5/25/2022 7:30:00 AM 15.09 59.162 0.157 7.3 1.68 8.57
5/25/2022 7:45:00 AM 15.11 59.198 0.157 7.33 1.91 8.78
5/25/2022 8:00:00 AM 15.15 59.27 0.157 7.36 1.96 8.98
5/25/2022 8:15:00 AM 15.2 59.36 0.157 7.41 1.7 9.25
5/25/2022 8:30:00 AM 15.26 59.468 0.157 7.45 1.78 9.49
5/25/2022 8:45:00 AM 15.35 59.63 0.156 7.5 1.66 9.71
5/25/2022 9:00:00 AM 15.46 59.828 0.156 7.54 1.88 9.89
5/25/2022 9:15:00 AM 15.58 60.044 0.156 7.58 1.93 10.06
5/25/2022 9:30:00 AM 15.7 60.26 0.156 7.61 2.02 10.16
5/25/2022 9:45:00 AM 15.85 60.53 0.156 7.65 1.88 10.27
5/25/2022 10:00:00 AM 16.02 60.836 0.156 7.7 1.79 10.39
5/25/2022 10:15:00 AM 16.19 61.142 0.156 7.74 1.72 10.43
5/25/2022 10:30:00 AM 16.44 61.592 0.156 7.79 2.05 10.5
5/25/2022 10:45:00 AM 16.68 62.024 0.156 7.81 1.84 10.55
5/25/2022 11:00:00 AM 16.92 62.456 0.156 7.85 1.72 10.57
5/25/2022 11:15:00 AM 17.1 62.78 0.156 7.89 1.81 10.58
5/25/2022 11:30:00 AM 17.42 63.356 0.156 7.94 1.73 10.57
5/25/2022 11:45:00 AM 17.7 63.86 0.156 8 1.79 10.59
5/25/2022 12:00:00 PM 17.96 64.328 0.156 8.04 1.67 10.59
5/25/2022 12:15:00 PM 18.12 64.616 0.156 8.08 1.86 10.59
5/25/2022 12:30:00 PM 18.38 65.084 0.156 8.14 2.24 10.59
5/25/2022 12:45:00 PM 18.63 65.534 0.156 8.17 1.83 10.59
5/25/2022 1:00:00 PM 18.79 65.82201 0.156 8.21 1.82 10.57
5/25/2022 1:15:00 PM 18.97 66.146 0.155 8.26 1.73 10.55
5/25/2022 1:30:00 PM 19.24 66.632 0.155 8.26 1.58 10.5
5/25/2022 1:45:00 PM 19.5 67.1 0.155 8.3 1.65 10.52
5/25/2022 2:00:00 PM 19.68 67.424 0.155 8.31 1.63 10.44
5/25/2022 2:15:00 PM 19.82 67.676 0.155 8.32 1.65 10.42
5/25/2022 2:30:00 PM 20.03 68.054 0.155 8.34 1.67 10.37
5/25/2022 2:45:00 PM 20.19 68.342 0.155 8.37 1.58 10.36
5/25/2022 3:00:00 PM 20.31 68.558 0.155 8.35 1.61 10.26
5/25/2022 3:15:00 PM 20.39 68.702 0.155 8.33 1.81 10.15
5/25/2022 3:30:00 PM 20.51 68.918 0.155 8.34 1.85 10.12
5/25/2022 3:45:00 PM 20.61 69.098 0.155 8.3 1.68 10
5/25/2022 4:00:00 PM 20.7 69.26 0.155 8.3 1.8 9.96
5/25/2022 4:15:00 PM 20.74 69.332 0.156 8.27 1.77 9.9
5/25/2022 4:30:00 PM 20.7 69.26 0.155 8.22 1.74 9.76
5/25/2022 4:45:00 PM 20.66 69.188 0.155 8.21 1.81 9.71
5/25/2022 5:00:00 PM 20.56 69.008 0.155 8.15 1.77 9.6
5/25/2022 5:15:00 PM 20.47 68.846 0.156 8.08 1.64 9.48
5/25/2022 5:30:00 PM 20.38 68.684 0.156 8.03 1.76 9.45
5/25/2022 5:45:00 PM 20.24 68.432 0.156 7.97 1.77 9.38
5/25/2022 6:00:00 PM 20.1 68.18 0.156 7.92 1.79 9.3
5/25/2022 6:15:00 PM 19.94 67.892 0.156 7.84 1.65 9.19
5/25/2022 6:30:00 PM 19.71 67.478 0.157 7.77 1.72 9.05
5/25/2022 6:45:00 PM 19.53 67.154 0.157 7.69 1.77 8.92
5/25/2022 7:00:00 PM 19.34 66.812 0.157 7.63 1.7 8.81
5/25/2022 7:15:00 PM 19.16 66.488 0.157 7.58 1.94 8.67
5/25/2022 7:30:00 PM 18.99 66.182 0.157 7.53 1.73 8.55
5/25/2022 7:45:00 PM 18.82 65.876 0.158 7.47 1.71 8.38
5/25/2022 8:00:00 PM 18.65 65.57 0.158 7.42 1.78 8.19
5/25/2022 8:15:00 PM 18.51 65.318 0.158 7.38 1.72 8.02
5/25/2022 8:30:00 PM 18.37 65.066 0.158 7.35 1.66 7.85
5/25/2022 8:45:00 PM 18.21 64.778 0.159 7.31 1.75 7.69
5/25/2022 9:00:00 PM 18.06 64.508 0.159 7.28 1.73 7.54
5/25/2022 9:15:00 PM 17.91 64.238 0.16 7.26 1.98 7.51
5/25/2022 9:30:00 PM 17.81 64.058 0.16 7.25 1.87 7.44
5/25/2022 9:45:00 PM 17.7 63.86 0.16 7.24 2.29 7.41
5/25/2022 10:00:00 PM 17.59 63.662 0.16 7.23 2.73 7.37
5/25/2022 10:15:00 PM 17.5 63.5 0.16 7.23 2.93 7.35
5/25/2022 10:30:00 PM 17.41 63.338 0.16 7.22 2.48 7.33
5/25/2022 10:45:00 PM 17.33 63.194 0.16 7.22 2.31 7.33
5/25/2022 11:00:00 PM 17.25 63.05 0.161 7.21 1.97 7.32
5/25/2022 11:15:00 PM 17.19 62.942 0.161 7.21 1.9 7.33
5/25/2022 11:30:00 PM 17.12 62.816 0.161 7.21 1.7 7.3
5/25/2022 11:45:00 PM 17.05 62.69 0.161 7.21 1.91 7.31
5/26/2022 12:00:00 AM 16.98 62.564 0.161 7.21 1.8 7.35
5/26/2022 12:15:00 AM 16.92 62.456 0.161 7.21 1.89 7.36
5/26/2022 12:30:00 AM 16.86 62.348 0.161 7.21 1.73 7.34
5/26/2022 12:45:00 AM 16.79 62.222 0.161 7.21 1.63 7.38
5/26/2022 1:00:00 AM 16.74 62.132 0.161 7.21 1.61 7.37
5/26/2022 1:15:00 AM 16.68 62.024 0.162 7.21 1.55 7.36
5/26/2022 1:30:00 AM 16.63 61.934 0.162 7.21 1.52 7.37
5/26/2022 1:45:00 AM 16.58 61.844 0.162 7.21 1.42 7.39
5/26/2022 2:00:00 AM 16.53 61.754 0.162 7.21 1.39 7.4
5/26/2022 2:15:00 AM 16.47 61.646 0.162 7.21 1.67 7.41
5/26/2022 2:30:00 AM 16.42 61.556 0.162 7.21 1.49 7.42
5/26/2022 2:45:00 AM 16.36 61.448 0.162 7.21 1.51 7.43
5/26/2022 3:00:00 AM 16.3 61.34 0.162 7.21 1.67 7.44
5/26/2022 3:15:00 AM 16.23 61.214 0.162 7.21 1.54 7.47
5/26/2022 3:30:00 AM 16.18 61.124 0.162 7.21 1.49 7.42
5/26/2022 3:45:00 AM 16.12 61.016 0.162 7.22 1.41 7.47
5/26/2022 4:00:00 AM 16.07 60.926 0.162 7.22 1.47 7.49
5/26/2022 4:15:00 AM 16.01 60.818 0.162 7.22 1.44 7.48
5/26/2022 4:30:00 AM 15.96 60.728 0.162 7.22 1.55 7.5
5/26/2022 4:45:00 AM 15.89 60.602 0.162 7.22 1.69 7.52
5/26/2022 5:00:00 AM 15.85 60.53 0.162 7.22 1.6 7.54
5/26/2022 5:15:00 AM 15.79 60.422 0.162 7.22 1.45 7.52
5/26/2022 5:30:00 AM 15.73 60.314 0.163 7.22 1.5 7.54
5/26/2022 5:45:00 AM 15.68 60.224 0.163 7.22 1.53 7.55
5/26/2022 6:00:00 AM 15.63 60.134 0.163 7.22 1.38 7.58
5/26/2022 6:15:00 AM 15.59 60.062 0.163 7.23 1.59 7.66
5/26/2022 6:30:00 AM 15.56 60.008 0.163 7.23 1.48 7.7
5/26/2022 6:45:00 AM 15.53 59.954 0.163 7.25 1.51 7.84
5/26/2022 7:00:00 AM 15.51 59.918 0.163 7.26 1.37 7.98
5/26/2022 7:15:00 AM 15.51 59.918 0.163 7.28 1.53 8.14
5/26/2022 7:30:00 AM 15.52 59.936 0.163 7.31 1.43 8.31
5/26/2022 7:45:00 AM 15.55 59.99 0.163 7.34 1.54 8.56
5/26/2022 8:00:00 AM 15.61 60.098 0.163 7.37 1.6 8.78
5/26/2022 8:15:00 AM 15.67 60.206 0.163 7.39 1.57 8.92
5/26/2022 8:30:00 AM 15.74 60.332 0.163 7.41 1.63 9.04
5/26/2022 8:45:00 AM 15.86 60.548 0.163 7.44 1.33 9.19
5/26/2022 9:00:00 AM 16 60.8 0.163 7.47 1.37 9.34
5/26/2022 9:15:00 AM 16.12 61.016 0.163 7.49 1.51 9.48
5/26/2022 9:30:00 AM 16.27 61.286 0.163 7.53 1.37 9.59
5/26/2022 9:45:00 AM 16.41 61.538 0.162 7.55 1.37 9.7
5/26/2022 10:00:00 AM 16.58 61.844 0.163 7.57 1.29 9.76
5/26/2022 10:15:00 AM 16.72 62.096 0.163 7.59 1.41 9.84
5/26/2022 10:30:00 AM 16.93 62.474 0.163 7.62 1.4 9.93
5/26/2022 10:45:00 AM 17.16 62.888 0.163 7.63 1.38 9.93
5/26/2022 11:00:00 AM 17.41 63.338 0.163 7.65 1.31 9.96
5/26/2022 11:15:00 AM 17.69 63.842 0.163 7.67 1.53 9.99
5/26/2022 11:30:00 AM 17.92 64.256 0.163 7.68 1.31 9.98
5/26/2022 11:45:00 AM 18.15 64.67 0.163 7.7 1.22 9.99
5/26/2022 12:00:00 PM 18.47 65.246 0.163 7.74 1.35 10.03
5/26/2022 12:15:00 PM 18.78 65.804 0.163 7.74 1.22 9.99
5/26/2022 12:30:00 PM 18.99 66.182 0.163 7.77 1.45 9.98
5/26/2022 12:45:00 PM 19.25 66.65 0.163 7.79 1.47 10
5/26/2022 1:00:00 PM 19.53 67.154 0.163 7.82 1.38 9.97
5/26/2022 1:15:00 PM 19.74 67.532 0.162 7.83 1.45 9.94
5/26/2022 1:30:00 PM 19.92 67.856 0.162 7.79 1.27 9.87
5/26/2022 1:45:00 PM 20.02 68.036 0.163 7.77 1.52 9.77
5/26/2022 2:00:00 PM 20.22 68.396 0.163 7.77 1.18 9.77
5/26/2022 2:15:00 PM 20.42 68.756 0.163 7.77 1.36 9.76
5/26/2022 2:30:00 PM 20.53 68.954 0.163 7.78 1.33 9.73
5/26/2022 2:45:00 PM 20.76 69.368 0.163 7.78 1.17 9.71
5/26/2022 3:00:00 PM 20.93 69.674 0.163 7.78 1.36 9.67
5/26/2022 3:15:00 PM 21.04 69.872 0.163 7.76 1.2 9.56
5/26/2022 3:30:00 PM 21.18 70.124 0.163 7.77 1.4 9.57
5/26/2022 3:45:00 PM 21.27 70.286 0.163 7.76 1.04 9.52
5/26/2022 4:00:00 PM 21.32 70.376 0.163 7.74 1.38 9.4
5/26/2022 4:15:00 PM 21.16 70.088 0.163 7.67 1.44 9.08
5/26/2022 4:30:00 PM 20.96 69.728 0.163 7.61 1.33 8.84
5/26/2022 4:45:00 PM 20.79 69.422 0.163 7.57 1.59 8.69
5/26/2022 5:00:00 PM 20.64 69.152 0.163 7.54 1.34 8.6
5/26/2022 5:15:00 PM 20.54 68.972 0.164 7.53 1.35 8.59
5/26/2022 5:30:00 PM 20.4 68.72 0.164 7.52 1.45 8.58
5/26/2022 5:45:00 PM 20.28 68.504 0.164 7.52 1.29 8.56
5/26/2022 6:00:00 PM 20.13 68.234 0.164 7.5 1.56 8.48
5/26/2022 6:15:00 PM 20 68 0.164 7.48 1.4 8.42
5/26/2022 6:30:00 PM 19.84 67.712 0.164 7.44 1.39 8.2
5/26/2022 6:45:00 PM 19.69 67.442 0.164 7.4 1.43 7.99
5/26/2022 7:00:00 PM 19.53 67.154 0.164 7.37 1.58 7.88
5/26/2022 7:15:00 PM 19.42 66.956 0.164 7.35 1.78 7.76
5/26/2022 7:30:00 PM 19.27 66.686 0.164 7.33 2.25 7.62
5/26/2022 7:45:00 PM 19.14 66.452 0.164 7.3 1.37 7.48
5/26/2022 8:00:00 PM 19.01 66.218 0.164 7.28 1.34 7.36
5/26/2022 8:15:00 PM 18.88 65.984 0.164 7.26 1.43 7.24
5/26/2022 8:30:00 PM 18.77 65.786 0.164 7.24 1.45 7.13
5/26/2022 8:45:00 PM 18.66 65.588 0.164 7.23 1.61 7.05
5/26/2022 9:00:00 PM 18.57 65.426 0.165 7.22 1.47 6.97
5/26/2022 9:15:00 PM 18.49 65.282 0.165 7.21 1.71 6.89
5/26/2022 9:30:00 PM 18.38 65.084 0.165 7.2 1.6 6.93
5/26/2022 9:45:00 PM 18.32 64.976 0.165 7.2 1.36 6.87
5/26/2022 10:00:00 PM 18.24 64.832 0.166 7.19 1.5 6.87
5/26/2022 10:15:00 PM 18.17 64.706 0.166 7.19 1.49 6.88
5/26/2022 10:30:00 PM 18.1 64.58 0.166 7.19 1.45 6.86
5/26/2022 10:45:00 PM 18.04 64.472 0.166 7.18 1.48 6.86
5/26/2022 11:00:00 PM 17.98 64.364 0.166 7.18 1.43 6.9
5/26/2022 11:15:00 PM 17.93 64.274 0.166 7.18 1.51 6.85
5/26/2022 11:30:00 PM 17.88 64.184 0.166 7.18 1.32 6.88
5/26/2022 11:45:00 PM 17.83 64.094 0.166 7.18 1.29 6.89
5/27/2022 12:00:00 AM 17.79 64.022 0.166 7.18 1.34 6.87
5/27/2022 12:15:00 AM 17.74 63.932 0.167 7.18 1.46 6.85
5/27/2022 12:30:00 AM 17.69 63.842 0.167 7.18 1.34 6.88
5/27/2022 12:45:00 AM 17.66 63.788 0.167 7.18 1.3 6.91
5/27/2022 1:00:00 AM 17.61 63.698 0.167 7.18 1.44 6.91
5/27/2022 1:15:00 AM 17.58 63.644 0.167 7.18 1.56 6.92
5/27/2022 1:30:00 AM 17.54 63.572 0.167 7.18 1.48 6.9
5/27/2022 1:45:00 AM 17.5 63.5 0.167 7.18 1.3 6.91
5/27/2022 2:00:00 AM 17.46 63.428 0.167 7.18 1.31 6.92
5/27/2022 2:15:00 AM 17.42 63.356 0.168 7.18 1.32 6.91
5/27/2022 2:30:00 AM 17.38 63.284 0.168 7.18 1.45 6.94
5/27/2022 2:45:00 AM 17.34 63.212 0.168 7.18 1.52 6.95
5/27/2022 3:00:00 AM 17.31 63.158 0.168 7.18 1.44 6.97
5/27/2022 3:15:00 AM 17.28 63.104 0.168 7.18 1.38 6.92
5/27/2022 3:30:00 AM 17.26 63.068 0.168 7.18 1.41 6.93
5/27/2022 3:45:00 AM 17.24 63.032 0.168 7.18 1.31 6.93
5/27/2022 4:00:00 AM 17.21 62.978 0.168 7.18 1.6 6.9
5/27/2022 4:15:00 AM 17.18 62.924 0.168 7.18 1.37 6.96
5/27/2022 4:30:00 AM 17.16 62.888 0.168 7.18 1.21 6.93
5/27/2022 4:45:00 AM 17.14 62.852 0.168 7.18 1.37 6.96
5/27/2022 5:00:00 AM 17.12 62.816 0.168 7.18 1.35 6.94
5/27/2022 5:15:00 AM 17.1 62.78 0.169 7.18 1.42 6.94
5/27/2022 5:30:00 AM 17.08 62.744 0.169 7.18 1.48 6.96
5/27/2022 5:45:00 AM 17.06 62.708 0.169 7.18 1.36 6.97
5/27/2022 6:00:00 AM 17.04 62.672 0.169 7.18 1.24 6.94
5/27/2022 6:15:00 AM 17.02 62.636 0.169 7.19 1.43 6.99
5/27/2022 6:30:00 AM 17 62.6 0.169 7.19 1.26 7.06
5/27/2022 6:45:00 AM 17 62.6 0.169 7.2 1.39 7.08
5/27/2022 7:00:00 AM 17 62.6 0.169 7.2 1.44 7.19
5/27/2022 7:15:00 AM 17 62.6 0.169 7.22 1.4 7.28
5/27/2022 7:30:00 AM 17.01 62.618 0.169 7.23 1.29 7.38
5/27/2022 7:45:00 AM 17.03 62.654 0.169 7.24 1.3 7.52
5/27/2022 8:00:00 AM 17.06 62.708 0.169 7.26 1.26 7.6
5/27/2022 8:15:00 AM 17.09 62.762 0.17 7.27 1.34 7.72
5/27/2022 8:30:00 AM 17.13 62.834 0.17 7.29 1.38 7.9
5/27/2022 8:45:00 AM 17.18 62.924 0.17 7.31 1.26 8.06
5/27/2022 9:00:00 AM 17.22 62.996 0.169 7.32 1.46 8.1
5/27/2022 9:15:00 AM 17.24 63.032 0.169 7.32 1.38 8.03
5/27/2022 9:30:00 AM 17.28 63.104 0.169 7.33 1.26 8.13
5/27/2022 9:45:00 AM 17.32 63.176 0.169 7.34 1.51 8.2
5/27/2022 10:00:00 AM 17.38 63.284 0.17 7.35 1.13 8.28
5/27/2022 10:15:00 AM 17.45 63.41 0.17 7.36 1.28 8.38
5/27/2022 10:30:00 AM 17.51 63.518 0.17 7.37 1.26 8.45
5/27/2022 10:45:00 AM 17.56 63.608 0.17 7.38 1.21 8.5
5/27/2022 11:00:00 AM 17.62 63.716 0.17 7.38 1.37 8.49
5/27/2022 11:15:00 AM 17.65 63.77 0.17 7.38 1.26 8.43
5/27/2022 11:30:00 AM 17.69 63.842 0.17 7.38 1.22 8.45
5/27/2022 11:45:00 AM 17.72 63.896 0.17 7.39 1.35 8.45
5/27/2022 12:00:00 PM 17.77 63.986 0.17 7.4 1.1 8.54
5/27/2022 12:15:00 PM 17.84 64.112 0.17 7.41 1.22 8.62
5/27/2022 12:30:00 PM 17.9 64.22 0.17 7.42 1.13 8.65
5/27/2022 12:45:00 PM 17.94 64.292 0.17 7.41 1.26 8.6
5/27/2022 1:00:00 PM 18.01 64.418 0.17 7.42 1.31 8.67
5/27/2022 1:15:00 PM 18.15 64.67 0.17 7.44 1.16 8.78
5/27/2022 1:30:00 PM 18.2 64.76 0.17 7.43 1.3 8.73
5/27/2022 1:45:00 PM 18.21 64.778 0.17 7.41 1.28 8.51
5/27/2022 2:00:00 PM 18.2 64.76 0.171 7.4 1.24 8.45
5/27/2022 2:15:00 PM 18.21 64.778 0.171 7.39 1.35 8.42
5/27/2022 2:30:00 PM 18.25 64.85 0.17 7.4 1.07 8.46
5/27/2022 2:45:00 PM 18.27 64.886 0.17 7.4 1.31 8.4
5/27/2022 3:00:00 PM 18.24 64.832 0.17 7.39 1.18 8.33
5/27/2022 3:15:00 PM 18.2 64.76 0.17 7.37 1.19 8.23
5/27/2022 3:30:00 PM 18.16 64.688 0.17 7.36 1.2 8.11
5/27/2022 3:45:00 PM 18.12 64.616 0.17 7.34 1.33 8
5/27/2022 4:00:00 PM 18.08 64.544 0.17 7.33 1.3 7.96
5/27/2022 4:15:00 PM 18.07 64.526 0.17 7.34 1.27 8.01
5/27/2022 4:30:00 PM 18.09 64.562 0.17 7.36 1.28 8.16
5/27/2022 4:45:00 PM 18.11 64.598 0.17 7.37 1.15 8.19
5/27/2022 5:00:00 PM 18.13 64.634 0.169 7.38 1.22 8.27
5/27/2022 5:15:00 PM 18.17 64.706 0.169 7.39 1.25 8.35
5/27/2022 5:30:00 PM 18.24 64.832 0.169 7.4 1.21 8.46
5/27/2022 5:45:00 PM 18.29 64.922 0.169 7.4 1.25 8.46
5/27/2022 6:00:00 PM 18.34 65.012 0.169 7.41 1.28 8.51
5/27/2022 6:15:00 PM 18.4 65.12 0.169 7.41 1.21 8.55
5/27/2022 6:30:00 PM 18.45 65.21 0.169 7.41 1.27 8.52
5/27/2022 6:45:00 PM 18.45 65.21 0.169 7.41 1.34 8.4
5/27/2022 7:00:00 PM 18.43 65.174 0.169 7.39 1.34 8.28
5/27/2022 7:15:00 PM 18.37 65.066 0.169 7.37 1.35 8.17
5/27/2022 7:30:00 PM 18.3 64.94 0.17 7.36 1.29 8.07
5/27/2022 7:45:00 PM 18.24 64.832 0.17 7.34 1.24 7.95
5/27/2022 8:00:00 PM 18.17 64.706 0.17 7.32 1.34 7.8
5/27/2022 8:15:00 PM 18.09 64.562 0.17 7.3 1.37 7.7
5/27/2022 8:30:00 PM 18.02 64.436 0.17 7.29 1.31 7.53
5/27/2022 8:45:00 PM 17.92 64.256 0.17 7.26 1.19 7.4
5/27/2022 9:00:00 PM 17.85 64.13 0.17 7.25 1.49 7.28
5/27/2022 9:15:00 PM 17.77 63.986 0.17 7.24 1.49 7.17
5/27/2022 9:30:00 PM 17.67 63.806 0.17 7.22 1.29 7.11
5/27/2022 9:45:00 PM 17.59 63.662 0.17 7.22 1.36 7.08
5/27/2022 10:00:00 PM 17.52 63.536 0.17 7.21 1.27 7.04
5/27/2022 10:15:00 PM 17.44 63.392 0.17 7.2 1.63 6.94
5/27/2022 10:30:00 PM 17.35 63.23 0.17 7.2 1.37 7.04
5/27/2022 10:45:00 PM 17.28 63.104 0.17 7.2 1.55 7.03
5/27/2022 11:00:00 PM 17.22 62.996 0.17 7.19 1.47 7.02
5/27/2022 11:15:00 PM 17.15 62.87 0.17 7.19 1.3 6.99
5/27/2022 11:30:00 PM 17.1 62.78 0.17 7.19 1.29 7.06
5/27/2022 11:45:00 PM 17.05 62.69 0.17 7.19 1.44 7.07
5/28/2022 12:00:00 AM 17.01 62.618 0.17 7.19 1.36 7.03
5/28/2022 12:15:00 AM 16.97 62.546 0.17 7.19 1.31 7.04
5/28/2022 12:30:00 AM 16.93 62.474 0.17 7.2 1.42 7.07
5/28/2022 12:45:00 AM 16.9 62.42 0.17 7.2 1.38 7.09
5/28/2022 1:00:00 AM 16.88 62.384 0.17 7.19 1.26 7.05
5/28/2022 1:15:00 AM 16.86 62.348 0.17 7.2 1.35 7.1
5/28/2022 1:30:00 AM 16.84 62.312 0.17 7.2 1.31 7.14
5/28/2022 1:45:00 AM 16.82 62.276 0.17 7.2 1.82 7.09
5/28/2022 2:00:00 AM 16.79 62.222 0.17 7.2 1.32 7.13
5/28/2022 2:15:00 AM 16.76 62.168 0.17 7.2 1.58 7.15
5/28/2022 2:30:00 AM 16.72 62.096 0.17 7.2 3.07 7.15
5/28/2022 2:45:00 AM 16.68 62.024 0.17 7.2 1.36 7.13
5/28/2022 3:00:00 AM 16.64 61.952 0.17 7.2 1.44 7.16
5/28/2022 3:15:00 AM 16.61 61.898 0.17 7.2 1.4 7.19
5/28/2022 3:30:00 AM 16.58 61.844 0.17 7.2 1.44 7.18
5/28/2022 3:45:00 AM 16.57 61.826 0.17 7.2 1.52 7.19
5/28/2022 4:00:00 AM 16.55 61.79 0.17 7.2 1.32 7.23
5/28/2022 4:15:00 AM 16.54 61.772 0.17 7.2 1.46 7.18
5/28/2022 4:30:00 AM 16.52 61.736 0.17 7.2 1.28 7.21
5/28/2022 4:45:00 AM 16.5 61.7 0.17 7.2 1.37 7.22
5/28/2022 5:00:00 AM 16.48 61.664 0.17 7.2 1.6 7.25
5/28/2022 5:15:00 AM 16.45 61.61 0.17 7.2 1.65 7.24
5/28/2022 5:30:00 AM 16.44 61.592 0.17 7.2 2.5 7.23
5/28/2022 5:45:00 AM 16.42 61.556 0.17 7.2 1.55 7.23
5/28/2022 6:00:00 AM 16.4 61.52 0.17 7.21 1.45 7.27
5/28/2022 6:15:00 AM 16.39 61.502 0.17 7.21 1.45 7.29
5/28/2022 6:30:00 AM 16.39 61.502 0.17 7.21 1.43 7.31
5/28/2022 6:45:00 AM 16.38 61.484 0.17 7.22 1.51 7.45
5/28/2022 7:00:00 AM 16.39 61.502 0.17 7.23 1.5 7.5
5/28/2022 7:15:00 AM 16.41 61.538 0.17 7.24 1.53 7.63
5/28/2022 7:30:00 AM 16.44 61.592 0.17 7.25 1.55 7.7
5/28/2022 7:45:00 AM 16.46 61.628 0.17 7.26 1.42 7.75
5/28/2022 8:00:00 AM 16.51 61.718 0.17 7.28 1.44 7.87
5/28/2022 8:15:00 AM 16.57 61.826 0.17 7.29 1.49 8.02
5/28/2022 8:30:00 AM 16.63 61.934 0.17 7.31 1.43 8.12
5/28/2022 8:45:00 AM 16.69 62.042 0.17 7.32 1.5 8.15
5/28/2022 9:00:00 AM 16.76 62.168 0.17 7.33 1.32 8.21
5/28/2022 9:15:00 AM 16.83 62.294 0.17 7.34 1.4 8.3
5/28/2022 9:30:00 AM 16.91 62.438 0.17 7.35 1.44 8.36
5/28/2022 9:45:00 AM 16.97 62.546 0.17 7.36 1.29 8.42
5/28/2022 10:00:00 AM 17.06 62.708 0.17 7.37 1.39 8.48
5/28/2022 10:15:00 AM 17.16 62.888 0.17 7.37 1.35 8.48
5/28/2022 10:30:00 AM 17.22 62.996 0.17 7.37 1.37 8.46
5/28/2022 10:45:00 AM 17.26 63.068 0.171 7.37 1.91 8.42
5/28/2022 11:00:00 AM 17.27 63.086 0.171 7.36 1.44 8.33
5/28/2022 11:15:00 AM 17.32 63.176 0.171 7.37 1.44 8.38
5/28/2022 11:30:00 AM 17.39 63.302 0.171 7.37 1.41 8.44
5/28/2022 11:45:00 AM 17.44 63.392 0.171 7.38 1.47 8.47
5/28/2022 12:00:00 PM 17.5 63.5 0.171 7.39 1.35 8.52
5/28/2022 12:15:00 PM 17.59 63.662 0.171 7.39 1.19 8.55
5/28/2022 12:30:00 PM 17.69 63.842 0.17 7.4 1.23 8.59
5/28/2022 12:45:00 PM 17.89 64.202 0.17 7.42 1.22 8.73
5/28/2022 1:00:00 PM 18.23 64.814 0.171 7.42 1.39 8.76
5/28/2022 1:15:00 PM 18.36 65.048 0.171 7.42 1.32 8.73
5/28/2022 1:30:00 PM 18.37 65.066 0.171 7.4 1.23 8.5
5/28/2022 1:45:00 PM 18.38 65.084 0.171 7.38 1.46 8.36
5/28/2022 2:00:00 PM 18.39 65.102 0.171 7.37 1.27 8.22
5/28/2022 2:15:00 PM 18.36 65.048 0.171 7.36 1.34 8.18
5/28/2022 2:30:00 PM 18.35 65.03 0.172 7.37 1.31 8.26
5/28/2022 2:45:00 PM 18.38 65.084 0.172 7.38 1.15 8.34
5/28/2022 3:00:00 PM 18.55 65.39 0.172 7.39 1.26 8.46
5/28/2022 3:15:00 PM 18.68 65.624 0.172 7.39 1.22 8.41
5/28/2022 3:30:00 PM 18.71 65.67799 0.172 7.38 1.37 8.36
5/28/2022 3:45:00 PM 18.72 65.696 0.171 7.38 1.46 8.34
5/28/2022 4:00:00 PM 18.73 65.714 0.171 7.38 1.32 8.34
5/28/2022 4:15:00 PM 18.74 65.732 0.171 7.38 1.32 8.29
5/28/2022 4:30:00 PM 18.71 65.67799 0.171 7.38 1.31 8.25
5/28/2022 4:45:00 PM 18.73 65.714 0.172 7.38 1.35 8.3
5/28/2022 5:00:00 PM 18.69 65.642 0.172 7.37 1.44 8.23
5/28/2022 5:15:00 PM 18.61 65.498 0.172 7.36 1.31 8.13
5/28/2022 5:30:00 PM 18.55 65.39 0.172 7.36 1.32 8.1
5/28/2022 5:45:00 PM 18.5 65.3 0.172 7.35 1.48 8.06
5/28/2022 6:00:00 PM 18.44 65.192 0.172 7.35 1.4 8.04
5/28/2022 6:15:00 PM 18.4 65.12 0.171 7.36 1.44 8.07
5/28/2022 6:30:00 PM 18.34 65.012 0.171 7.35 1.63 8.05
5/28/2022 6:45:00 PM 18.26 64.868 0.171 7.35 1.43 8.01
5/28/2022 7:00:00 PM 18.19 64.742 0.17 7.34 1.48 7.94
5/28/2022 7:15:00 PM 18.09 64.562 0.17 7.33 1.48 7.92
5/28/2022 7:30:00 PM 18 64.4 0.17 7.32 1.66 7.84
5/28/2022 7:45:00 PM 17.88 64.184 0.171 7.31 1.49 7.77
5/28/2022 8:00:00 PM 17.76 63.968 0.171 7.3 1.57 7.69
5/28/2022 8:15:00 PM 17.59 63.662 0.171 7.28 1.41 7.61
5/28/2022 8:30:00 PM 17.45 63.41 0.171 7.27 1.54 7.53
5/28/2022 8:45:00 PM 17.35 63.23 0.171 7.25 1.49 7.41
5/28/2022 9:00:00 PM 17.23 63.014 0.171 7.25 1.57 7.38
5/28/2022 9:15:00 PM 17.15 62.87 0.172 7.24 1.61 7.31
5/28/2022 9:30:00 PM 17.04 62.672 0.172 7.24 1.45 7.32
5/28/2022 9:45:00 PM 16.94 62.492 0.172 7.23 1.44 7.3
5/28/2022 10:00:00 PM 16.86 62.348 0.172 7.23 1.66 7.28
5/28/2022 10:15:00 PM 16.77 62.186 0.172 7.22 1.53 7.28
5/28/2022 10:30:00 PM 16.68 62.024 0.172 7.22 1.56 7.25
5/28/2022 10:45:00 PM 16.59 61.862 0.172 7.22 1.51 7.31
5/28/2022 11:00:00 PM 16.51 61.718 0.172 7.22 1.57 7.32
5/28/2022 11:15:00 PM 16.46 61.628 0.172 7.22 1.31 7.32
5/28/2022 11:30:00 PM 16.38 61.484 0.172 7.22 1.4 7.34
5/28/2022 11:45:00 PM 16.31 61.358 0.172 7.22 2.06 7.33
5/29/2022 12:00:00 AM 16.24 61.232 0.172 7.22 1.4 7.37
5/29/2022 12:15:00 AM 16.18 61.124 0.172 7.22 1.45 7.38
5/29/2022 12:30:00 AM 16.11 60.998 0.172 7.22 1.39 7.34
5/29/2022 12:45:00 AM 16.04 60.872 0.172 7.22 1.5 7.42
5/29/2022 1:00:00 AM 15.98 60.764 0.172 7.22 1.55 7.41
5/29/2022 1:15:00 AM 15.91 60.638 0.172 7.22 1.5 7.43
5/29/2022 1:30:00 AM 15.85 60.53 0.172 7.22 1.45 7.47
5/29/2022 1:45:00 AM 15.81 60.458 0.173 7.22 1.52 7.46
5/29/2022 2:00:00 AM 15.77 60.386 0.172 7.22 1.55 7.48
5/29/2022 2:15:00 AM 15.74 60.332 0.173 7.22 1.4 7.49
5/29/2022 2:30:00 AM 15.71 60.278 0.173 7.22 1.35 7.49
5/29/2022 2:45:00 AM 15.68 60.224 0.173 7.23 1.48 7.53
5/29/2022 3:00:00 AM 15.66 60.188 0.173 7.23 1.3 7.48
5/29/2022 3:15:00 AM 15.61 60.098 0.173 7.22 1.34 7.51
5/29/2022 3:30:00 AM 15.55 59.99 0.173 7.23 1.54 7.5
5/29/2022 3:45:00 AM 15.5 59.9 0.173 7.23 1.65 7.54
5/29/2022 4:00:00 AM 15.47 59.846 0.173 7.23 1.42 7.54
5/29/2022 4:15:00 AM 15.42 59.756 0.173 7.23 1.42 7.54
5/29/2022 4:30:00 AM 15.39 59.702 0.173 7.22 1.54 7.56
5/29/2022 4:45:00 AM 15.36 59.648 0.173 7.23 1.36 7.58
5/29/2022 5:00:00 AM 15.33 59.594 0.173 7.23 1.31 7.57
5/29/2022 5:15:00 AM 15.3 59.54 0.173 7.23 1.44 7.58
5/29/2022 5:30:00 AM 15.25 59.45 0.173 7.23 1.42 7.57
5/29/2022 5:45:00 AM 15.22 59.396 0.173 7.23 1.41 7.58
5/29/2022 6:00:00 AM 15.19 59.342 0.173 7.23 1.44 7.59
5/29/2022 6:15:00 AM 15.16 59.288 0.173 7.23 1.47 7.63
5/29/2022 6:30:00 AM 15.14 59.252 0.173 7.23 1.42 7.7
5/29/2022 6:45:00 AM 15.12 59.216 0.173 7.24 1.49 7.69
5/29/2022 7:00:00 AM 15.12 59.216 0.173 7.25 1.38 7.84
5/29/2022 7:15:00 AM 15.13 59.234 0.173 7.26 1.59 7.88
5/29/2022 7:30:00 AM 15.15 59.27 0.173 7.27 1.48 7.96
5/29/2022 7:45:00 AM 15.18 59.324 0.173 7.27 1.62 8.05
5/29/2022 8:00:00 AM 15.23 59.414 0.173 7.28 1.72 8.16
5/29/2022 8:15:00 AM 15.26 59.468 0.173 7.29 1.56 8.18
5/29/2022 8:30:00 AM 15.31 59.558 0.173 7.3 1.79 8.25
5/29/2022 8:45:00 AM 15.39 59.702 0.173 7.31 1.5 8.38
5/29/2022 9:00:00 AM 15.45 59.81 0.173 7.32 1.52 8.43
5/29/2022 9:15:00 AM 15.52 59.936 0.173 7.32 1.41 8.46
5/29/2022 9:30:00 AM 15.64 60.152 0.173 7.34 1.57 8.57
5/29/2022 9:45:00 AM 15.81 60.458 0.173 7.34 1.51 8.64
5/29/2022 10:00:00 AM 16.04 60.872 0.173 7.35 1.47 8.65
5/29/2022 10:15:00 AM 16.33 61.394 0.173 7.35 1.45 8.66
5/29/2022 10:30:00 AM 16.63 61.934 0.173 7.35 1.38 8.65
5/29/2022 10:45:00 AM 16.91 62.438 0.173 7.35 1.39 8.63
5/29/2022 11:00:00 AM 17.37 63.266 0.173 7.35 1.3 8.65
5/29/2022 11:15:00 AM 17.75 63.95 0.173 7.36 1.44 8.64
5/29/2022 11:30:00 AM 18.14 64.652 0.174 7.36 1.33 8.62
5/29/2022 11:45:00 AM 18.44 65.192 0.174 7.36 1.4 8.6
5/29/2022 12:00:00 PM 18.77 65.786 0.174 7.36 1.3 8.58
5/29/2022 12:15:00 PM 19.02 66.236 0.174 7.36 1.39 8.52
5/29/2022 12:30:00 PM 19.19 66.542 0.174 7.37 1.26 8.45
5/29/2022 12:45:00 PM 19.26 66.668 0.174 7.36 1.38 8.42
5/29/2022 1:00:00 PM 19.58 67.244 0.174 7.36 1.43 8.42
5/29/2022 1:15:00 PM 19.74 67.532 0.174 7.36 1.33 8.35
5/29/2022 1:30:00 PM 19.89 67.802 0.175 7.36 1.39 8.36
5/29/2022 1:45:00 PM 20.21 68.378 0.175 7.37 1.38 8.36
5/29/2022 2:00:00 PM 20.4 68.72 0.175 7.36 1.45 8.31
5/29/2022 2:15:00 PM 20.57 69.026 0.175 7.36 1.29 8.3
5/29/2022 2:30:00 PM 20.82 69.476 0.175 7.36 1.29 8.27
5/29/2022 2:45:00 PM 20.93 69.674 0.175 7.36 1.27 8.25
5/29/2022 3:00:00 PM 20.99 69.782 0.175 7.36 1.31 8.22
5/29/2022 3:15:00 PM 21.04 69.872 0.175 7.35 1.68 8.16
5/29/2022 3:30:00 PM 21.04 69.872 0.175 7.35 1.65 8.12
5/29/2022 3:45:00 PM 21.04 69.872 0.175 7.35 1.91 8.01
5/29/2022 4:00:00 PM 21.1 69.98 0.174 7.36 2.29 8.05
5/29/2022 4:15:00 PM 21.14 70.052 0.173 7.36 2.51 8.01
5/29/2022 4:30:00 PM 21.19 70.142 0.173 7.37 2.29 8
5/29/2022 4:45:00 PM 21.21 70.17799 0.173 7.36 1.57 7.95
5/29/2022 5:00:00 PM 21.22 70.196 0.172 7.36 1.78 7.89
5/29/2022 5:15:00 PM 21.22 70.196 0.172 7.35 2.05 7.82
5/29/2022 5:30:00 PM 21.18 70.124 0.172 7.34 1.69 7.73
5/29/2022 5:45:00 PM 21.13 70.034 0.172 7.33 1.79 7.71
5/29/2022 6:00:00 PM 20.99 69.782 0.172 7.32 1.8 7.64
5/29/2022 6:15:00 PM 20.84 69.512 0.173 7.31 2.52 7.58
5/29/2022 6:30:00 PM 20.69 69.242 0.173 7.3 1.83 7.46
5/29/2022 6:45:00 PM 20.49 68.882 0.174 7.29 1.75 7.43
5/29/2022 7:00:00 PM 20.31 68.558 0.174 7.29 1.79 7.36
5/29/2022 7:15:00 PM 20.07 68.126 0.175 7.28 1.81 7.31
5/29/2022 7:30:00 PM 19.85 67.73 0.175 7.27 1.84 7.25
5/29/2022 7:45:00 PM 19.63 67.334 0.175 7.26 1.88 7.23
5/29/2022 8:00:00 PM 19.46 67.028 0.175 7.25 2.36 7.15
5/29/2022 8:15:00 PM 19.21 66.578 0.175 7.23 1.96 7.12
5/29/2022 8:30:00 PM 19.04 66.272 0.175 7.22 1.75 7.03
5/29/2022 8:45:00 PM 18.84 65.912 0.175 7.21 1.98 6.96
5/29/2022 9:00:00 PM 18.7 65.66 0.175 7.2 1.99 6.91
5/29/2022 9:15:00 PM 18.54 65.372 0.175 7.2 1.84 6.9
5/29/2022 9:30:00 PM 18.4 65.12 0.175 7.2 1.74 6.9
5/29/2022 9:45:00 PM 18.25 64.85 0.175 7.19 1.94 6.85
5/29/2022 10:00:00 PM 18.14 64.652 0.176 7.19 1.94 6.83
5/29/2022 10:15:00 PM 18.02 64.436 0.176 7.18 1.86 6.84
5/29/2022 10:30:00 PM 17.89 64.202 0.176 7.18 1.73 6.86
5/29/2022 10:45:00 PM 17.78 64.004 0.176 7.18 1.67 6.9
5/29/2022 11:00:00 PM 17.68 63.824 0.176 7.18 1.57 6.89
5/29/2022 11:15:00 PM 17.56 63.608 0.176 7.18 1.59 6.97
5/29/2022 11:30:00 PM 17.49 63.482 0.176 7.18 1.87 6.94
5/29/2022 11:45:00 PM 17.42 63.356 0.176 7.18 1.46 6.93
5/30/2022 12:00:00 AM 17.32 63.176 0.176 7.18 1.47 6.95
5/30/2022 12:15:00 AM 17.23 63.014 0.176 7.18 1.6 6.96
5/30/2022 12:30:00 AM 17.14 62.852 0.176 7.18 1.6 7.02
5/30/2022 12:45:00 AM 17.08 62.744 0.177 7.18 1.59 6.98
5/30/2022 1:00:00 AM 17 62.6 0.177 7.18 1.52 7
5/30/2022 1:15:00 AM 16.9 62.42 0.177 7.18 1.43 7.07
5/30/2022 1:30:00 AM 16.85 62.33 0.177 7.18 1.44 7
5/30/2022 1:45:00 AM 16.79 62.222 0.177 7.18 1.52 7
5/30/2022 2:00:00 AM 16.73 62.114 0.177 7.18 1.4 7.04
5/30/2022 2:15:00 AM 16.65 61.97 0.177 7.18 1.51 7.06
5/30/2022 2:30:00 AM 16.59 61.862 0.177 7.18 1.54 7.12
5/30/2022 2:45:00 AM 16.53 61.754 0.177 7.18 1.5 7.1
5/30/2022 3:00:00 AM 16.47 61.646 0.177 7.18 1.65 7.14
5/30/2022 3:15:00 AM 16.41 61.538 0.177 7.18 1.69 7.13
5/30/2022 3:30:00 AM 16.35 61.43 0.177 7.18 1.79 7.14
5/30/2022 3:45:00 AM 16.28 61.304 0.177 7.18 1.79 7.18
5/30/2022 4:00:00 AM 16.23 61.214 0.177 7.18 1.82 7.15
5/30/2022 4:15:00 AM 16.18 61.124 0.177 7.18 1.65 7.19
5/30/2022 4:30:00 AM 16.13 61.034 0.178 7.18 1.8 7.21
5/30/2022 4:45:00 AM 16.08 60.944 0.178 7.18 1.64 7.2
5/30/2022 5:00:00 AM 16.03 60.854 0.178 7.18 1.58 7.17
5/30/2022 5:15:00 AM 15.98 60.764 0.178 7.18 1.61 7.2
5/30/2022 5:30:00 AM 15.93 60.674 0.178 7.18 1.61 7.21
5/30/2022 5:45:00 AM 15.9 60.62 0.178 7.18 1.41 7.2
5/30/2022 6:00:00 AM 15.85 60.53 0.178 7.19 1.7 7.24
5/30/2022 6:15:00 AM 15.82 60.476 0.178 7.19 1.6 7.26
5/30/2022 6:30:00 AM 15.79 60.422 0.178 7.19 1.7 7.35
5/30/2022 6:45:00 AM 15.78 60.404 0.178 7.19 1.62 7.36
5/30/2022 7:00:00 AM 15.78 60.404 0.178 7.2 1.55 7.42
5/30/2022 7:15:00 AM 15.8 60.44 0.178 7.21 1.75 7.47
5/30/2022 7:30:00 AM 15.84 60.512 0.178 7.21 1.75 7.52
5/30/2022 7:45:00 AM 15.89 60.602 0.178 7.22 1.67 7.6
5/30/2022 8:00:00 AM 15.95 60.71 0.178 7.23 1.69 7.74
5/30/2022 8:15:00 AM 16.02 60.836 0.178 7.24 1.62 7.78
5/30/2022 8:30:00 AM 16.11 60.998 0.178 7.25 1.66 7.86
5/30/2022 8:45:00 AM 16.18 61.124 0.178 7.25 1.63 7.85
5/30/2022 9:00:00 AM 16.27 61.286 0.178 7.26 1.58 7.93
5/30/2022 9:15:00 AM 16.35 61.43 0.178 7.26 1.58 7.97
5/30/2022 9:30:00 AM 16.44 61.592 0.178 7.26 1.58 8.01
5/30/2022 9:45:00 AM 16.49 61.682 0.178 7.27 1.45 7.98
5/30/2022 10:00:00 AM 16.56 61.808 0.178 7.27 1.51 7.97
5/30/2022 10:15:00 AM 16.66 61.988 0.178 7.27 1.52 8.04
5/30/2022 10:30:00 AM 16.82 62.276 0.179 7.28 1.56 8.09
5/30/2022 10:45:00 AM 16.94 62.492 0.178 7.28 1.57 8.06
5/30/2022 11:00:00 AM 17.03 62.654 0.178 7.29 1.56 8.09
5/30/2022 11:15:00 AM 17.27 63.086 0.179 7.29 1.53 8.16
5/30/2022 11:30:00 AM 17.68 63.824 0.178 7.29 1.47 8.16
5/30/2022 11:45:00 AM 18.01 64.418 0.179 7.29 1.43 8.13
5/30/2022 12:00:00 PM 18.36 65.048 0.179 7.29 1.38 8.15
5/30/2022 12:15:00 PM 18.71 65.67799 0.179 7.29 1.42 8.14
5/30/2022 12:30:00 PM 19.16 66.488 0.179 7.3 1.46 8.14
5/30/2022 12:45:00 PM 19.54 67.172 0.179 7.29 1.54 8.09
5/30/2022 1:00:00 PM 19.92 67.856 0.18 7.29 1.53 8.04
5/30/2022 1:15:00 PM 20.28 68.504 0.18 7.29 1.49 7.99
5/30/2022 1:30:00 PM 20.59 69.062 0.18 7.29 1.35 7.96
5/30/2022 1:45:00 PM 20.91 69.638 0.18 7.3 1.42 7.95
5/30/2022 2:00:00 PM 21.15 70.07 0.18 7.29 1.43 7.91
5/30/2022 2:15:00 PM 21.36 70.448 0.18 7.29 1.79 7.92
5/30/2022 2:30:00 PM 21.59 70.862 0.181 7.29 1.53 7.82
5/30/2022 2:45:00 PM 21.77 71.186 0.181 7.29 1.44 7.82
5/30/2022 3:00:00 PM 21.9 71.42 0.181 7.28 1.31 7.76
5/30/2022 3:15:00 PM 22 71.6 0.181 7.28 1.47 7.73
5/30/2022 3:30:00 PM 22.1 71.78 0.181 7.28 1.48 7.7
5/30/2022 3:45:00 PM 22.19 71.942 0.181 7.27 1.55 7.63
5/30/2022 4:00:00 PM 22.25 72.05 0.181 7.27 1.63 7.55
5/30/2022 4:15:00 PM 22.26 72.068 0.182 7.27 1.43 7.55
5/30/2022 4:30:00 PM 22.29 72.122 0.181 7.27 1.36 7.49
5/30/2022 4:45:00 PM 22.25 72.05 0.181 7.26 1.54 7.43
5/30/2022 5:00:00 PM 22.19 71.942 0.181 7.26 1.43 7.37
5/30/2022 5:15:00 PM 22.11 71.798 0.181 7.25 1.37 7.32
5/30/2022 5:30:00 PM 22.03 71.654 0.181 7.25 1.29 7.25
5/30/2022 5:45:00 PM 21.91 71.438 0.181 7.24 1.54 7.23
5/30/2022 6:00:00 PM 21.76 71.168 0.182 7.24 1.61 7.18
5/30/2022 6:15:00 PM 21.64 70.952 0.182 7.23 1.33 7.09
5/30/2022 6:30:00 PM 21.46 70.628 0.182 7.22 1.45 7.01
5/30/2022 6:45:00 PM 21.28 70.304 0.182 7.22 1.49 6.96
5/30/2022 7:00:00 PM 21.06 69.908 0.182 7.21 1.44 6.9
5/30/2022 7:15:00 PM 20.88 69.584 0.182 7.2 1.6 6.88
5/30/2022 7:30:00 PM 20.69 69.242 0.182 7.2 1.49 6.75
5/30/2022 7:45:00 PM 20.48 68.864 0.182 7.19 1.6 6.72
5/30/2022 8:00:00 PM 20.31 68.558 0.182 7.18 1.59 6.65
5/30/2022 8:15:00 PM 20.16 68.288 0.182 7.18 1.85 6.59
5/30/2022 8:30:00 PM 19.97 67.946 0.182 7.17 1.65 6.5
5/30/2022 8:45:00 PM 19.81 67.658 0.182 7.16 1.71 6.53
5/30/2022 9:00:00 PM 19.71 67.478 0.182 7.15 2.19 6.43
5/30/2022 9:15:00 PM 19.59 67.262 0.182 7.14 1.61 6.41
5/30/2022 9:30:00 PM 19.46 67.028 0.183 7.14 1.53 6.3
5/30/2022 9:45:00 PM 19.34 66.812 0.183 7.14 1.69 6.35
5/30/2022 10:00:00 PM 19.25 66.65 0.183 7.13 1.77 6.32
5/30/2022 10:15:00 PM 19.13 66.434 0.183 7.13 1.42 6.34
5/30/2022 10:30:00 PM 19.05 66.29 0.183 7.13 1.51 6.27
5/30/2022 10:45:00 PM 18.95 66.11 0.183 7.13 1.63 6.38
5/30/2022 11:00:00 PM 18.85 65.93 0.183 7.13 1.58 6.41
5/30/2022 11:15:00 PM 18.8 65.84 0.183 7.13 1.65 6.38
5/30/2022 11:30:00 PM 18.68 65.624 0.183 7.13 1.44 6.41
5/30/2022 11:45:00 PM 18.63 65.534 0.183 7.13 1.93 6.39
5/31/2022 12:00:00 AM 18.55 65.39 0.183 7.13 1.49 6.38
5/31/2022 12:15:00 AM 18.49 65.282 0.183 7.13 1.42 6.39
5/31/2022 12:30:00 AM 18.4 65.12 0.183 7.13 1.51 6.47
5/31/2022 12:45:00 AM 18.37 65.066 0.184 7.12 1.75 6.35
5/31/2022 1:00:00 AM 18.3 64.94 0.184 7.12 1.6 6.41
5/31/2022 1:15:00 AM 18.23 64.814 0.184 7.13 1.49 6.46
5/31/2022 1:30:00 AM 18.19 64.742 0.184 7.13 1.37 6.42
5/31/2022 1:45:00 AM 18.13 64.634 0.184 7.13 1.44 6.41
5/31/2022 2:00:00 AM 18.08 64.544 0.184 7.12 1.53 6.42
5/31/2022 2:15:00 AM 18.02 64.436 0.184 7.13 1.39 6.44
5/31/2022 2:30:00 AM 17.96 64.328 0.184 7.13 1.44 6.48
5/31/2022 2:45:00 AM 17.92 64.256 0.184 7.13 1.71 6.51
5/31/2022 3:00:00 AM 17.87 64.166 0.184 7.13 1.51 6.45
5/31/2022 3:15:00 AM 17.81 64.058 0.184 7.13 1.62 6.41
5/31/2022 3:30:00 AM 17.77 63.986 0.184 7.13 1.44 6.44
5/31/2022 3:45:00 AM 17.71 63.878 0.184 7.13 1.38 6.54
5/31/2022 4:00:00 AM 17.67 63.806 0.184 7.13 1.44 6.54
5/31/2022 4:15:00 AM 17.62 63.716 0.184 7.13 1.62 6.49
5/31/2022 4:30:00 AM 17.57 63.626 0.184 7.13 1.36 6.61
5/31/2022 4:45:00 AM 17.51 63.518 0.184 7.13 1.25 6.59
5/31/2022 5:00:00 AM 17.47 63.446 0.185 7.13 1.36 6.65
5/31/2022 5:15:00 AM 17.42 63.356 0.185 7.14 1.47 6.69
5/31/2022 5:30:00 AM 17.38 63.284 0.185 7.14 1.29 6.68
5/31/2022 5:45:00 AM 17.34 63.212 0.185 7.14 1.52 6.64
5/31/2022 6:00:00 AM 17.29 63.122 0.185 7.14 1.39 6.72
5/31/2022 6:15:00 AM 17.25 63.05 0.185 7.14 1.48 6.74
5/31/2022 6:30:00 AM 17.22 62.996 0.185 7.15 1.4 6.76
5/31/2022 6:45:00 AM 17.21 62.978 0.185 7.15 1.28 6.79
5/31/2022 7:00:00 AM 17.2 62.96 0.185 7.15 1.77 6.79
5/31/2022 7:15:00 AM 17.21 62.978 0.185 7.16 1.37 6.93
5/31/2022 7:30:00 AM 17.24 63.032 0.185 7.16 1.36 6.9
5/31/2022 7:45:00 AM 17.3 63.14 0.185 7.17 1.8 6.99
5/31/2022 8:00:00 AM 17.38 63.284 0.185 7.17 1.28 7.06
5/31/2022 8:15:00 AM 17.47 63.446 0.185 7.18 1.37 7.13
5/31/2022 8:30:00 AM 17.58 63.644 0.185 7.18 1.37 7.17
5/31/2022 8:45:00 AM 17.71 63.878 0.185 7.19 1.24 7.19
5/31/2022 9:00:00 AM 17.87 64.166 0.185 7.19 1.35 7.2
5/31/2022 9:15:00 AM 18.04 64.472 0.185 7.2 1.58 7.29
5/31/2022 9:30:00 AM 18.25 64.85 0.185 7.2 1.28 7.28
5/31/2022 9:45:00 AM 18.48 65.264 0.185 7.21 1.44 7.39
5/31/2022 10:00:00 AM 18.75 65.75 0.185 7.21 1.26 7.36
5/31/2022 10:15:00 AM 19.01 66.218 0.185 7.22 1.34 7.37
5/31/2022 10:30:00 AM 19.31 66.758 0.185 7.22 1.45 7.41
5/31/2022 10:45:00 AM 19.64 67.352 0.185 7.22 1.23 7.4
5/31/2022 11:00:00 AM 19.92 67.856 0.185 7.23 1.16 7.42
5/31/2022 11:15:00 AM 20.25 68.45 0.186 7.23 1.42 7.4
5/31/2022 11:30:00 AM 20.51 68.918 0.186 7.23 1.39 7.37
5/31/2022 11:45:00 AM 20.67 69.206 0.186 7.23 1.37 7.36
5/31/2022 12:00:00 PM 20.86 69.548 0.186 7.24 1.28 7.35
5/31/2022 12:15:00 PM 21.1 69.98 0.186 7.23 1.48 7.32
5/31/2022 12:30:00 PM 21.2 70.16 0.187 7.24 1.18 7.28
5/31/2022 12:45:00 PM 21.32 70.376 0.187 7.23 1.41 7.26
5/31/2022 1:00:00 PM 21.41 70.538 0.187 7.23 1.32 7.27
5/31/2022 1:15:00 PM 21.63 70.934 0.187 7.24 1.29 7.26
5/31/2022 1:30:00 PM 21.78 71.204 0.187 7.23 1.4 7.26
5/31/2022 1:45:00 PM 21.79 71.222 0.187 7.23 1.16 7.22
5/31/2022 2:00:00 PM 21.84 71.312 0.188 7.23 1.32 7.23
5/31/2022 2:15:00 PM 22.07 71.726 0.188 7.23 1.21 7.23
5/31/2022 2:30:00 PM 22.13 71.834 0.188 7.22 1.47 7.13
5/31/2022 2:45:00 PM 22.18 71.924 0.188 7.22 1.23 7.13
5/31/2022 3:00:00 PM 22.37 72.266 0.188 7.22 1.58 7.14
5/31/2022 3:15:00 PM 22.43 72.374 0.188 7.22 2.31 7.12
5/31/2022 3:30:00 PM 22.43 72.374 0.188 7.21 3.34 7.01
5/31/2022 3:45:00 PM 22.43 72.374 0.188 7.21 2.66 7.03
5/31/2022 4:00:00 PM 22.46 72.42799 0.188 7.21 1.88 6.97
5/31/2022 4:15:00 PM 22.51 72.518 0.188 7.21 1.64 6.97
5/31/2022 4:30:00 PM 22.5 72.5 0.188 7.21 1.64 6.98
5/31/2022 4:45:00 PM 22.51 72.518 0.188 7.21 1.78 6.95
5/31/2022 5:00:00 PM 22.52 72.536 0.188 7.21 1.39 6.92
5/31/2022 5:15:00 PM 22.48 72.464 0.188 7.21 1.66 6.92
5/31/2022 5:30:00 PM 22.46 72.42799 0.188 7.21 1.47 6.9
5/31/2022 5:45:00 PM 22.38 72.284 0.188 7.2 1.28 6.84
5/31/2022 6:00:00 PM 22.29 72.122 0.188 7.2 1.38 6.78
5/31/2022 6:15:00 PM 22.18 71.924 0.188 7.19 1.59 6.71
5/31/2022 6:30:00 PM 22.05 71.69 0.188 7.18 1.43 6.63
5/31/2022 6:45:00 PM 21.88 71.384 0.188 7.18 1.73 6.58
5/31/2022 7:00:00 PM 21.67 71.006 0.188 7.17 1.48 6.52
5/31/2022 7:15:00 PM 21.5 70.7 0.189 7.17 1.94 6.5
5/31/2022 7:30:00 PM 21.31 70.358 0.189 7.16 1.54 6.43
5/31/2022 7:45:00 PM 21.08 69.944 0.189 7.15 1.66 6.36
5/31/2022 8:00:00 PM 20.9 69.62 0.189 7.15 1.41 6.37
5/31/2022 8:15:00 PM 20.76 69.368 0.189 7.14 1.6 6.28
5/31/2022 8:30:00 PM 20.61 69.098 0.189 7.13 1.42 6.23
5/31/2022 8:45:00 PM 20.46 68.828 0.189 7.13 1.82 6.2
5/31/2022 9:00:00 PM 20.33 68.594 0.189 7.12 2.05 6.14
5/31/2022 9:15:00 PM 20.18 68.324 0.189 7.12 1.52 6.14
5/31/2022 9:30:00 PM 20.08 68.144 0.189 7.11 1.79 6.12
5/31/2022 9:45:00 PM 19.97 67.946 0.189 7.11 1.42 6.07
5/31/2022 10:00:00 PM 19.85 67.73 0.189 7.11 1.54 6.02
5/31/2022 10:15:00 PM 19.8 67.64 0.189 7.11 1.6 6.05
5/31/2022 10:30:00 PM 19.7 67.46 0.189 7.11 1.42 6.07
5/31/2022 10:45:00 PM 19.62 67.316 0.189 7.11 1.54 6
5/31/2022 11:00:00 PM 19.55 67.19 0.189 7.1 1.58 6.07
5/31/2022 11:15:00 PM 19.52 67.136 0.189 7.1 1.4 5.99
5/31/2022 11:30:00 PM 19.47 67.046 0.189 7.11 1.42 6.01
5/31/2022 11:45:00 PM 19.39 66.902 0.189 7.11 1.21 6.11
6/1/2022 12:00:00 AM 19.33 66.794 0.189 7.11 1.61 6.02
6/1/2022 12:15:00 AM 19.27 66.686 0.189 7.11 1.29 6.05
6/1/2022 12:30:00 AM 19.17 66.506 0.189 7.11 1.6 6.15
6/1/2022 12:45:00 AM 19.13 66.434 0.189 7.11 1.2 6.07
6/1/2022 1:00:00 AM 19.03 66.254 0.189 7.11 1.46 6.05
6/1/2022 1:15:00 AM 18.97 66.146 0.189 7.11 1.3 6.13
6/1/2022 1:30:00 AM 18.89 66.002 0.19 7.11 1.14 6.14
6/1/2022 1:45:00 AM 18.83 65.894 0.19 7.11 1.34 6.18
6/1/2022 2:00:00 AM 18.78 65.804 0.19 7.11 1.26 6.1
6/1/2022 2:15:00 AM 18.72 65.696 0.19 7.11 1.16 6.2
6/1/2022 2:30:00 AM 18.68 65.624 0.19 7.11 1.78 6.17
6/1/2022 2:45:00 AM 18.63 65.534 0.19 7.11 1.32 6.17
6/1/2022 3:00:00 AM 18.59 65.462 0.19 7.11 1.17 6.22
6/1/2022 3:15:00 AM 18.55 65.39 0.19 7.11 1.3 6.23
6/1/2022 3:30:00 AM 18.5 65.3 0.19 7.12 1.25 6.3
6/1/2022 3:45:00 AM 18.47 65.246 0.19 7.12 1.35 6.26
6/1/2022 4:00:00 AM 18.43 65.174 0.19 7.12 1.3 6.27
6/1/2022 4:15:00 AM 18.39 65.102 0.19 7.12 1.27 6.3
6/1/2022 4:30:00 AM 18.35 65.03 0.19 7.12 1.29 6.28
6/1/2022 4:45:00 AM 18.31 64.958 0.19 7.12 1.32 6.31
6/1/2022 5:00:00 AM 18.27 64.886 0.19 7.12 1.3 6.35
6/1/2022 5:15:00 AM 18.24 64.832 0.19 7.12 1.54 6.33
6/1/2022 5:30:00 AM 18.19 64.742 0.19 7.12 1.43 6.36
6/1/2022 5:45:00 AM 18.17 64.706 0.19 7.12 1.28 6.31
6/1/2022 6:00:00 AM 18.13 64.634 0.19 7.12 1.33 6.3
6/1/2022 6:15:00 AM 18.1 64.58 0.19 7.12 1.41 6.31
6/1/2022 6:30:00 AM 18.09 64.562 0.19 7.12 1.39 6.4
6/1/2022 6:45:00 AM 18.07 64.526 0.19 7.13 1.51 6.48
6/1/2022 7:00:00 AM 18.08 64.544 0.19 7.13 1.4 6.49
6/1/2022 7:15:00 AM 18.09 64.562 0.19 7.14 1.44 6.48
6/1/2022 7:30:00 AM 18.12 64.616 0.19 7.14 1.5 6.55
6/1/2022 7:45:00 AM 18.14 64.652 0.19 7.14 1.45 6.54
6/1/2022 8:00:00 AM 18.18 64.724 0.19 7.15 1.26 6.65
6/1/2022 8:15:00 AM 18.24 64.832 0.19 7.16 1.35 6.71
6/1/2022 8:30:00 AM 18.31 64.958 0.19 7.16 1.3 6.67
6/1/2022 8:45:00 AM 18.43 65.174 0.19 7.17 1.35 6.84
6/1/2022 9:00:00 AM 18.55 65.39 0.19 7.17 1.27 6.86
6/1/2022 9:15:00 AM 18.6 65.48 0.19 7.17 1.46 6.81
6/1/2022 9:30:00 AM 18.66 65.588 0.19 7.17 1.52 6.88
6/1/2022 9:45:00 AM 18.84 65.912 0.19 7.18 1.3 6.96
6/1/2022 10:00:00 AM 19.02 66.236 0.191 7.18 1.35 7
6/1/2022 10:15:00 AM 19.26 66.668 0.19 7.19 1.24 7.01
6/1/2022 10:30:00 AM 19.54 67.172 0.191 7.19 1.43 7.04
6/1/2022 10:45:00 AM 19.8 67.64 0.191 7.19 1.36 7.07
6/1/2022 11:00:00 AM 20.08 68.144 0.191 7.2 1.16 7.08
6/1/2022 11:15:00 AM 20.36 68.648 0.191 7.2 1.15 7.05
6/1/2022 11:30:00 AM 20.65 69.17 0.191 7.2 1.42 7.11
6/1/2022 11:45:00 AM 20.99 69.782 0.191 7.21 1.36 7.09
6/1/2022 12:00:00 PM 21.33 70.394 0.191 7.21 1.64 7.08
6/1/2022 12:15:00 PM 21.58 70.844 0.191 7.21 1.26 7.08
6/1/2022 12:30:00 PM 21.76 71.168 0.191 7.22 1.31 7.07
6/1/2022 12:45:00 PM 21.92 71.456 0.191 7.21 1.38 7.07
6/1/2022 1:00:00 PM 22.09 71.762 0.192 7.21 1.33 7
6/1/2022 1:15:00 PM 22.2 71.96 0.192 7.22 1.31 7.01
6/1/2022 1:30:00 PM 22.25 72.05 0.192 7.21 1.25 6.99
6/1/2022 1:45:00 PM 22.33 72.194 0.192 7.21 1.46 6.94
6/1/2022 2:00:00 PM 22.44 72.392 0.192 7.21 1.29 7
6/1/2022 2:15:00 PM 22.49 72.482 0.193 7.2 1.17 6.96
6/1/2022 2:30:00 PM 22.45 72.41 0.193 7.19 1.38 6.83
6/1/2022 2:45:00 PM 22.31 72.158 0.193 7.19 1.1 6.71
6/1/2022 3:00:00 PM 22.16 71.888 0.193 7.18 1.54 6.62
6/1/2022 3:15:00 PM 22.02 71.636 0.193 7.18 1.47 6.61
6/1/2022 3:30:00 PM 21.95 71.51 0.193 7.17 2.05 6.52
6/1/2022 3:45:00 PM 21.82 71.276 0.192 7.17 1.95 6.47
6/1/2022 4:00:00 PM 21.64 70.952 0.192 7.18 1.73 6.51
6/1/2022 4:15:00 PM 21.54 70.772 0.191 7.17 1.5 6.51
6/1/2022 4:30:00 PM 21.5 70.7 0.191 7.18 1.54 6.48
6/1/2022 4:45:00 PM 21.45 70.61 0.19 7.18 1.69 6.55
6/1/2022 5:00:00 PM 21.39 70.502 0.19 7.18 1.78 6.58
6/1/2022 5:15:00 PM 21.3 70.34 0.19 7.19 1.5 6.59
6/1/2022 5:30:00 PM 21.25 70.25 0.19 7.19 1.44 6.69
6/1/2022 5:45:00 PM 21.21 70.17799 0.19 7.19 1.61 6.64
6/1/2022 6:00:00 PM 21.13 70.034 0.189 7.19 1.61 6.65
6/1/2022 6:15:00 PM 21.03 69.854 0.19 7.18 1.53 6.61
6/1/2022 6:30:00 PM 20.93 69.674 0.19 7.18 1.44 6.56
6/1/2022 6:45:00 PM 20.81 69.458 0.19 7.17 1.66 6.51
6/1/2022 7:00:00 PM 20.69 69.242 0.19 7.16 1.99 6.43
6/1/2022 7:15:00 PM 20.56 69.008 0.19 7.16 1.31 6.4
6/1/2022 7:30:00 PM 20.42 68.756 0.189 7.15 1.77 6.36
6/1/2022 7:45:00 PM 20.32 68.576 0.189 7.15 1.8 6.3
6/1/2022 8:00:00 PM 20.23 68.414 0.189 7.15 1.69 6.24
6/1/2022 8:15:00 PM 20.12 68.216 0.189 7.14 1.49 6.22
6/1/2022 8:30:00 PM 20.04 68.07201 0.189 7.14 1.47 6.18
6/1/2022 8:45:00 PM 19.97 67.946 0.189 7.14 1.61 6.15
6/1/2022 9:00:00 PM 19.87 67.766 0.19 7.13 1.65 6.14
6/1/2022 9:15:00 PM 19.8 67.64 0.19 7.13 1.66 6.08
6/1/2022 9:30:00 PM 19.72 67.496 0.19 7.13 1.55 6.11
6/1/2022 9:45:00 PM 19.64 67.352 0.19 7.13 1.57 6.12
6/1/2022 10:00:00 PM 19.56 67.208 0.19 7.13 1.46 6.14
6/1/2022 10:15:00 PM 19.49 67.082 0.19 7.13 1.56 6.1
6/1/2022 10:30:00 PM 19.41 66.938 0.19 7.13 1.79 6.17
6/1/2022 10:45:00 PM 19.32 66.776 0.19 7.13 1.39 6.19
6/1/2022 11:00:00 PM 19.27 66.686 0.19 7.13 1.71 6.28
6/1/2022 11:15:00 PM 19.23 66.614 0.19 7.13 1.41 6.22
6/1/2022 11:30:00 PM 19.16 66.488 0.19 7.14 1.4 6.26
6/1/2022 11:45:00 PM 19.14 66.452 0.19 7.14 1.34 6.18
6/2/2022 12:00:00 AM 19.1 66.38 0.19 7.14 1.34 6.28
6/2/2022 12:15:00 AM 19.06 66.308 0.19 7.14 1.47 6.25
6/2/2022 12:30:00 AM 19.02 66.236 0.19 7.14 1.38 6.31
6/2/2022 12:45:00 AM 19 66.2 0.19 7.14 1.52 6.26
6/2/2022 1:00:00 AM 18.95 66.11 0.19 7.14 1.49 6.37
6/2/2022 1:15:00 AM 18.92 66.056 0.19 7.14 1.52 6.28
6/2/2022 1:30:00 AM 18.89 66.002 0.19 7.14 1.5 6.3
6/2/2022 1:45:00 AM 18.86 65.948 0.19 7.14 1.39 6.3
6/2/2022 2:00:00 AM 18.81 65.858 0.19 7.14 1.4 6.32
6/2/2022 2:15:00 AM 18.79 65.82201 0.19 7.14 1.58 6.34
6/2/2022 2:30:00 AM 18.77 65.786 0.19 7.14 1.61 6.33
6/2/2022 2:45:00 AM 18.74 65.732 0.19 7.14 1.59 6.32
6/2/2022 3:00:00 AM 18.72 65.696 0.19 7.14 1.61 6.34
6/2/2022 3:15:00 AM 18.7 65.66 0.19 7.14 1.25 6.32
6/2/2022 3:30:00 AM 18.69 65.642 0.19 7.14 1.29 6.25
6/2/2022 3:45:00 AM 18.67 65.606 0.19 7.14 1.35 6.31
6/2/2022 4:00:00 AM 18.65 65.57 0.191 7.14 1.4 6.4
6/2/2022 4:15:00 AM 18.64 65.552 0.191 7.14 1.22 6.32
6/2/2022 4:30:00 AM 18.62 65.516 0.191 7.14 1.53 6.4
6/2/2022 4:45:00 AM 18.6 65.48 0.191 7.14 1.37 6.38
6/2/2022 5:00:00 AM 18.59 65.462 0.191 7.14 1.36 6.4
6/2/2022 5:15:00 AM 18.58 65.444 0.191 7.14 1.47 6.42
6/2/2022 5:30:00 AM 18.57 65.426 0.191 7.15 1.43 6.44
6/2/2022 5:45:00 AM 18.57 65.426 0.19 7.15 1.43 6.45
6/2/2022 6:00:00 AM 18.57 65.426 0.19 7.17 1.58 6.52
6/2/2022 6:15:00 AM 18.57 65.426 0.189 7.18 1.68 6.58
6/2/2022 6:30:00 AM 18.57 65.426 0.189 7.2 1.82 6.68
6/2/2022 6:45:00 AM 18.57 65.426 0.188 7.2 1.89 6.77
6/2/2022 7:00:00 AM 18.58 65.444 0.188 7.22 2.12 6.8
6/2/2022 7:15:00 AM 18.58 65.444 0.187 7.22 1.98 6.87
6/2/2022 7:30:00 AM 18.59 65.462 0.187 7.23 2.08 6.92
6/2/2022 7:45:00 AM 18.59 65.462 0.186 7.23 1.88 6.97
6/2/2022 8:00:00 AM 18.59 65.462 0.186 7.24 1.86 6.97
6/2/2022 8:15:00 AM 18.61 65.498 0.185 7.24 1.85 7.06
6/2/2022 8:30:00 AM 18.65 65.57 0.185 7.25 1.68 7.11
6/2/2022 8:45:00 AM 18.7 65.66 0.184 7.26 2.14 7.16
6/2/2022 9:00:00 AM 18.79 65.82201 0.184 7.27 1.92 7.27
6/2/2022 9:15:00 AM 18.87 65.966 0.184 7.27 1.85 7.32
6/2/2022 9:30:00 AM 18.95 66.11 0.183 7.28 1.89 7.39
6/2/2022 9:45:00 AM 19.09 66.362 0.183 7.29 2.08 7.49
6/2/2022 10:00:00 AM 19.23 66.614 0.183 7.29 1.85 7.51
6/2/2022 10:15:00 AM 19.37 66.866 0.182 7.29 1.94 7.5
6/2/2022 10:30:00 AM 19.52 67.136 0.182 7.3 1.8 7.55
6/2/2022 10:45:00 AM 19.62 67.316 0.182 7.3 1.96 7.54
6/2/2022 11:00:00 AM 19.72 67.496 0.182 7.3 1.93 7.54
6/2/2022 11:15:00 AM 19.84 67.712 0.182 7.3 2.06 7.56
6/2/2022 11:30:00 AM 19.94 67.892 0.182 7.3 2.46 7.55
6/2/2022 11:45:00 AM 20.02 68.036 0.182 7.3 2.49 7.5
6/2/2022 12:00:00 PM 20.09 68.162 0.182 7.3 2.88 7.54
6/2/2022 12:15:00 PM 20.13 68.234 0.182 7.29 2.97 7.53
6/2/2022 12:30:00 PM 20.16 68.288 0.182 7.29 2.5 7.48
6/2/2022 12:45:00 PM 20.2 68.36 0.182 7.3 2.33 7.51
6/2/2022 1:00:00 PM 20.28 68.504 0.182 7.29 2.1 7.51
6/2/2022 1:15:00 PM 20.38 68.684 0.182 7.3 1.93 7.53
6/2/2022 1:30:00 PM 20.49 68.882 0.182 7.3 1.88 7.54
6/2/2022 1:45:00 PM 20.55 68.99 0.182 7.3 1.89 7.52
6/2/2022 2:00:00 PM 20.72 69.296 0.182 7.3 1.88 7.51
6/2/2022 2:15:00 PM 20.87 69.566 0.182 7.3 1.8 7.52
6/2/2022 2:30:00 PM 20.99 69.782 0.181 7.3 1.85 7.51
6/2/2022 2:45:00 PM 21.07 69.926 0.182 7.29 1.61 7.47
6/2/2022 3:00:00 PM 21.09 69.962 0.182 7.29 2.01 7.44
6/2/2022 3:15:00 PM 21.12 70.016 0.182 7.29 1.88 7.42
6/2/2022 3:30:00 PM 21.2 70.16 0.182 7.29 1.68 7.44
6/2/2022 3:45:00 PM 21.29 70.32201 0.182 7.28 1.63 7.41
6/2/2022 4:00:00 PM 21.32 70.376 0.182 7.28 1.82 7.36
6/2/2022 4:15:00 PM 21.39 70.502 0.182 7.28 1.75 7.39
6/2/2022 4:30:00 PM 21.48 70.664 0.182 7.28 1.91 7.38
6/2/2022 4:45:00 PM 21.58 70.844 0.182 7.28 1.78 7.35
6/2/2022 5:00:00 PM 21.64 70.952 0.182 7.27 1.73 7.33
6/2/2022 5:15:00 PM 21.67 71.006 0.182 7.27 1.59 7.3
6/2/2022 5:30:00 PM 21.69 71.042 0.182 7.27 1.99 7.28
6/2/2022 5:45:00 PM 21.64 70.952 0.182 7.27 1.81 7.23
6/2/2022 6:00:00 PM 21.55 70.79 0.182 7.26 1.86 7.13
6/2/2022 6:15:00 PM 21.46 70.628 0.182 7.26 1.67 7.1
6/2/2022 6:30:00 PM 21.33 70.394 0.182 7.25 1.79 7.08
6/2/2022 6:45:00 PM 21.19 70.142 0.182 7.25 1.79 7.01
6/2/2022 7:00:00 PM 21.03 69.854 0.182 7.24 1.45 6.99
6/2/2022 7:15:00 PM 20.88 69.584 0.182 7.23 1.67 6.95
6/2/2022 7:30:00 PM 20.73 69.314 0.182 7.23 1.86 6.93
6/2/2022 7:45:00 PM 20.58 69.044 0.182 7.22 1.8 6.9
6/2/2022 8:00:00 PM 20.45 68.81 0.182 7.21 1.75 6.84
6/2/2022 8:15:00 PM 20.29 68.522 0.182 7.21 1.86 6.81
6/2/2022 8:30:00 PM 20.17 68.306 0.182 7.2 1.55 6.76
6/2/2022 8:45:00 PM 20.02 68.036 0.182 7.2 1.79 6.76
6/2/2022 9:00:00 PM 19.92 67.856 0.182 7.19 1.67 6.71
6/2/2022 9:15:00 PM 19.79 67.622 0.182 7.19 1.81 6.64
6/2/2022 9:30:00 PM 19.66 67.388 0.182 7.18 1.81 6.63
6/2/2022 9:45:00 PM 19.56 67.208 0.182 7.18 1.89 6.62
6/2/2022 10:00:00 PM 19.43 66.974 0.182 7.18 1.88 6.68
6/2/2022 10:15:00 PM 19.35 66.83 0.182 7.18 1.8 6.66
6/2/2022 10:30:00 PM 19.28 66.704 0.182 7.17 1.53 6.64
6/2/2022 10:45:00 PM 19.21 66.578 0.182 7.18 1.61 6.66
6/2/2022 11:00:00 PM 19.14 66.452 0.182 7.17 1.68 6.65
6/2/2022 11:15:00 PM 19.1 66.38 0.182 7.17 1.7 6.64
6/2/2022 11:30:00 PM 19.03 66.254 0.183 7.17 1.53 6.66
6/2/2022 11:45:00 PM 18.98 66.164 0.183 7.17 1.52 6.64
6/3/2022 12:00:00 AM 18.92 66.056 0.183 7.17 1.45 6.68
6/3/2022 12:15:00 AM 18.87 65.966 0.183 7.17 1.45 6.7
6/3/2022 12:30:00 AM 18.83 65.894 0.183 7.17 1.52 6.66
6/3/2022 12:45:00 AM 18.79 65.82201 0.183 7.17 1.44 6.67
6/3/2022 1:00:00 AM 18.75 65.75 0.183 7.17 1.53 6.63
6/3/2022 1:15:00 AM 18.7 65.66 0.183 7.17 1.62 6.69
6/3/2022 1:30:00 AM 18.66 65.588 0.183 7.17 1.48 6.71
6/3/2022 1:45:00 AM 18.62 65.516 0.183 7.17 1.63 6.73
6/3/2022 2:00:00 AM 18.58 65.444 0.183 7.17 1.65 6.69
6/3/2022 2:15:00 AM 18.54 65.372 0.183 7.17 1.59 6.7
6/3/2022 2:30:00 AM 18.49 65.282 0.183 7.17 1.61 6.7
6/3/2022 2:45:00 AM 18.45 65.21 0.183 7.16 1.73 6.68
6/3/2022 3:00:00 AM 18.4 65.12 0.183 7.17 1.62 6.74
6/3/2022 3:15:00 AM 18.37 65.066 0.183 7.17 1.49 6.75
6/3/2022 3:30:00 AM 18.33 64.994 0.183 7.17 1.44 6.73
6/3/2022 3:45:00 AM 18.3 64.94 0.183 7.17 1.3 6.74
6/3/2022 4:00:00 AM 18.26 64.868 0.183 7.17 1.49 6.74
6/3/2022 4:15:00 AM 18.23 64.814 0.183 7.17 1.63 6.76
6/3/2022 4:30:00 AM 18.19 64.742 0.183 7.17 1.54 6.8
6/3/2022 4:45:00 AM 18.16 64.688 0.183 7.18 1.44 6.79
6/3/2022 5:00:00 AM 18.13 64.634 0.183 7.18 2.06 6.83
6/3/2022 5:15:00 AM 18.1 64.58 0.183 7.18 1.93 6.85
6/3/2022 5:30:00 AM 18.05 64.49 0.183 7.18 1.94 6.84
6/3/2022 5:45:00 AM 17.99 64.382 0.183 7.18 1.72 6.91
6/3/2022 6:00:00 AM 17.94 64.292 0.183 7.18 1.8 6.91
6/3/2022 6:15:00 AM 17.89 64.202 0.183 7.18 1.54 6.86
6/3/2022 6:30:00 AM 17.82 64.076 0.183 7.18 1.74 6.93
6/3/2022 6:45:00 AM 17.79 64.022 0.183 7.19 1.63 6.93
6/3/2022 7:00:00 AM 17.74 63.932 0.183 7.19 1.54 6.95
6/3/2022 7:15:00 AM 17.72 63.896 0.183 7.19 1.69 7.02
6/3/2022 7:30:00 AM 17.71 63.878 0.183 7.2 1.59 7.07
6/3/2022 7:45:00 AM 17.71 63.878 0.183 7.21 1.49 7.11
6/3/2022 8:00:00 AM 17.73 63.914 0.184 7.21 1.69 7.18
6/3/2022 8:15:00 AM 17.79 64.022 0.184 7.22 1.59 7.22
6/3/2022 8:30:00 AM 17.84 64.112 0.184 7.22 1.81 7.26
6/3/2022 8:45:00 AM 17.92 64.256 0.184 7.23 1.37 7.32
6/3/2022 9:00:00 AM 18.03 64.454 0.184 7.23 1.55 7.34
6/3/2022 9:15:00 AM 18.13 64.634 0.184 7.23 1.63 7.36
6/3/2022 9:30:00 AM 18.29 64.922 0.184 7.23 1.39 7.39
6/3/2022 9:45:00 AM 18.44 65.192 0.184 7.24 1.4 7.43
6/3/2022 10:00:00 AM 18.66 65.588 0.184 7.24 1.47 7.47
6/3/2022 10:15:00 AM 18.89 66.002 0.184 7.25 1.47 7.46
6/3/2022 10:30:00 AM 19.13 66.434 0.185 7.25 1.47 7.48
6/3/2022 10:45:00 AM 19.41 66.938 0.185 7.25 1.28 7.48
6/3/2022 11:00:00 AM 19.65 67.37 0.185 7.25 1.48 7.47
6/3/2022 11:15:00 AM 19.89 67.802 0.185 7.25 1.36 7.48
6/3/2022 11:30:00 AM 20.13 68.234 0.185 7.25 1.49 7.43
6/3/2022 11:45:00 AM 20.4 68.72 0.185 7.25 1.46 7.43
6/3/2022 12:00:00 PM 20.66 69.188 0.185 7.25 1.28 7.44
6/3/2022 12:15:00 PM 20.88 69.584 0.186 7.25 1.37 7.41
6/3/2022 12:30:00 PM 21.16 70.088 0.186 7.25 1.92 7.4
6/3/2022 12:45:00 PM 21.29 70.32201 0.186 7.25 1.36 7.39
6/3/2022 1:00:00 PM 21.39 70.502 0.186 7.25 1.21 7.38
6/3/2022 1:15:00 PM 21.48 70.664 0.186 7.25 1.34 7.31
6/3/2022 1:30:00 PM 21.57 70.826 0.187 7.25 1.3 7.32
6/3/2022 1:45:00 PM 21.68 71.024 0.187 7.25 1.27 7.3
6/3/2022 2:00:00 PM 21.78 71.204 0.187 7.25 1.36 7.28
6/3/2022 2:15:00 PM 21.85 71.33 0.187 7.25 1.32 7.3
6/3/2022 2:30:00 PM 21.89 71.402 0.187 7.24 1.19 7.26
6/3/2022 2:45:00 PM 21.92 71.456 0.187 7.24 1.07 7.27
6/3/2022 3:00:00 PM 22.01 71.618 0.188 7.25 1.54 7.27
6/3/2022 3:15:00 PM 22.09 71.762 0.187 7.24 1.32 7.26
6/3/2022 3:30:00 PM 22.07 71.726 0.187 7.24 1.07 7.22
6/3/2022 3:45:00 PM 21.95 71.51 0.187 7.24 1.14 7.11
6/3/2022 4:00:00 PM 21.95 71.51 0.187 7.24 1.36 7.11
6/3/2022 4:15:00 PM 21.95 71.51 0.187 7.24 1.25 7.13
6/3/2022 4:30:00 PM 21.97 71.546 0.187 7.23 1.18 7.1
6/3/2022 4:45:00 PM 21.94 71.492 0.187 7.23 1.31 7.08
6/3/2022 5:00:00 PM 21.83 71.294 0.187 7.23 1.27 7.04
6/3/2022 5:15:00 PM 21.67 71.006 0.188 7.23 1.18 6.98
6/3/2022 5:30:00 PM 21.61 70.898 0.187 7.22 1.39 7.01
6/3/2022 5:45:00 PM 21.52 70.736 0.187 7.22 1.24 7.03
6/3/2022 6:00:00 PM 21.44 70.592 0.187 7.22 1.36 7.05
6/3/2022 6:15:00 PM 21.32 70.376 0.188 7.22 1.39 6.91
6/3/2022 6:30:00 PM 21.15 70.07 0.188 7.21 1.37 6.9
6/3/2022 6:45:00 PM 21 69.8 0.188 7.21 1.43 6.9
6/3/2022 7:00:00 PM 20.83 69.494 0.188 7.21 1.42 6.9
6/3/2022 7:15:00 PM 20.63 69.134 0.188 7.2 1.85 6.86
6/3/2022 7:30:00 PM 20.46 68.828 0.188 7.2 1.59 6.81
6/3/2022 7:45:00 PM 20.27 68.486 0.188 7.19 1.42 6.77
6/3/2022 8:00:00 PM 20.05 68.09 0.188 7.19 1.47 6.78
6/3/2022 8:15:00 PM 19.93 67.874 0.188 7.18 1.47 6.71
6/3/2022 8:30:00 PM 19.72 67.496 0.188 7.17 1.43 6.63
6/3/2022 8:45:00 PM 19.54 67.172 0.188 7.17 1.78 6.62
6/3/2022 9:00:00 PM 19.37 66.866 0.188 7.16 1.37 6.6
6/3/2022 9:15:00 PM 19.19 66.542 0.188 7.16 1.32 6.57
6/3/2022 9:30:00 PM 19.1 66.38 0.189 7.15 1.48 6.53
6/3/2022 9:45:00 PM 19 66.2 0.189 7.15 1.41 6.48
6/3/2022 10:00:00 PM 18.84 65.912 0.189 7.15 1.41 6.53
6/3/2022 10:15:00 PM 18.76 65.768 0.189 7.14 1.42 6.5
6/3/2022 10:30:00 PM 18.64 65.552 0.189 7.15 1.34 6.51
6/3/2022 10:45:00 PM 18.51 65.318 0.189 7.14 1.51 6.57
6/3/2022 11:00:00 PM 18.4 65.12 0.189 7.15 1.48 6.6
6/3/2022 11:15:00 PM 18.33 64.994 0.189 7.14 1.59 6.49
6/3/2022 11:30:00 PM 18.22 64.796 0.189 7.15 1.59 6.54
6/3/2022 11:45:00 PM 18.15 64.67 0.189 7.15 1.34 6.58
6/4/2022 12:00:00 AM 18.07 64.526 0.189 7.15 1.3 6.5
6/4/2022 12:15:00 AM 18 64.4 0.189 7.14 1.28 6.52
6/4/2022 12:30:00 AM 17.9 64.22 0.189 7.15 1.5 6.63
6/4/2022 12:45:00 AM 17.83 64.094 0.189 7.15 1.73 6.62
6/4/2022 1:00:00 AM 17.76 63.968 0.189 7.15 1.64 6.6
6/4/2022 1:15:00 AM 17.69 63.842 0.189 7.15 1.43 6.61
6/4/2022 1:30:00 AM 17.59 63.662 0.19 7.15 1.42 6.72
6/4/2022 1:45:00 AM 17.56 63.608 0.19 7.15 1.58 6.63
6/4/2022 2:00:00 AM 17.49 63.482 0.19 7.15 1.42 6.67
6/4/2022 2:15:00 AM 17.41 63.338 0.19 7.15 1.33 6.78
6/4/2022 2:30:00 AM 17.36 63.248 0.19 7.15 1.4 6.7
6/4/2022 2:45:00 AM 17.3 63.14 0.19 7.15 1.37 6.76
6/4/2022 3:00:00 AM 17.26 63.068 0.19 7.15 1.38 6.67
6/4/2022 3:15:00 AM 17.21 62.978 0.19 7.15 1.49 6.72
6/4/2022 3:30:00 AM 17.14 62.852 0.19 7.16 1.5 6.78
6/4/2022 3:45:00 AM 17.09 62.762 0.19 7.16 1.35 6.78
6/4/2022 4:00:00 AM 17.05 62.69 0.19 7.16 1.49 6.73
6/4/2022 4:15:00 AM 17 62.6 0.19 7.16 1.41 6.81
6/4/2022 4:30:00 AM 16.94 62.492 0.19 7.16 1.44 6.81
6/4/2022 4:45:00 AM 16.89 62.402 0.19 7.16 1.48 6.83
6/4/2022 5:00:00 AM 16.84 62.312 0.19 7.16 1.35 6.82
6/4/2022 5:15:00 AM 16.79 62.222 0.19 7.16 1.45 6.85
6/4/2022 5:30:00 AM 16.75 62.15 0.19 7.16 1.34 6.86
6/4/2022 5:45:00 AM 16.68 62.024 0.19 7.16 1.25 6.89
6/4/2022 6:00:00 AM 16.65 61.97 0.19 7.16 1.35 6.87
6/4/2022 6:15:00 AM 16.61 61.898 0.19 7.16 1.36 6.91
6/4/2022 6:30:00 AM 16.59 61.862 0.191 7.17 1.28 6.98
6/4/2022 6:45:00 AM 16.57 61.826 0.191 7.17 1.32 6.96
6/4/2022 7:00:00 AM 16.57 61.826 0.191 7.17 1.34 7.04
6/4/2022 7:15:00 AM 16.57 61.826 0.191 7.17 1.44 6.99
6/4/2022 7:30:00 AM 16.6 61.88 0.191 7.18 1.31 7.11
6/4/2022 7:45:00 AM 16.64 61.952 0.191 7.18 1.35 7.18
6/4/2022 8:00:00 AM 16.69 62.042 0.191 7.18 1.28 7.18
6/4/2022 8:15:00 AM 16.76 62.168 0.191 7.19 1.29 7.26
6/4/2022 8:30:00 AM 16.85 62.33 0.191 7.19 1.27 7.29
6/4/2022 8:45:00 AM 17.02 62.636 0.191 7.2 1.61 7.38
6/4/2022 9:00:00 AM 17.17 62.906 0.191 7.2 1.2 7.46
6/4/2022 9:15:00 AM 17.32 63.176 0.191 7.2 1.34 7.46
6/4/2022 9:30:00 AM 17.49 63.482 0.191 7.21 1.26 7.46
6/4/2022 9:45:00 AM 17.69 63.842 0.191 7.21 1.23 7.51
6/4/2022 10:00:00 AM 17.91 64.238 0.191 7.22 1.39 7.49
6/4/2022 10:15:00 AM 18.17 64.706 0.191 7.22 1.32 7.5
6/4/2022 10:30:00 AM 18.43 65.174 0.191 7.22 1.19 7.5
6/4/2022 10:45:00 AM 18.7 65.66 0.191 7.22 1.21 7.52
6/4/2022 11:00:00 AM 18.96 66.128 0.191 7.22 1.13 7.49
6/4/2022 11:15:00 AM 19.3 66.74 0.191 7.22 1.12 7.52
6/4/2022 11:30:00 AM 19.58 67.244 0.192 7.23 1.32 7.5
6/4/2022 11:45:00 AM 19.87 67.766 0.192 7.23 1.23 7.5
6/4/2022 12:00:00 PM 20.11 68.198 0.192 7.23 1.46 7.48
6/4/2022 12:15:00 PM 20.36 68.648 0.192 7.23 1.2 7.48
6/4/2022 12:30:00 PM 20.57 69.026 0.193 7.23 1.23 7.47
6/4/2022 12:45:00 PM 20.79 69.422 0.193 7.23 1.27 7.45
6/4/2022 1:00:00 PM 21.01 69.818 0.193 7.23 1.51 7.46
6/4/2022 1:15:00 PM 21.19 70.142 0.193 7.24 1.28 7.46
6/4/2022 1:30:00 PM 21.32 70.376 0.193 7.23 1.34 7.44
6/4/2022 1:45:00 PM 21.43 70.574 0.194 7.23 1.2 7.42
6/4/2022 2:00:00 PM 21.59 70.862 0.194 7.23 1.1 7.4
6/4/2022 2:15:00 PM 21.68 71.024 0.194 7.23 1.16 7.39
6/4/2022 2:30:00 PM 21.79 71.222 0.194 7.23 1.26 7.43
6/4/2022 2:45:00 PM 21.87 71.366 0.195 7.23 1.25 7.45
6/4/2022 3:00:00 PM 21.88 71.384 0.195 7.23 1.04 7.39
6/4/2022 3:15:00 PM 21.92 71.456 0.195 7.23 1.24 7.37
6/4/2022 3:30:00 PM 21.94 71.492 0.195 7.23 1.3 7.37
6/4/2022 3:45:00 PM 21.92 71.456 0.195 7.22 1.35 7.33
6/4/2022 4:00:00 PM 21.88 71.384 0.195 7.23 1.34 7.34
6/4/2022 4:15:00 PM 21.82 71.276 0.195 7.22 1.37 7.27
6/4/2022 4:30:00 PM 21.77 71.186 0.196 7.22 2.35 7.23
6/4/2022 4:45:00 PM 21.71 71.078 0.196 7.21 1.3 7.2
6/4/2022 5:00:00 PM 21.6 70.88 0.196 7.21 1.6 7.2
6/4/2022 5:15:00 PM 21.48 70.664 0.195 7.21 1.6 7.16
6/4/2022 5:30:00 PM 21.35 70.43 0.195 7.21 1.36 7.11
6/4/2022 5:45:00 PM 21.27 70.286 0.195 7.21 1.14 7.14
6/4/2022 6:00:00 PM 21.08 69.944 0.195 7.2 1.19 7.1
6/4/2022 6:15:00 PM 20.92 69.656 0.195 7.2 1.29 7.06
6/4/2022 6:30:00 PM 20.72 69.296 0.195 7.19 1.14 6.99
6/4/2022 6:45:00 PM 20.55 68.99 0.195 7.19 1.28 6.94
6/4/2022 7:00:00 PM 20.34 68.612 0.195 7.19 1.37 6.91
6/4/2022 7:15:00 PM 20.16 68.288 0.195 7.18 1.18 6.88
6/4/2022 7:30:00 PM 19.94 67.892 0.195 7.18 1.33 6.86
6/4/2022 7:45:00 PM 19.71 67.478 0.195 7.18 1.4 6.82
6/4/2022 8:00:00 PM 19.53 67.154 0.195 7.17 1.19 6.81
6/4/2022 8:15:00 PM 19.3 66.74 0.195 7.17 1.3 6.76
6/4/2022 8:30:00 PM 19.1 66.38 0.195 7.16 1.34 6.72
6/4/2022 8:45:00 PM 18.89 66.002 0.195 7.15 1.53 6.66
6/4/2022 9:00:00 PM 18.73 65.714 0.195 7.15 1.51 6.63
6/4/2022 9:15:00 PM 18.55 65.39 0.195 7.14 1.28 6.6
6/4/2022 9:30:00 PM 18.4 65.12 0.195 7.14 1.41 6.59
6/4/2022 9:45:00 PM 18.26 64.868 0.195 7.13 1.19 6.56
6/4/2022 10:00:00 PM 18.16 64.688 0.195 7.13 1.22 6.54
6/4/2022 10:15:00 PM 18.03 64.454 0.195 7.13 1.37 6.51
6/4/2022 10:30:00 PM 17.93 64.274 0.195 7.13 1.21 6.51
6/4/2022 10:45:00 PM 17.79 64.022 0.195 7.13 1.45 6.59
6/4/2022 11:00:00 PM 17.73 63.914 0.195 7.13 1.36 6.51
6/4/2022 11:15:00 PM 17.64 63.752 0.195 7.13 1.35 6.55
6/4/2022 11:30:00 PM 17.57 63.626 0.195 7.13 1.51 6.52
6/4/2022 11:45:00 PM 17.49 63.482 0.195 7.13 1.55 6.54
6/5/2022 12:00:00 AM 17.37 63.266 0.195 7.13 1.53 6.56
6/5/2022 12:15:00 AM 17.29 63.122 0.195 7.13 1.4 6.6
6/5/2022 12:30:00 AM 17.22 62.996 0.196 7.13 1.22 6.62
6/5/2022 12:45:00 AM 17.14 62.852 0.196 7.13 1.49 6.57
6/5/2022 1:00:00 AM 17.06 62.708 0.196 7.14 1.18 6.66
6/5/2022 1:15:00 AM 16.99 62.582 0.196 7.14 1.64 6.66
6/5/2022 1:30:00 AM 16.93 62.474 0.196 7.13 1.45 6.66
6/5/2022 1:45:00 AM 16.85 62.33 0.196 7.14 1.35 6.71
6/5/2022 2:00:00 AM 16.79 62.222 0.196 7.13 1.44 6.71
6/5/2022 2:15:00 AM 16.74 62.132 0.196 7.14 1.38 6.68
6/5/2022 2:30:00 AM 16.67 62.006 0.196 7.14 1.31 6.68
6/5/2022 2:45:00 AM 16.6 61.88 0.196 7.14 2.2 6.8
6/5/2022 3:00:00 AM 16.54 61.772 0.196 7.14 1.21 6.73
6/5/2022 3:15:00 AM 16.49 61.682 0.196 7.14 1.3 6.81
6/5/2022 3:30:00 AM 16.42 61.556 0.196 7.14 1.48 6.83
6/5/2022 3:45:00 AM 16.37 61.466 0.196 7.14 1.61 6.75
6/5/2022 4:00:00 AM 16.33 61.394 0.196 7.14 1.57 6.83
6/5/2022 4:15:00 AM 16.26 61.268 0.196 7.15 1.3 6.83
6/5/2022 4:30:00 AM 16.23 61.214 0.196 7.14 1.43 6.8
6/5/2022 4:45:00 AM 16.18 61.124 0.196 7.14 1.39 6.8
6/5/2022 5:00:00 AM 16.12 61.016 0.196 7.15 1.39 6.9
6/5/2022 5:15:00 AM 16.08 60.944 0.196 7.15 1.29 6.91
6/5/2022 5:30:00 AM 16.02 60.836 0.196 7.15 1.42 6.87
6/5/2022 5:45:00 AM 15.97 60.746 0.196 7.15 1.37 6.84
6/5/2022 6:00:00 AM 15.93 60.674 0.196 7.15 1.62 6.91
6/5/2022 6:15:00 AM 15.91 60.638 0.196 7.15 1.31 6.98
6/5/2022 6:30:00 AM 15.87 60.566 0.196 7.15 1.3 6.96
6/5/2022 6:45:00 AM 15.86 60.548 0.197 7.16 1.24 7
6/5/2022 7:00:00 AM 15.84 60.512 0.197 7.16 1.22 7.06
6/5/2022 7:15:00 AM 15.86 60.548 0.197 7.16 1.28 7.07
6/5/2022 7:30:00 AM 15.9 60.62 0.197 7.17 1.24 7.14
6/5/2022 7:45:00 AM 15.93 60.674 0.197 7.17 1.16 7.2
6/5/2022 8:00:00 AM 16.02 60.836 0.197 7.17 1.22 7.25
6/5/2022 8:15:00 AM 16.11 60.998 0.197 7.18 1.21 7.37
6/5/2022 8:30:00 AM 16.2 61.16 0.197 7.19 1.09 7.41
6/5/2022 8:45:00 AM 16.29 61.322 0.197 7.19 1.19 7.45
6/5/2022 9:00:00 AM 16.42 61.556 0.197 7.19 1.16 7.53
6/5/2022 9:15:00 AM 16.52 61.736 0.197 7.2 1.14 7.56
6/5/2022 9:30:00 AM 16.69 62.042 0.197 7.2 1.07 7.65
6/5/2022 9:45:00 AM 16.84 62.312 0.197 7.21 1.08 7.7
6/5/2022 10:00:00 AM 17.01 62.618 0.197 7.21 1.14 7.73
6/5/2022 10:15:00 AM 17.18 62.924 0.197 7.21 1.07 7.74
6/5/2022 10:30:00 AM 17.45 63.41 0.197 7.21 1.15 7.75
6/5/2022 10:45:00 AM 17.64 63.752 0.197 7.21 1.1 7.71
6/5/2022 11:00:00 AM 17.92 64.256 0.197 7.21 1.08 7.73
6/5/2022 11:15:00 AM 18.12 64.616 0.197 7.22 1.11 7.7
6/5/2022 11:30:00 AM 18.38 65.084 0.197 7.22 1.06 7.71
6/5/2022 11:45:00 AM 18.67 65.606 0.197 7.22 1.06 7.72
6/5/2022 12:00:00 PM 18.96 66.128 0.197 7.22 1.11 7.68
6/5/2022 12:15:00 PM 19.31 66.758 0.198 7.22 1.24 7.68
6/5/2022 12:30:00 PM 19.55 67.19 0.198 7.23 1.01 7.66
6/5/2022 12:45:00 PM 19.94 67.892 0.199 7.21 1.15 7.63
6/5/2022 1:00:00 PM 20.09 68.162 0.198 7.22 0.99 7.62
6/5/2022 1:15:00 PM 20.32 68.576 0.199 7.21 1.08 7.57
6/5/2022 1:30:00 PM 20.55 68.99 0.199 7.21 0.92 7.59
6/5/2022 1:45:00 PM 20.73 69.314 0.2 7.21 1 7.54
6/5/2022 2:00:00 PM 20.9 69.62 0.2 7.21 0.94 7.54
6/5/2022 2:15:00 PM 21.06 69.908 0.2 7.21 1.05 7.52
6/5/2022 2:30:00 PM 21.23 70.214 0.2 7.21 0.96 7.51
6/5/2022 2:45:00 PM 21.35 70.43 0.2 7.21 8.15 7.54
6/5/2022 3:00:00 PM 21.45 70.61 0.2 7.2 0.96 7.51
6/5/2022 3:15:00 PM 21.47 70.646 0.201 7.2 0.97 7.5
6/5/2022 3:30:00 PM 21.52 70.736 0.201 7.2 1.05 7.42
6/5/2022 3:45:00 PM 21.57 70.826 0.201 7.2 1.04 7.46
6/5/2022 4:00:00 PM 21.54 70.772 0.201 7.2 1.39 7.39
6/5/2022 4:15:00 PM 21.43 70.574 0.201 7.19 1.37 7.34
6/5/2022 4:30:00 PM 21.25 70.25 0.201 7.19 1.25 7.26
6/5/2022 4:45:00 PM 21.12 70.016 0.201 7.19 1.21 7.2
6/5/2022 5:00:00 PM 20.92 69.656 0.2 7.18 1.32 7.11
6/5/2022 5:15:00 PM 20.7 69.26 0.201 7.17 1.11 7.05
6/5/2022 5:30:00 PM 20.54 68.972 0.201 7.17 1.1 7.02
6/5/2022 5:45:00 PM 20.39 68.702 0.201 7.16 1.19 7.01
6/5/2022 6:00:00 PM 20.22 68.396 0.201 7.16 1.06 6.98
6/5/2022 6:15:00 PM 20.07 68.126 0.2 7.16 1.32 6.99
6/5/2022 6:30:00 PM 19.96 67.92799 0.2 7.16 1.16 6.91
6/5/2022 6:45:00 PM 19.89 67.802 0.2 7.15 1.01 6.88
6/5/2022 7:00:00 PM 19.79 67.622 0.2 7.15 1.2 6.89
6/5/2022 7:15:00 PM 19.65 67.37 0.2 7.15 1.12 6.87
6/5/2022 7:30:00 PM 19.54 67.172 0.2 7.15 1.31 6.88
6/5/2022 7:45:00 PM 19.4 66.92 0.2 7.14 1.18 6.8
6/5/2022 8:00:00 PM 19.29 66.722 0.2 7.14 1.13 6.8
6/5/2022 8:15:00 PM 19.14 66.452 0.2 7.14 1.21 6.74
6/5/2022 8:30:00 PM 18.93 66.074 0.2 7.13 1.23 6.69
6/5/2022 8:45:00 PM 18.75 65.75 0.2 7.12 1.29 6.64
6/5/2022 9:00:00 PM 18.6 65.48 0.2 7.12 1.26 6.58
6/5/2022 9:15:00 PM 18.44 65.192 0.2 7.11 1.38 6.53
6/5/2022 9:30:00 PM 18.3 64.94 0.2 7.11 1.28 6.5
6/5/2022 9:45:00 PM 18.17 64.706 0.201 7.11 1.2 6.48
6/5/2022 10:00:00 PM 18.08 64.544 0.201 7.1 1.54 6.45
6/5/2022 10:15:00 PM 17.96 64.328 0.201 7.1 1.33 6.44
6/5/2022 10:30:00 PM 17.88 64.184 0.201 7.1 1.17 6.46
6/5/2022 10:45:00 PM 17.81 64.058 0.201 7.1 1.18 6.46
6/5/2022 11:00:00 PM 17.78 64.004 0.201 7.1 1.12 6.42
6/5/2022 11:15:00 PM 17.74 63.932 0.201 7.09 1.25 6.37
6/5/2022 11:30:00 PM 17.7 63.86 0.201 7.09 1.3 6.35
6/5/2022 11:45:00 PM 17.64 63.752 0.201 7.09 1.39 6.39
6/6/2022 12:00:00 AM 17.6 63.68 0.201 7.09 1.34 6.35
6/6/2022 12:15:00 AM 17.54 63.572 0.201 7.09 1.15 6.39
6/6/2022 12:30:00 AM 17.52 63.536 0.201 7.09 1.18 6.36
6/6/2022 12:45:00 AM 17.48 63.464 0.201 7.09 1.38 6.34
6/6/2022 1:00:00 AM 17.45 63.41 0.201 7.09 1.1 6.32
6/6/2022 1:15:00 AM 17.41 63.338 0.202 7.09 1.39 6.4
6/6/2022 1:30:00 AM 17.38 63.284 0.202 7.09 1.29 6.31
6/6/2022 1:45:00 AM 17.35 63.23 0.202 7.09 1.21 6.37
6/6/2022 2:00:00 AM 17.33 63.194 0.202 7.09 1.44 6.37
6/6/2022 2:15:00 AM 17.29 63.122 0.202 7.09 1.2 6.41
6/6/2022 2:30:00 AM 17.26 63.068 0.202 7.09 1.23 6.41
6/6/2022 2:45:00 AM 17.24 63.032 0.202 7.09 1.39 6.37
6/6/2022 3:00:00 AM 17.2 62.96 0.202 7.09 1.35 6.4
6/6/2022 3:15:00 AM 17.17 62.906 0.202 7.09 1.26 6.43
6/6/2022 3:30:00 AM 17.15 62.87 0.202 7.09 1.23 6.37
6/6/2022 3:45:00 AM 17.11 62.798 0.202 7.09 1.28 6.39
6/6/2022 4:00:00 AM 17.08 62.744 0.202 7.09 1.49 6.42
6/6/2022 4:15:00 AM 17.04 62.672 0.202 7.09 1.36 6.45
6/6/2022 4:30:00 AM 17.02 62.636 0.202 7.09 1.53 6.48
6/6/2022 4:45:00 AM 16.98 62.564 0.202 7.09 1.55 6.45
6/6/2022 5:00:00 AM 16.96 62.528 0.202 7.09 1.33 6.46
6/6/2022 5:15:00 AM 16.93 62.474 0.202 7.1 1.44 6.41
6/6/2022 5:30:00 AM 16.89 62.402 0.202 7.1 1.23 6.37
6/6/2022 5:45:00 AM 16.86 62.348 0.202 7.1 1.29 6.42
6/6/2022 6:00:00 AM 16.83 62.294 0.203 7.1 1.25 6.53
6/6/2022 6:15:00 AM 16.79 62.222 0.203 7.1 1.31 6.59
6/6/2022 6:30:00 AM 16.76 62.168 0.203 7.1 1.23 6.51
6/6/2022 6:45:00 AM 16.74 62.132 0.203 7.1 1.23 6.54
6/6/2022 7:00:00 AM 16.72 62.096 0.203 7.11 1.56 6.66
6/6/2022 7:15:00 AM 16.7 62.06 0.203 7.11 1.2 6.66
6/6/2022 7:30:00 AM 16.71 62.078 0.203 7.12 1.28 6.76
6/6/2022 7:45:00 AM 16.76 62.168 0.203 7.13 1.1 6.88
6/6/2022 8:00:00 AM 16.85 62.33 0.203 7.14 1.23 7.01
6/6/2022 8:15:00 AM 16.9 62.42 0.203 7.14 1.15 7.06
6/6/2022 8:30:00 AM 16.96 62.528 0.203 7.15 1.16 7.13
6/6/2022 8:45:00 AM 17.08 62.744 0.203 7.15 1.12 7.19
6/6/2022 9:00:00 AM 17.16 62.888 0.203 7.15 1.28 7.22
6/6/2022 9:15:00 AM 17.3 63.14 0.203 7.16 1.12 7.26
6/6/2022 9:30:00 AM 17.44 63.392 0.203 7.16 1.14 7.28
6/6/2022 9:45:00 AM 17.68 63.824 0.203 7.16 1.13 7.35
6/6/2022 10:00:00 AM 17.86 64.148 0.203 7.16 1.04 7.37
6/6/2022 10:15:00 AM 18.1 64.58 0.203 7.16 1.07 7.38
6/6/2022 10:30:00 AM 18.33 64.994 0.203 7.17 1.06 7.39
6/6/2022 10:45:00 AM 18.59 65.462 0.203 7.17 1.02 7.4
6/6/2022 11:00:00 AM 18.84 65.912 0.203 7.17 1.03 7.42
6/6/2022 11:15:00 AM 19.12 66.416 0.203 7.17 0.99 7.45
6/6/2022 11:30:00 AM 19.44 66.992 0.203 7.17 1.04 7.44
6/6/2022 11:45:00 AM 19.72 67.496 0.204 7.17 1.04 7.44
6/6/2022 12:00:00 PM 19.98 67.964 0.205 7.18 0.96 7.47
6/6/2022 12:15:00 PM 20.23 68.414 0.205 7.19 0.98 7.5
6/6/2022 12:30:00 PM 20.45 68.81 0.205 7.19 0.94 7.53
6/6/2022 12:45:00 PM 20.69 69.242 0.205 7.19 0.96 7.52
6/6/2022 1:00:00 PM 20.89 69.602 0.205 7.18 1.03 7.5
6/6/2022 1:15:00 PM 21.08 69.944 0.206 7.18 0.87 7.49
6/6/2022 1:30:00 PM 21.32 70.376 0.206 7.18 1.03 7.48
6/6/2022 1:45:00 PM 21.44 70.592 0.206 7.18 0.99 7.47
6/6/2022 2:00:00 PM 21.6 70.88 0.206 7.18 0.99 7.45
6/6/2022 2:15:00 PM 21.71 71.078 0.206 7.19 0.99 7.48
6/6/2022 2:30:00 PM 21.83 71.294 0.206 7.19 1.08 7.48
6/6/2022 2:45:00 PM 21.9 71.42 0.206 7.19 0.9 7.51
6/6/2022 3:00:00 PM 21.89 71.402 0.206 7.18 1.38 7.49
6/6/2022 3:15:00 PM 21.89 71.402 0.206 7.18 0.9 7.47
6/6/2022 3:30:00 PM 21.89 71.402 0.206 7.19 1.19 7.48
6/6/2022 3:45:00 PM 21.85 71.33 0.205 7.19 1.04 7.48
6/6/2022 4:00:00 PM 21.75 71.15 0.205 7.19 0.99 7.42
6/6/2022 4:15:00 PM 21.68 71.024 0.205 7.19 0.95 7.43
6/6/2022 4:30:00 PM 21.6 70.88 0.205 7.18 1.06 7.44
6/6/2022 4:45:00 PM 21.51 70.718 0.206 7.18 0.97 7.4
6/6/2022 5:00:00 PM 21.44 70.592 0.206 7.18 1.07 7.37
6/6/2022 5:15:00 PM 21.29 70.32201 0.206 7.17 1.06 7.3
6/6/2022 5:30:00 PM 21.15 70.07 0.206 7.17 1.06 7.27
6/6/2022 5:45:00 PM 21.02 69.836 0.206 7.17 1.02 7.25
6/6/2022 6:00:00 PM 20.88 69.584 0.205 7.16 0.93 7.22
6/6/2022 6:15:00 PM 20.72 69.296 0.205 7.16 1.01 7.18
6/6/2022 6:30:00 PM 20.56 69.008 0.205 7.16 1.12 7.13
6/6/2022 6:45:00 PM 20.41 68.738 0.205 7.15 1.05 7.07
6/6/2022 7:00:00 PM 20.24 68.432 0.205 7.14 0.96 7.04
6/6/2022 7:15:00 PM 20.08 68.144 0.205 7.14 1.09 6.98
6/6/2022 7:30:00 PM 19.91 67.838 0.205 7.13 1.11 6.88
6/6/2022 7:45:00 PM 19.76 67.568 0.205 7.12 1.15 6.82
6/6/2022 8:00:00 PM 19.61 67.298 0.205 7.12 1.16 6.73
6/6/2022 8:15:00 PM 19.5 67.1 0.206 7.11 1.55 6.62
6/6/2022 8:30:00 PM 19.36 66.848 0.205 7.1 1.46 6.57
6/6/2022 8:45:00 PM 19.2 66.56 0.205 7.1 1.08 6.51
6/6/2022 9:00:00 PM 19.09 66.362 0.205 7.09 1.28 6.41
6/6/2022 9:15:00 PM 18.98 66.164 0.205 7.08 1.14 6.35
6/6/2022 9:30:00 PM 18.88 65.984 0.205 7.08 1.25 6.28
6/6/2022 9:45:00 PM 18.76 65.768 0.205 7.07 1.12 6.25
6/6/2022 10:00:00 PM 18.67 65.606 0.205 7.07 1.29 6.22
6/6/2022 10:15:00 PM 18.57 65.426 0.205 7.07 1.07 6.2
6/6/2022 10:30:00 PM 18.5 65.3 0.205 7.07 1.11 6.17
6/6/2022 10:45:00 PM 18.44 65.192 0.205 7.06 1.24 6.16
6/6/2022 11:00:00 PM 18.38 65.084 0.206 7.06 1.19 6.13
6/6/2022 11:15:00 PM 18.31 64.958 0.206 7.06 1.25 6.14
6/6/2022 11:30:00 PM 18.26 64.868 0.206 7.06 1.09 6.12
6/6/2022 11:45:00 PM 18.22 64.796 0.206 7.06 1.02 6.13
6/7/2022 12:00:00 AM 18.2 64.76 0.206 7.06 1.52 6.1
6/7/2022 12:15:00 AM 18.12 64.616 0.206 7.06 1.62 6.1
6/7/2022 12:30:00 AM 18.08 64.544 0.206 7.06 1.09 6.11
6/7/2022 12:45:00 AM 18.04 64.472 0.206 7.06 1.17 6.12
6/7/2022 1:00:00 AM 18 64.4 0.206 7.06 1.01 6.13
6/7/2022 1:15:00 AM 17.94 64.292 0.206 7.06 1.04 6.16
6/7/2022 1:30:00 AM 17.9 64.22 0.206 7.06 2.04 6.17
6/7/2022 1:45:00 AM 17.87 64.166 0.207 7.07 1.1 6.15
6/7/2022 2:00:00 AM 17.83 64.094 0.207 7.07 0.99 6.17
6/7/2022 2:15:00 AM 17.81 64.058 0.207 7.06 1.1 6.14
6/7/2022 2:30:00 AM 17.78 64.004 0.207 7.06 1.03 6.13
6/7/2022 2:45:00 AM 17.76 63.968 0.207 7.07 1.51 6.17
6/7/2022 3:00:00 AM 17.74 63.932 0.206 7.06 1.14 6.14
6/7/2022 3:15:00 AM 17.72 63.896 0.206 7.07 1.17 6.18
6/7/2022 3:30:00 AM 17.72 63.896 0.206 7.06 1.24 6.11
6/7/2022 3:45:00 AM 17.7 63.86 0.206 7.06 1.53 6.14
6/7/2022 4:00:00 AM 17.69 63.842 0.206 7.06 2.53 6.11
6/7/2022 4:15:00 AM 17.67 63.806 0.206 7.06 1.17 6.13
6/7/2022 4:30:00 AM 17.66 63.788 0.206 7.06 1.3 6.07
6/7/2022 4:45:00 AM 17.64 63.752 0.207 7.06 1.61 6.07
6/7/2022 5:00:00 AM 17.62 63.716 0.207 7.07 1.25 6.12
6/7/2022 5:15:00 AM 17.61 63.698 0.207 7.07 1.41 6.12
6/7/2022 5:30:00 AM 17.59 63.662 0.207 7.07 1.3 6.16
6/7/2022 5:45:00 AM 17.56 63.608 0.207 7.07 1.19 6.15
6/7/2022 6:00:00 AM 17.53 63.554 0.207 7.07 1.23 6.14
6/7/2022 6:15:00 AM 17.52 63.536 0.207 7.07 1.3 6.16
6/7/2022 6:30:00 AM 17.51 63.518 0.207 7.07 1.22 6.19
6/7/2022 6:45:00 AM 17.5 63.5 0.207 7.08 1.2 6.21
6/7/2022 7:00:00 AM 17.5 63.5 0.207 7.08 1.14 6.32
6/7/2022 7:15:00 AM 17.51 63.518 0.207 7.09 1.3 6.41
6/7/2022 7:30:00 AM 17.52 63.536 0.207 7.1 1.12 6.54
6/7/2022 7:45:00 AM 17.54 63.572 0.207 7.1 1.05 6.66
6/7/2022 8:00:00 AM 17.59 63.662 0.207 7.11 1.09 6.77
6/7/2022 8:15:00 AM 17.62 63.716 0.207 7.12 0.99 6.86
6/7/2022 8:30:00 AM 17.65 63.77 0.207 7.13 1.02 6.91
6/7/2022 8:45:00 AM 17.7 63.86 0.207 7.13 1.09 6.98
6/7/2022 9:00:00 AM 17.74 63.932 0.207 7.14 1.07 7.04
6/7/2022 9:15:00 AM 17.84 64.112 0.207 7.14 1.42 7.16
6/7/2022 9:30:00 AM 17.88 64.184 0.207 7.15 1.03 7.21
6/7/2022 9:45:00 AM 17.91 64.238 0.207 7.15 1.09 7.23
6/7/2022 10:00:00 AM 17.96 64.328 0.207 7.15 1.02 7.32
6/7/2022 10:15:00 AM 17.99 64.382 0.207 7.16 0.95 7.34
6/7/2022 10:30:00 AM 18.03 64.454 0.207 7.16 0.9 7.35
6/7/2022 10:45:00 AM 18.11 64.598 0.208 7.17 1 7.4
6/7/2022 11:00:00 AM 18.17 64.706 0.208 7.17 0.9 7.42
6/7/2022 11:15:00 AM 18.3 64.94 0.208 7.17 1.01 7.52
6/7/2022 11:30:00 AM 18.44 65.192 0.208 7.18 0.94 7.54
6/7/2022 11:45:00 AM 18.51 65.318 0.208 7.18 0.93 7.57
6/7/2022 12:00:00 PM 18.6 65.48 0.208 7.18 0.96 7.57
6/7/2022 12:15:00 PM 18.65 65.57 0.208 7.18 0.91 7.6
6/7/2022 12:30:00 PM 18.73 65.714 0.208 7.19 0.94 7.58
6/7/2022 12:45:00 PM 18.77 65.786 0.207 7.19 0.92 7.59
6/7/2022 1:00:00 PM 18.77 65.786 0.207 7.18 1 7.54
6/7/2022 1:15:00 PM 18.78 65.804 0.207 7.18 1.19 7.52
6/7/2022 1:30:00 PM 18.77 65.786 0.207 7.17 1 7.47
6/7/2022 1:45:00 PM 18.76 65.768 0.208 7.16 0.94 7.43
6/7/2022 2:00:00 PM 18.75 65.75 0.208 7.16 0.98 7.36
6/7/2022 2:15:00 PM 18.72 65.696 0.209 7.16 1.09 7.29
6/7/2022 2:30:00 PM 18.69 65.642 0.208 7.15 0.98 7.25
6/7/2022 2:45:00 PM 18.66 65.588 0.208 7.15 1.04 7.17
6/7/2022 3:00:00 PM 18.63 65.534 0.207 7.14 1.1 7.11
6/7/2022 3:15:00 PM 18.63 65.534 0.207 7.14 0.93 7.12
6/7/2022 3:30:00 PM 18.65 65.57 0.207 7.14 1.15 7.1
6/7/2022 3:45:00 PM 18.65 65.57 0.207 7.14 0.98 7.14
6/7/2022 4:00:00 PM 18.65 65.57 0.206 7.14 0.91 7.14
6/7/2022 4:15:00 PM 18.65 65.57 0.206 7.14 0.89 7.13
6/7/2022 4:30:00 PM 18.64 65.552 0.206 7.14 1.04 7.11
6/7/2022 4:45:00 PM 18.63 65.534 0.205 7.14 0.91 7.11
6/7/2022 5:00:00 PM 18.61 65.498 0.206 7.14 1.01 7.12
6/7/2022 5:15:00 PM 18.58 65.444 0.206 7.14 0.95 7.11
6/7/2022 5:30:00 PM 18.54 65.372 0.205 7.14 1.45 7.05
6/7/2022 5:45:00 PM 18.5 65.3 0.205 7.13 1.06 6.99
6/7/2022 6:00:00 PM 18.47 65.246 0.205 7.13 1.55 6.94
6/7/2022 6:15:00 PM 18.44 65.192 0.205 7.12 1.12 6.89
6/7/2022 6:30:00 PM 18.43 65.174 0.205 7.12 1.05 6.84
6/7/2022 6:45:00 PM 18.39 65.102 0.205 7.12 1.02 6.8
6/7/2022 7:00:00 PM 18.36 65.048 0.205 7.12 0.94 6.81
6/7/2022 7:15:00 PM 18.34 65.012 0.205 7.12 0.99 6.78
6/7/2022 7:30:00 PM 18.32 64.976 0.205 7.12 1.03 6.74
6/7/2022 7:45:00 PM 18.29 64.922 0.204 7.11 1.02 6.69
6/7/2022 8:00:00 PM 18.25 64.85 0.204 7.11 1.01 6.69
6/7/2022 8:15:00 PM 18.22 64.796 0.204 7.11 1.26 6.63
6/7/2022 8:30:00 PM 18.19 64.742 0.204 7.11 1.01 6.61
6/7/2022 8:45:00 PM 18.18 64.724 0.204 7.1 1.2 6.57
6/7/2022 9:00:00 PM 18.14 64.652 0.204 7.1 1.05 6.52
6/7/2022 9:15:00 PM 18.12 64.616 0.204 7.1 1.17 6.47
6/7/2022 9:30:00 PM 18.09 64.562 0.204 7.1 1.15 6.49
6/7/2022 9:45:00 PM 18.06 64.508 0.204 7.1 1.09 6.47
6/7/2022 10:00:00 PM 18.05 64.49 0.205 7.1 1.57 6.47
6/7/2022 10:15:00 PM 18.02 64.436 0.204 7.1 1.28 6.45
6/7/2022 10:30:00 PM 18 64.4 0.204 7.1 1.22 6.42
6/7/2022 10:45:00 PM 17.97 64.346 0.204 7.1 1.02 6.43
6/7/2022 11:00:00 PM 17.95 64.31 0.204 7.1 1.3 6.48
6/7/2022 11:15:00 PM 17.94 64.292 0.204 7.1 1.17 6.4
6/7/2022 11:30:00 PM 17.92 64.256 0.204 7.1 1.04 6.46
6/7/2022 11:45:00 PM 17.9 64.22 0.204 7.1 1.18 6.43
6/8/2022 12:00:00 AM 17.88 64.184 0.204 7.1 1.18 6.45
6/8/2022 12:15:00 AM 17.87 64.166 0.204 7.1 1.37 6.49
6/8/2022 12:30:00 AM 17.86 64.148 0.203 7.1 1.16 6.42
6/8/2022 12:45:00 AM 17.84 64.112 0.203 7.1 1.39 6.47
6/8/2022 1:00:00 AM 17.84 64.112 0.203 7.1 1.05 6.46
6/8/2022 1:15:00 AM 17.82 64.076 0.203 7.11 1.15 6.54
6/8/2022 1:30:00 AM 17.82 64.076 0.203 7.1 1.18 6.47
6/8/2022 1:45:00 AM 17.8 64.04 0.203 7.11 1.19 6.5
6/8/2022 2:00:00 AM 17.79 64.022 0.203 7.1 1.13 6.47
6/8/2022 2:15:00 AM 17.78 64.004 0.203 7.11 1.12 6.48
6/8/2022 2:30:00 AM 17.77 63.986 0.203 7.1 1.03 6.49
6/8/2022 2:45:00 AM 17.76 63.968 0.203 7.11 1.05 6.46
6/8/2022 3:00:00 AM 17.74 63.932 0.203 7.11 1.23 6.42
6/8/2022 3:15:00 AM 17.72 63.896 0.203 7.11 1.27 6.53
6/8/2022 3:30:00 AM 17.7 63.86 0.203 7.12 1.1 6.55
6/8/2022 3:45:00 AM 17.67 63.806 0.203 7.12 1.28 6.6
6/8/2022 4:00:00 AM 17.63 63.734 0.203 7.12 1.1 6.6
6/8/2022 4:15:00 AM 17.6 63.68 0.203 7.12 1.27 6.6
6/8/2022 4:30:00 AM 17.58 63.644 0.203 7.12 1.52 6.6
6/8/2022 4:45:00 AM 17.53 63.554 0.203 7.13 1.23 6.62
6/8/2022 5:00:00 AM 17.5 63.5 0.203 7.13 1.35 6.61
6/8/2022 5:15:00 AM 17.46 63.428 0.203 7.13 1.06 6.61
6/8/2022 5:30:00 AM 17.41 63.338 0.203 7.13 1.24 6.59
6/8/2022 5:45:00 AM 17.35 63.23 0.203 7.13 1.18 6.61
6/8/2022 6:00:00 AM 17.29 63.122 0.203 7.13 1.19 6.67
6/8/2022 6:15:00 AM 17.24 63.032 0.203 7.13 1.21 6.63
6/8/2022 6:30:00 AM 17.18 62.924 0.203 7.14 1.2 6.75
6/8/2022 6:45:00 AM 17.13 62.834 0.203 7.14 1.11 6.81
6/8/2022 7:00:00 AM 17.1 62.78 0.203 7.14 1.16 6.77
6/8/2022 7:15:00 AM 17.08 62.744 0.203 7.15 1.23 6.85
6/8/2022 7:30:00 AM 17.07 62.726 0.203 7.16 1.22 7
6/8/2022 7:45:00 AM 17.12 62.816 0.203 7.17 1.13 7.16
6/8/2022 8:00:00 AM 17.17 62.906 0.203 7.18 1.21 7.29
6/8/2022 8:15:00 AM 17.2 62.96 0.203 7.18 1.22 7.33
6/8/2022 8:30:00 AM 17.24 63.032 0.203 7.19 1.08 7.39
6/8/2022 8:45:00 AM 17.25 63.05 0.203 7.19 1.06 7.45
6/8/2022 9:00:00 AM 17.29 63.122 0.203 7.19 1.16 7.46
6/8/2022 9:15:00 AM 17.4 63.32 0.203 7.2 1.13 7.57
6/8/2022 9:30:00 AM 17.52 63.536 0.203 7.21 1.01 7.65
6/8/2022 9:45:00 AM 17.57 63.626 0.203 7.22 1.02 7.74
6/8/2022 10:00:00 AM 17.69 63.842 0.203 7.22 1.32 7.83
6/8/2022 10:15:00 AM 17.85 64.13 0.203 7.23 1.01 7.87
6/8/2022 10:30:00 AM 18 64.4 0.203 7.23 0.98 7.9
6/8/2022 10:45:00 AM 18.11 64.598 0.203 7.23 0.97 7.91
6/8/2022 11:00:00 AM 18.26 64.868 0.203 7.24 0.99 7.97
6/8/2022 11:15:00 AM 18.37 65.066 0.203 7.24 0.99 7.92
6/8/2022 11:30:00 AM 18.46 65.228 0.203 7.25 0.93 7.98
6/8/2022 11:45:00 AM 18.71 65.67799 0.203 7.25 2.85 7.99
6/8/2022 12:00:00 PM 18.87 65.966 0.203 7.25 1.06 7.98
6/8/2022 12:15:00 PM 19.02 66.236 0.203 7.25 1.02 8.01
6/8/2022 12:30:00 PM 19.24 66.632 0.203 7.26 1.03 8.01
6/8/2022 12:45:00 PM 19.51 67.118 0.203 7.25 0.91 8.03
6/8/2022 1:00:00 PM 19.77 67.586 0.203 7.26 0.96 8.04
6/8/2022 1:15:00 PM 20.01 68.018 0.203 7.26 0.96 8.02
6/8/2022 1:30:00 PM 20.26 68.468 0.203 7.28 0.92 8.02
6/8/2022 1:45:00 PM 20.44 68.792 0.203 7.25 0.93 8
6/8/2022 2:00:00 PM 20.68 69.224 0.203 7.26 0.9 8
6/8/2022 2:15:00 PM 20.93 69.674 0.203 7.26 1 7.99
6/8/2022 2:30:00 PM 21.07 69.926 0.203 7.26 0.87 7.96
6/8/2022 2:45:00 PM 21.12 70.016 0.203 7.26 0.87 7.93
6/8/2022 3:00:00 PM 21.06 69.908 0.204 7.25 1.04 7.85
6/8/2022 3:15:00 PM 21.04 69.872 0.204 7.25 0.84 7.86
6/8/2022 3:30:00 PM 21.04 69.872 0.204 7.25 0.95 7.85
6/8/2022 3:45:00 PM 21.09 69.962 0.204 7.24 0.78 7.82
6/8/2022 4:00:00 PM 21.18 70.124 0.205 7.24 1.04 7.82
6/8/2022 4:15:00 PM 21.24 70.232 0.205 7.24 0.97 7.79
6/8/2022 4:30:00 PM 21.27 70.286 0.205 7.24 0.98 7.8
6/8/2022 4:45:00 PM 21.32 70.376 0.205 7.23 1.03 7.71
6/8/2022 5:00:00 PM 21.2 70.16 0.205 7.23 0.88 7.63
6/8/2022 5:15:00 PM 21.09 69.962 0.204 7.23 1.59 7.62
6/8/2022 5:30:00 PM 21.02 69.836 0.204 7.23 2.02 7.62
6/8/2022 5:45:00 PM 20.94 69.692 0.204 7.23 1.05 7.65
6/8/2022 6:00:00 PM 20.88 69.584 0.204 7.23 1.05 7.63
6/8/2022 6:15:00 PM 20.77 69.386 0.203 7.22 1.01 7.59
6/8/2022 6:30:00 PM 20.63 69.134 0.203 7.22 1.32 7.51
6/8/2022 6:45:00 PM 20.52 68.936 0.203 7.21 0.99 7.42
6/8/2022 7:00:00 PM 20.36 68.648 0.203 7.2 1.13 7.43
6/8/2022 7:15:00 PM 20.21 68.378 0.203 7.2 1.17 7.36
6/8/2022 7:30:00 PM 20.03 68.054 0.203 7.19 0.94 7.29
6/8/2022 7:45:00 PM 19.85 67.73 0.203 7.18 1.12 7.2
6/8/2022 8:00:00 PM 19.71 67.478 0.203 7.17 1.57 7.11
6/8/2022 8:15:00 PM 19.57 67.226 0.203 7.17 1.25 7.04
6/8/2022 8:30:00 PM 19.41 66.938 0.203 7.16 1.32 6.99
6/8/2022 8:45:00 PM 19.25 66.65 0.203 7.15 1.03 6.89
6/8/2022 9:00:00 PM 19.14 66.452 0.203 7.14 1.19 6.79
6/8/2022 9:15:00 PM 19 66.2 0.203 7.13 1.3 6.71
6/8/2022 9:30:00 PM 18.88 65.984 0.203 7.12 2.53 6.67
6/8/2022 9:45:00 PM 18.8 65.84 0.203 7.12 1.36 6.58
6/8/2022 10:00:00 PM 18.71 65.67799 0.203 7.11 1.5 6.55
6/8/2022 10:15:00 PM 18.63 65.534 0.203 7.11 1.46 6.51
6/8/2022 10:30:00 PM 18.55 65.39 0.204 7.11 1.37 6.49
6/8/2022 10:45:00 PM 18.47 65.246 0.204 7.1 1.35 6.41
6/8/2022 11:00:00 PM 18.4 65.12 0.204 7.1 1.45 6.46
6/8/2022 11:15:00 PM 18.33 64.994 0.204 7.1 1.19 6.45
6/8/2022 11:30:00 PM 18.28 64.904 0.204 7.1 1.15 6.46
6/8/2022 11:45:00 PM 18.24 64.832 0.204 7.1 1.17 6.36
6/9/2022 12:00:00 AM 18.19 64.742 0.204 7.1 1.35 6.42
6/9/2022 12:15:00 AM 18.16 64.688 0.204 7.1 1.51 6.38
6/9/2022 12:30:00 AM 18.1 64.58 0.204 7.09 1.79 6.32
6/9/2022 12:45:00 AM 18.06 64.508 0.204 7.1 1.4 6.42
6/9/2022 1:00:00 AM 18.03 64.454 0.204 7.09 0.89 6.33
6/9/2022 1:15:00 AM 17.99 64.382 0.204 7.1 1.15 6.37
6/9/2022 1:30:00 AM 17.96 64.328 0.204 7.1 1.38 6.4
6/9/2022 1:45:00 AM 17.92 64.256 0.204 7.1 1.23 6.45
6/9/2022 2:00:00 AM 17.89 64.202 0.203 7.1 1.98 6.44
6/9/2022 2:15:00 AM 17.84 64.112 0.201 7.12 3.02 6.57
6/9/2022 2:30:00 AM 17.79 64.022 0.199 7.13 1.83 6.69
6/9/2022 2:45:00 AM 17.75 63.95 0.197 7.14 2.04 6.76
6/9/2022 3:00:00 AM 17.72 63.896 0.196 7.15 1.71 6.83
6/9/2022 3:15:00 AM 17.7 63.86 0.195 7.15 1.92 6.8
6/9/2022 3:30:00 AM 17.67 63.806 0.195 7.16 1.47 6.88
6/9/2022 3:45:00 AM 17.64 63.752 0.194 7.16 1.85 6.85
6/9/2022 4:00:00 AM 17.61 63.698 0.194 7.16 1.93 6.85
6/9/2022 4:15:00 AM 17.56 63.608 0.193 7.17 2.01 6.97
6/9/2022 4:30:00 AM 17.53 63.554 0.192 7.17 2.12 6.99
6/9/2022 4:45:00 AM 17.5 63.5 0.191 7.17 2.1 6.96
6/9/2022 5:00:00 AM 17.46 63.428 0.189 7.19 2.12 7.08
6/9/2022 5:15:00 AM 17.45 63.41 0.189 7.19 2.17 7.1
6/9/2022 5:30:00 AM 17.44 63.392 0.188 7.2 2.47 7.16
6/9/2022 5:45:00 AM 17.44 63.392 0.188 7.21 2.7 7.22
6/9/2022 6:00:00 AM 17.44 63.392 0.187 7.23 3.18 7.27
6/9/2022 6:15:00 AM 17.38 63.284 0.19 7.23 4.5 7.38
6/9/2022 6:30:00 AM 17.36 63.248 0.192 7.27 6.07 7.58
6/9/2022 6:45:00 AM 17.39 63.302 0.189 7.31 8.6 7.74
6/9/2022 7:00:00 AM 17.42 63.356 0.185 7.3 12.93 7.78
6/9/2022 7:15:00 AM 17.45 63.41 0.19 7.26 17.5 7.69
6/9/2022 7:30:00 AM 17.49 63.482 0.178 7.37 165.87 8.11
6/9/2022 7:45:00 AM 17.41 63.338 0.175 7.42 52.68 8.24
6/9/2022 8:00:00 AM 17.31 63.158 0.171 7.43 76.47 8.33
6/9/2022 8:15:00 AM 17.27 63.086 0.167 7.44 102.71 8.39
6/9/2022 8:30:00 AM 17.28 63.104 0.164 7.44 79.59 8.43
6/9/2022 8:45:00 AM 17.28 63.104 0.162 7.45 70.13 8.46
6/9/2022 9:00:00 AM 17.32 63.176 0.159 7.45 66.49 8.5
6/9/2022 9:15:00 AM 17.42 63.356 0.156 7.45 59.81 8.55
6/9/2022 9:30:00 AM 17.65 63.77 0.154 7.45 53.9 8.59
6/9/2022 9:45:00 AM 17.86 64.148 0.153 7.45 47.22 8.62
6/9/2022 10:00:00 AM 17.86 64.148 0.153 7.44 43.74 8.62
6/9/2022 10:15:00 AM 17.84 64.112 0.154 7.44 39.03 8.61
6/9/2022 10:30:00 AM 17.96 64.328 0.154 7.43 40.37 8.62
6/9/2022 10:45:00 AM 17.95 64.31 0.154 7.43 42.47 8.6
6/9/2022 11:00:00 AM 17.98 64.364 0.153 7.42 38.08 8.62
6/9/2022 11:15:00 AM 18.1 64.58 0.153 7.42 36.05 8.61
6/9/2022 11:30:00 AM 18.2 64.76 0.152 7.42 33.95 8.6
6/9/2022 11:45:00 AM 18.42 65.156 0.152 7.42 34.8 8.61
6/9/2022 12:00:00 PM 18.62 65.516 0.151 7.42 29.24 8.61
6/9/2022 12:15:00 PM 18.75 65.75 0.15 7.43 24.88 8.61
6/9/2022 12:30:00 PM 18.9 66.02 0.15 7.43 22.69 8.62
6/9/2022 12:45:00 PM 18.92 66.056 0.149 7.42 15.83 8.58
6/9/2022 1:00:00 PM 18.92 66.056 0.148 7.42 19.79 8.58
6/9/2022 1:15:00 PM 18.85 65.93 0.147 7.41 16.88 8.53
6/9/2022 1:30:00 PM 18.77 65.786 0.146 7.41 16.15 8.52
6/9/2022 1:45:00 PM 18.77 65.786 0.146 7.41 14.87 8.53
6/9/2022 2:00:00 PM 18.95 66.11 0.146 7.41 15.14 8.57
6/9/2022 2:15:00 PM 19.06 66.308 0.146 7.41 15.33 8.59
6/9/2022 2:30:00 PM 19.19 66.542 0.147 7.42 13.74 8.6
6/9/2022 2:45:00 PM 19.18 66.524 0.147 7.41 12.84 8.58
6/9/2022 3:00:00 PM 19.11 66.398 0.147 7.41 12.89 8.53
6/9/2022 3:15:00 PM 18.98 66.164 0.148 7.39 12.12 8.45
6/9/2022 3:30:00 PM 18.94 66.092 0.148 7.39 12.55 8.48
6/9/2022 3:45:00 PM 19.07 66.326 0.148 7.4 11.75 8.52
6/9/2022 4:00:00 PM 19.25 66.65 0.148 7.39 11.23 8.53
6/9/2022 4:15:00 PM 19.22 66.596 0.148 7.39 11.25 8.49
6/9/2022 4:30:00 PM 19.15 66.47 0.148 7.38 10.64 8.44
6/9/2022 4:45:00 PM 19.16 66.488 0.148 7.39 10.11 8.46
6/9/2022 5:00:00 PM 19.21 66.578 0.149 7.38 10.58 8.41
6/9/2022 5:15:00 PM 19.14 66.452 0.149 7.38 10.14 8.38
6/9/2022 5:30:00 PM 19.12 66.416 0.149 7.37 10.35 8.36
6/9/2022 5:45:00 PM 18.94 66.092 0.147 7.37 10.54 8.33
6/9/2022 6:00:00 PM 18.82 65.876 0.148 7.36 9.93 8.28
6/9/2022 6:15:00 PM 18.71 65.67799 0.147 7.35 8.8 8.24
6/9/2022 6:30:00 PM 18.64 65.552 0.148 7.35 8.42 8.26
6/9/2022 6:45:00 PM 18.58 65.444 0.149 7.34 7.75 8.25
6/9/2022 7:00:00 PM 18.52 65.336 0.149 7.34 7.49 8.25
6/9/2022 7:15:00 PM 18.47 65.246 0.149 7.34 7.77 8.26
6/9/2022 7:30:00 PM 18.43 65.174 0.15 7.34 7.48 8.26
6/9/2022 7:45:00 PM 18.38 65.084 0.15 7.34 7.38 8.24
6/9/2022 8:00:00 PM 18.28 64.904 0.15 7.33 7.13 8.2
6/9/2022 8:15:00 PM 18.17 64.706 0.151 7.32 6.85 8.15
6/9/2022 8:30:00 PM 18.07 64.526 0.151 7.31 6.99 8.12
6/9/2022 8:45:00 PM 17.98 64.364 0.151 7.31 6.92 8.09
6/9/2022 9:00:00 PM 17.88 64.184 0.152 7.3 6.44 8.07
6/9/2022 9:15:00 PM 17.79 64.022 0.152 7.29 8.72 8.03
6/9/2022 9:30:00 PM 17.71 63.878 0.152 7.29 6.28 8.03
6/9/2022 9:45:00 PM 17.65 63.77 0.152 7.28 6.01 8.01
6/9/2022 10:00:00 PM 17.59 63.662 0.153 7.28 5.83 8.02
6/9/2022 10:15:00 PM 17.53 63.554 0.153 7.28 5.82 8.02
6/9/2022 10:30:00 PM 17.47 63.446 0.153 7.28 5.4 8.02
6/9/2022 10:45:00 PM 17.41 63.338 0.153 7.28 5.27 8.02
6/9/2022 11:00:00 PM 17.36 63.248 0.154 7.28 4.97 8.02
6/9/2022 11:15:00 PM 17.31 63.158 0.154 7.28 4.98 8.02
6/9/2022 11:30:00 PM 17.28 63.104 0.154 7.28 4.96 8.03
6/9/2022 11:45:00 PM 17.24 63.032 0.155 7.27 5 8.02
6/10/2022 12:00:00 AM 17.2 62.96 0.155 7.27 4.32 8.02
6/10/2022 12:15:00 AM 17.15 62.87 0.155 7.27 4.61 8.03
6/10/2022 12:30:00 AM 17.11 62.798 0.156 7.27 4.39 8.03
6/10/2022 12:45:00 AM 17.07 62.726 0.156 7.27 4.02 8.02
6/10/2022 1:00:00 AM 17.03 62.654 0.156 7.27 3.85 8.03
6/10/2022 1:15:00 AM 17 62.6 0.157 7.27 3.84 8.03
6/10/2022 1:30:00 AM 16.97 62.546 0.157 7.27 4.1 8.03
6/10/2022 1:45:00 AM 16.93 62.474 0.157 7.27 3.58 8.03
6/10/2022 2:00:00 AM 16.88 62.384 0.157 7.27 3.75 8.03
6/10/2022 2:15:00 AM 16.82 62.276 0.158 7.27 3.94 8.04
6/10/2022 2:30:00 AM 16.76 62.168 0.158 7.27 3.49 8.04
6/10/2022 2:45:00 AM 16.7 62.06 0.158 7.27 3.83 8.05
6/10/2022 3:00:00 AM 16.65 61.97 0.158 7.26 3.58 8.05
6/10/2022 3:15:00 AM 16.59 61.862 0.159 7.27 3.22 8.06
6/10/2022 3:30:00 AM 16.53 61.754 0.159 7.26 3.5 8.06
6/10/2022 3:45:00 AM 16.48 61.664 0.159 7.26 3.69 8.05
6/10/2022 4:00:00 AM 16.43 61.574 0.159 7.26 3.3 8.07
6/10/2022 4:15:00 AM 16.37 61.466 0.16 7.26 3.43 8.06
6/10/2022 4:30:00 AM 16.32 61.376 0.16 7.26 3.42 8.08
6/10/2022 4:45:00 AM 16.27 61.286 0.16 7.26 3.5 8.09
6/10/2022 5:00:00 AM 16.22 61.196 0.16 7.26 3.23 8.06
6/10/2022 5:15:00 AM 16.17 61.106 0.161 7.26 3.08 8.09
6/10/2022 5:30:00 AM 16.12 61.016 0.161 7.26 3.28 8.11
6/10/2022 5:45:00 AM 16.07 60.926 0.161 7.26 3.08 8.11
6/10/2022 6:00:00 AM 16.03 60.854 0.161 7.26 3.01 8.14
6/10/2022 6:15:00 AM 15.98 60.764 0.162 7.27 3.09 8.19
6/10/2022 6:30:00 AM 15.95 60.71 0.162 7.27 2.88 8.23
6/10/2022 6:45:00 AM 15.93 60.674 0.162 7.28 2.86 8.27
6/10/2022 7:00:00 AM 15.95 60.71 0.162 7.29 2.91 8.34
6/10/2022 7:15:00 AM 15.97 60.746 0.162 7.3 2.52 8.38
6/10/2022 7:30:00 AM 16.01 60.818 0.162 7.3 2.33 8.45
6/10/2022 7:45:00 AM 16.07 60.926 0.162 7.31 2.39 8.5
6/10/2022 8:00:00 AM 16.15 61.07 0.163 7.32 2.23 8.55
6/10/2022 8:15:00 AM 16.25 61.25 0.163 7.32 2.11 8.6
6/10/2022 8:30:00 AM 16.35 61.43 0.163 7.33 2.19 8.62
6/10/2022 8:45:00 AM 16.48 61.664 0.163 7.33 1.99 8.65
6/10/2022 9:00:00 AM 16.64 61.952 0.163 7.34 2.21 8.67
6/10/2022 9:15:00 AM 16.79 62.222 0.164 7.34 1.96 8.68
6/10/2022 9:30:00 AM 16.98 62.564 0.164 7.35 1.94 8.72
6/10/2022 9:45:00 AM 17.17 62.906 0.164 7.35 1.68 8.72
6/10/2022 10:00:00 AM 17.37 63.266 0.164 7.36 1.75 8.72
6/10/2022 10:15:00 AM 17.63 63.734 0.164 7.36 1.61 8.72
6/10/2022 10:30:00 AM 17.86 64.148 0.165 7.37 1.7 8.72
6/10/2022 10:45:00 AM 18.03 64.454